﻿<?xml version="1.0" encoding="UTF-8" standalone="no" ?>
<gpx xmlns="http://www.topografix.com/GPX/1/1" creator="CompeGPS" version="1.1" xmlns:xsi="http://www.w3.org/2001/XMLSchema-instance" xsi:schemaLocation="http://www.topografix.com/GPX/1/1 http://www.topografix.com/GPX/1/1/gpx.xsd http://www.garmin.com/xmlschemas/GpxExtensions/v3 http://www.garmin.com/xmlschemas/GpxExtensionsv3.xsd http://www.garmin.com/xmlschemas/TrackPointExtension/v1 http://www.garmin.com/xmlschemas/TrackPointExtensionv1.xsd" xmlns:gpxtpx="http://www.garmin.com/xmlschemas/TrackPointExtension/v1">
  <metadata>
    <link href="http://www.compegps.com">
      <text>CompeGPS TEAM, SL</text>
    </link>
    <time>2018-09-07T19:07:13Z</time>
    <bounds maxlat="42.649702" maxlon="1.741275" minlat="42.621085" minlon="1.702585"/>
  </metadata>
  <trk>
    <name>variante_par_fontagente</name>
    <userMyTwoNav></userMyTwoNav>
    <serialNumber></serialNumber>
    <trkseg>
      <trkpt lat="42.647121" lon="1.703241">
        <ele>1708.1</ele>
        <time>2018-08-11T04:05:33Z</time>
      </trkpt>
      <trkpt lat="42.646961" lon="1.703187">
        <ele>1710.4</ele>
        <time>2018-08-11T04:06:22Z</time>
      </trkpt>
      <trkpt lat="42.646859" lon="1.703168">
        <ele>1712.3</ele>
        <time>2018-08-11T04:06:40Z</time>
      </trkpt>
      <trkpt lat="42.646794" lon="1.703053">
        <ele>1712.6</ele>
        <time>2018-08-11T04:06:58Z</time>
      </trkpt>
      <trkpt lat="42.646721" lon="1.702970">
        <ele>1713.5</ele>
        <time>2018-08-11T04:07:10Z</time>
      </trkpt>
      <trkpt lat="42.646630" lon="1.702949">
        <ele>1716.1</ele>
        <time>2018-08-11T04:07:25Z</time>
      </trkpt>
      <trkpt lat="42.646540" lon="1.702928">
        <ele>1717.8</ele>
        <time>2018-08-11T04:07:37Z</time>
      </trkpt>
      <trkpt lat="42.646444" lon="1.702893">
        <ele>1718.5</ele>
        <time>2018-08-11T04:07:50Z</time>
      </trkpt>
      <trkpt lat="42.646353" lon="1.702867">
        <ele>1718.6</ele>
        <time>2018-08-11T04:07:59Z</time>
      </trkpt>
      <trkpt lat="42.646261" lon="1.702836">
        <ele>1718.7</ele>
        <time>2018-08-11T04:08:09Z</time>
      </trkpt>
      <trkpt lat="42.646169" lon="1.702843">
        <ele>1718.6</ele>
        <time>2018-08-11T04:08:19Z</time>
      </trkpt>
      <trkpt lat="42.646078" lon="1.702867">
        <ele>1718.7</ele>
        <time>2018-08-11T04:08:29Z</time>
      </trkpt>
      <trkpt lat="42.645979" lon="1.702876">
        <ele>1718.6</ele>
        <time>2018-08-11T04:08:39Z</time>
      </trkpt>
      <trkpt lat="42.645882" lon="1.702852">
        <ele>1718.7</ele>
        <time>2018-08-11T04:08:49Z</time>
      </trkpt>
      <trkpt lat="42.645788" lon="1.702803">
        <ele>1719.1</ele>
        <time>2018-08-11T04:08:59Z</time>
      </trkpt>
      <trkpt lat="42.645698" lon="1.702765">
        <ele>1719.1</ele>
        <time>2018-08-11T04:09:11Z</time>
      </trkpt>
      <trkpt lat="42.645612" lon="1.702706">
        <ele>1718.1</ele>
        <time>2018-08-11T04:09:23Z</time>
      </trkpt>
      <trkpt lat="42.645527" lon="1.702724">
        <ele>1715.7</ele>
        <time>2018-08-11T04:09:36Z</time>
      </trkpt>
      <trkpt lat="42.645432" lon="1.702658">
        <ele>1714.4</ele>
        <time>2018-08-11T04:09:49Z</time>
      </trkpt>
      <trkpt lat="42.645353" lon="1.702678">
        <ele>1714.0</ele>
        <time>2018-08-11T04:10:09Z</time>
      </trkpt>
      <trkpt lat="42.645251" lon="1.702646">
        <ele>1714.1</ele>
        <time>2018-08-11T04:10:27Z</time>
      </trkpt>
      <trkpt lat="42.645157" lon="1.702638">
        <ele>1714.2</ele>
        <time>2018-08-11T04:10:38Z</time>
      </trkpt>
      <trkpt lat="42.645065" lon="1.702625">
        <ele>1714.4</ele>
        <time>2018-08-11T04:10:50Z</time>
      </trkpt>
      <trkpt lat="42.645005" lon="1.702700">
        <ele>1715.2</ele>
        <time>2018-08-11T04:11:03Z</time>
      </trkpt>
      <trkpt lat="42.644909" lon="1.702681">
        <ele>1715.5</ele>
        <time>2018-08-11T04:11:15Z</time>
      </trkpt>
      <trkpt lat="42.644814" lon="1.702658">
        <ele>1715.1</ele>
        <time>2018-08-11T04:11:24Z</time>
      </trkpt>
      <trkpt lat="42.644744" lon="1.702720">
        <ele>1715.2</ele>
        <time>2018-08-11T04:11:44Z</time>
      </trkpt>
      <trkpt lat="42.644656" lon="1.702672">
        <ele>1715.6</ele>
        <time>2018-08-11T04:12:02Z</time>
      </trkpt>
      <trkpt lat="42.644662" lon="1.702691">
        <ele>1715.9</ele>
        <time>2018-08-11T04:13:15Z</time>
      </trkpt>
      <trkpt lat="42.644556" lon="1.702664">
        <ele>1716.0</ele>
        <time>2018-08-11T04:14:23Z</time>
      </trkpt>
      <trkpt lat="42.644463" lon="1.702673">
        <ele>1716.8</ele>
        <time>2018-08-11T04:14:39Z</time>
      </trkpt>
      <trkpt lat="42.644370" lon="1.702722">
        <ele>1716.9</ele>
        <time>2018-08-11T04:14:59Z</time>
      </trkpt>
      <trkpt lat="42.644279" lon="1.702742">
        <ele>1717.3</ele>
        <time>2018-08-11T04:15:17Z</time>
      </trkpt>
      <trkpt lat="42.644179" lon="1.702774">
        <ele>1717.1</ele>
        <time>2018-08-11T04:15:29Z</time>
      </trkpt>
      <trkpt lat="42.644075" lon="1.702770">
        <ele>1717.9</ele>
        <time>2018-08-11T04:15:42Z</time>
      </trkpt>
      <trkpt lat="42.643981" lon="1.702725">
        <ele>1718.2</ele>
        <time>2018-08-11T04:15:53Z</time>
      </trkpt>
      <trkpt lat="42.643868" lon="1.702743">
        <ele>1719.0</ele>
        <time>2018-08-11T04:16:05Z</time>
      </trkpt>
      <trkpt lat="42.643777" lon="1.702757">
        <ele>1719.9</ele>
        <time>2018-08-11T04:16:14Z</time>
      </trkpt>
      <trkpt lat="42.643683" lon="1.702782">
        <ele>1720.9</ele>
        <time>2018-08-11T04:16:25Z</time>
      </trkpt>
      <trkpt lat="42.643589" lon="1.702817">
        <ele>1722.4</ele>
        <time>2018-08-11T04:16:36Z</time>
      </trkpt>
      <trkpt lat="42.643491" lon="1.702851">
        <ele>1724.4</ele>
        <time>2018-08-11T04:16:50Z</time>
      </trkpt>
      <trkpt lat="42.643391" lon="1.702919">
        <ele>1727.3</ele>
        <time>2018-08-11T04:17:05Z</time>
      </trkpt>
      <trkpt lat="42.643317" lon="1.702995">
        <ele>1728.7</ele>
        <time>2018-08-11T04:17:18Z</time>
      </trkpt>
      <trkpt lat="42.643232" lon="1.703057">
        <ele>1730.1</ele>
        <time>2018-08-11T04:17:31Z</time>
      </trkpt>
      <trkpt lat="42.643157" lon="1.703137">
        <ele>1731.6</ele>
        <time>2018-08-11T04:17:45Z</time>
      </trkpt>
      <trkpt lat="42.643071" lon="1.703198">
        <ele>1733.2</ele>
        <time>2018-08-11T04:17:58Z</time>
      </trkpt>
      <trkpt lat="42.642978" lon="1.703176">
        <ele>1734.2</ele>
        <time>2018-08-11T04:18:11Z</time>
      </trkpt>
      <trkpt lat="42.642882" lon="1.703184">
        <ele>1735.2</ele>
        <time>2018-08-11T04:18:25Z</time>
      </trkpt>
      <trkpt lat="42.642786" lon="1.703208">
        <ele>1737.0</ele>
        <time>2018-08-11T04:18:40Z</time>
      </trkpt>
      <trkpt lat="42.642688" lon="1.703222">
        <ele>1739.2</ele>
        <time>2018-08-11T04:18:54Z</time>
      </trkpt>
      <trkpt lat="42.642589" lon="1.703240">
        <ele>1739.9</ele>
        <time>2018-08-11T04:19:05Z</time>
      </trkpt>
      <trkpt lat="42.642497" lon="1.703282">
        <ele>1741.4</ele>
        <time>2018-08-11T04:19:19Z</time>
      </trkpt>
      <trkpt lat="42.642408" lon="1.703355">
        <ele>1744.2</ele>
        <time>2018-08-11T04:19:36Z</time>
      </trkpt>
      <trkpt lat="42.642311" lon="1.703396">
        <ele>1745.9</ele>
        <time>2018-08-11T04:19:51Z</time>
      </trkpt>
      <trkpt lat="42.642224" lon="1.703478">
        <ele>1748.1</ele>
        <time>2018-08-11T04:20:07Z</time>
      </trkpt>
      <trkpt lat="42.642180" lon="1.703623">
        <ele>1750.4</ele>
        <time>2018-08-11T04:20:23Z</time>
      </trkpt>
      <trkpt lat="42.642107" lon="1.703721">
        <ele>1752.6</ele>
        <time>2018-08-11T04:20:40Z</time>
      </trkpt>
      <trkpt lat="42.642037" lon="1.703826">
        <ele>1755.4</ele>
        <time>2018-08-11T04:21:01Z</time>
      </trkpt>
      <trkpt lat="42.641988" lon="1.703953">
        <ele>1757.9</ele>
        <time>2018-08-11T04:21:18Z</time>
      </trkpt>
      <trkpt lat="42.641914" lon="1.704051">
        <ele>1760.6</ele>
        <time>2018-08-11T04:21:34Z</time>
      </trkpt>
      <trkpt lat="42.641829" lon="1.704120">
        <ele>1762.3</ele>
        <time>2018-08-11T04:21:47Z</time>
      </trkpt>
      <trkpt lat="42.641830" lon="1.704221">
        <ele>1765.1</ele>
        <time>2018-08-11T04:22:03Z</time>
      </trkpt>
      <trkpt lat="42.641833" lon="1.704315">
        <ele>1769.4</ele>
        <time>2018-08-11T04:22:25Z</time>
      </trkpt>
      <trkpt lat="42.641784" lon="1.704414">
        <ele>1772.6</ele>
        <time>2018-08-11T04:22:45Z</time>
      </trkpt>
      <trkpt lat="42.641745" lon="1.704510">
        <ele>1777.0</ele>
        <time>2018-08-11T04:23:09Z</time>
      </trkpt>
      <trkpt lat="42.641718" lon="1.704596">
        <ele>1780.4</ele>
        <time>2018-08-11T04:23:30Z</time>
      </trkpt>
      <trkpt lat="42.641726" lon="1.704692">
        <ele>1786.1</ele>
        <time>2018-08-11T04:26:57Z</time>
      </trkpt>
      <trkpt lat="42.641726" lon="1.704765">
        <ele>1787.7</ele>
        <time>2018-08-11T04:27:40Z</time>
      </trkpt>
      <trkpt lat="42.641699" lon="1.704875">
        <ele>1788.3</ele>
        <time>2018-08-11T04:27:54Z</time>
      </trkpt>
      <trkpt lat="42.641604" lon="1.704977">
        <ele>1789.8</ele>
        <time>2018-08-11T04:28:09Z</time>
      </trkpt>
      <trkpt lat="42.641521" lon="1.705058">
        <ele>1792.0</ele>
        <time>2018-08-11T04:28:24Z</time>
      </trkpt>
      <trkpt lat="42.641455" lon="1.705143">
        <ele>1795.3</ele>
        <time>2018-08-11T04:28:41Z</time>
      </trkpt>
      <trkpt lat="42.641383" lon="1.705201">
        <ele>1798.6</ele>
        <time>2018-08-11T04:28:59Z</time>
      </trkpt>
      <trkpt lat="42.641327" lon="1.705303">
        <ele>1801.8</ele>
        <time>2018-08-11T04:29:17Z</time>
      </trkpt>
      <trkpt lat="42.641272" lon="1.705384">
        <ele>1803.2</ele>
        <time>2018-08-11T04:29:31Z</time>
      </trkpt>
      <trkpt lat="42.641258" lon="1.705460">
        <ele>1805.4</ele>
        <time>2018-08-11T04:29:46Z</time>
      </trkpt>
      <trkpt lat="42.641232" lon="1.705572">
        <ele>1808.1</ele>
        <time>2018-08-11T04:30:03Z</time>
      </trkpt>
      <trkpt lat="42.641216" lon="1.705696">
        <ele>1810.1</ele>
        <time>2018-08-11T04:30:17Z</time>
      </trkpt>
      <trkpt lat="42.641201" lon="1.705831">
        <ele>1812.2</ele>
        <time>2018-08-11T04:30:33Z</time>
      </trkpt>
      <trkpt lat="42.641192" lon="1.705947">
        <ele>1814.9</ele>
        <time>2018-08-11T04:30:52Z</time>
      </trkpt>
      <trkpt lat="42.641156" lon="1.706072">
        <ele>1818.5</ele>
        <time>2018-08-11T04:31:11Z</time>
      </trkpt>
      <trkpt lat="42.641097" lon="1.706164">
        <ele>1821.1</ele>
        <time>2018-08-11T04:31:24Z</time>
      </trkpt>
      <trkpt lat="42.641050" lon="1.706275">
        <ele>1823.0</ele>
        <time>2018-08-11T04:31:43Z</time>
      </trkpt>
      <trkpt lat="42.640997" lon="1.706414">
        <ele>1824.9</ele>
        <time>2018-08-11T04:32:00Z</time>
      </trkpt>
      <trkpt lat="42.640970" lon="1.706544">
        <ele>1827.4</ele>
        <time>2018-08-11T04:32:17Z</time>
      </trkpt>
      <trkpt lat="42.640909" lon="1.706653">
        <ele>1829.2</ele>
        <time>2018-08-11T04:32:32Z</time>
      </trkpt>
      <trkpt lat="42.640888" lon="1.706776">
        <ele>1830.3</ele>
        <time>2018-08-11T04:32:46Z</time>
      </trkpt>
      <trkpt lat="42.640867" lon="1.706890">
        <ele>1832.1</ele>
        <time>2018-08-11T04:33:00Z</time>
      </trkpt>
      <trkpt lat="42.640807" lon="1.706994">
        <ele>1833.3</ele>
        <time>2018-08-11T04:33:13Z</time>
      </trkpt>
      <trkpt lat="42.640774" lon="1.707099">
        <ele>1835.4</ele>
        <time>2018-08-11T04:33:30Z</time>
      </trkpt>
      <trkpt lat="42.640731" lon="1.707211">
        <ele>1837.5</ele>
        <time>2018-08-11T04:33:50Z</time>
      </trkpt>
      <trkpt lat="42.640700" lon="1.707332">
        <ele>1839.3</ele>
        <time>2018-08-11T04:34:05Z</time>
      </trkpt>
      <trkpt lat="42.640692" lon="1.707435">
        <ele>1841.2</ele>
        <time>2018-08-11T04:34:27Z</time>
      </trkpt>
      <trkpt lat="42.640731" lon="1.707566">
        <ele>1843.1</ele>
        <time>2018-08-11T04:34:50Z</time>
      </trkpt>
      <trkpt lat="42.640775" lon="1.707688">
        <ele>1844.2</ele>
        <time>2018-08-11T04:35:11Z</time>
      </trkpt>
      <trkpt lat="42.640742" lon="1.707798">
        <ele>1846.8</ele>
        <time>2018-08-11T04:35:29Z</time>
      </trkpt>
      <trkpt lat="42.640777" lon="1.707917">
        <ele>1850.1</ele>
        <time>2018-08-11T04:35:46Z</time>
      </trkpt>
      <trkpt lat="42.640807" lon="1.708037">
        <ele>1852.9</ele>
        <time>2018-08-11T04:36:04Z</time>
      </trkpt>
      <trkpt lat="42.640838" lon="1.708156">
        <ele>1855.9</ele>
        <time>2018-08-11T04:36:23Z</time>
      </trkpt>
      <trkpt lat="42.640846" lon="1.708289">
        <ele>1857.6</ele>
        <time>2018-08-11T04:36:42Z</time>
      </trkpt>
      <trkpt lat="42.640846" lon="1.708413">
        <ele>1860.3</ele>
        <time>2018-08-11T04:37:01Z</time>
      </trkpt>
      <trkpt lat="42.640868" lon="1.708545">
        <ele>1861.3</ele>
        <time>2018-08-11T04:37:14Z</time>
      </trkpt>
      <trkpt lat="42.640877" lon="1.708663">
        <ele>1862.6</ele>
        <time>2018-08-11T04:37:27Z</time>
      </trkpt>
      <trkpt lat="42.640896" lon="1.708789">
        <ele>1865.1</ele>
        <time>2018-08-11T04:37:40Z</time>
      </trkpt>
      <trkpt lat="42.640947" lon="1.708901">
        <ele>1865.8</ele>
        <time>2018-08-11T04:37:51Z</time>
      </trkpt>
      <trkpt lat="42.640985" lon="1.709007">
        <ele>1867.0</ele>
        <time>2018-08-11T04:38:02Z</time>
      </trkpt>
      <trkpt lat="42.640984" lon="1.709136">
        <ele>1868.7</ele>
        <time>2018-08-11T04:38:14Z</time>
      </trkpt>
      <trkpt lat="42.640970" lon="1.709252">
        <ele>1869.9</ele>
        <time>2018-08-11T04:38:25Z</time>
      </trkpt>
      <trkpt lat="42.640957" lon="1.709378">
        <ele>1871.7</ele>
        <time>2018-08-11T04:38:36Z</time>
      </trkpt>
      <trkpt lat="42.640967" lon="1.709509">
        <ele>1872.9</ele>
        <time>2018-08-11T04:38:46Z</time>
      </trkpt>
      <trkpt lat="42.640970" lon="1.709630">
        <ele>1874.7</ele>
        <time>2018-08-11T04:38:58Z</time>
      </trkpt>
      <trkpt lat="42.641021" lon="1.709723">
        <ele>1876.5</ele>
        <time>2018-08-11T04:39:10Z</time>
      </trkpt>
      <trkpt lat="42.641070" lon="1.709835">
        <ele>1878.8</ele>
        <time>2018-08-11T04:39:22Z</time>
      </trkpt>
      <trkpt lat="42.641112" lon="1.709955">
        <ele>1880.8</ele>
        <time>2018-08-11T04:39:35Z</time>
      </trkpt>
      <trkpt lat="42.641164" lon="1.710060">
        <ele>1882.7</ele>
        <time>2018-08-11T04:39:47Z</time>
      </trkpt>
      <trkpt lat="42.641238" lon="1.710151">
        <ele>1884.5</ele>
        <time>2018-08-11T04:40:00Z</time>
      </trkpt>
      <trkpt lat="42.641306" lon="1.710246">
        <ele>1886.7</ele>
        <time>2018-08-11T04:40:13Z</time>
      </trkpt>
      <trkpt lat="42.641364" lon="1.710359">
        <ele>1888.6</ele>
        <time>2018-08-11T04:40:27Z</time>
      </trkpt>
      <trkpt lat="42.641394" lon="1.710489">
        <ele>1890.6</ele>
        <time>2018-08-11T04:40:40Z</time>
      </trkpt>
      <trkpt lat="42.641407" lon="1.710625">
        <ele>1891.8</ele>
        <time>2018-08-11T04:40:52Z</time>
      </trkpt>
      <trkpt lat="42.641446" lon="1.710675">
        <ele>1893.4</ele>
        <time>2018-08-11T04:41:24Z</time>
      </trkpt>
      <trkpt lat="42.641434" lon="1.710755">
        <ele>1893.2</ele>
        <time>2018-08-11T04:41:43Z</time>
      </trkpt>
      <trkpt lat="42.641422" lon="1.710903">
        <ele>1893.5</ele>
        <time>2018-08-11T04:41:59Z</time>
      </trkpt>
      <trkpt lat="42.641477" lon="1.711018">
        <ele>1894.2</ele>
        <time>2018-08-11T04:42:10Z</time>
      </trkpt>
      <trkpt lat="42.641507" lon="1.711149">
        <ele>1894.6</ele>
        <time>2018-08-11T04:42:21Z</time>
      </trkpt>
      <trkpt lat="42.641530" lon="1.711283">
        <ele>1895.4</ele>
        <time>2018-08-11T04:42:32Z</time>
      </trkpt>
      <trkpt lat="42.641604" lon="1.711377">
        <ele>1896.2</ele>
        <time>2018-08-11T04:42:43Z</time>
      </trkpt>
      <trkpt lat="42.641652" lon="1.711491">
        <ele>1897.3</ele>
        <time>2018-08-11T04:42:54Z</time>
      </trkpt>
      <trkpt lat="42.641705" lon="1.711612">
        <ele>1898.2</ele>
        <time>2018-08-11T04:43:06Z</time>
      </trkpt>
      <trkpt lat="42.641751" lon="1.711736">
        <ele>1899.5</ele>
        <time>2018-08-11T04:43:18Z</time>
      </trkpt>
      <trkpt lat="42.641805" lon="1.711850">
        <ele>1900.3</ele>
        <time>2018-08-11T04:43:29Z</time>
      </trkpt>
      <trkpt lat="42.641856" lon="1.711958">
        <ele>1901.4</ele>
        <time>2018-08-11T04:43:40Z</time>
      </trkpt>
      <trkpt lat="42.641910" lon="1.712065">
        <ele>1903.2</ele>
        <time>2018-08-11T04:43:52Z</time>
      </trkpt>
      <trkpt lat="42.641975" lon="1.712163">
        <ele>1905.1</ele>
        <time>2018-08-11T04:44:05Z</time>
      </trkpt>
      <trkpt lat="42.642024" lon="1.712265">
        <ele>1907.2</ele>
        <time>2018-08-11T04:44:19Z</time>
      </trkpt>
      <trkpt lat="42.642086" lon="1.712350">
        <ele>1909.7</ele>
        <time>2018-08-11T04:44:34Z</time>
      </trkpt>
      <trkpt lat="42.642135" lon="1.712450">
        <ele>1912.0</ele>
        <time>2018-08-11T04:44:53Z</time>
      </trkpt>
      <trkpt lat="42.642182" lon="1.712556">
        <ele>1915.8</ele>
        <time>2018-08-11T04:45:14Z</time>
      </trkpt>
      <trkpt lat="42.642233" lon="1.712639">
        <ele>1919.1</ele>
        <time>2018-08-11T04:45:33Z</time>
      </trkpt>
      <trkpt lat="42.642284" lon="1.712737">
        <ele>1923.0</ele>
        <time>2018-08-11T04:45:55Z</time>
      </trkpt>
      <trkpt lat="42.642308" lon="1.712863">
        <ele>1927.2</ele>
        <time>2018-08-11T04:46:20Z</time>
      </trkpt>
      <trkpt lat="42.642286" lon="1.712981">
        <ele>1929.2</ele>
        <time>2018-08-11T04:46:45Z</time>
      </trkpt>
      <trkpt lat="42.642281" lon="1.713097">
        <ele>1932.7</ele>
        <time>2018-08-11T04:47:08Z</time>
      </trkpt>
      <trkpt lat="42.642329" lon="1.713205">
        <ele>1935.8</ele>
        <time>2018-08-11T04:47:29Z</time>
      </trkpt>
      <trkpt lat="42.642401" lon="1.713295">
        <ele>1939.1</ele>
        <time>2018-08-11T04:47:51Z</time>
      </trkpt>
      <trkpt lat="42.642405" lon="1.713428">
        <ele>1942.0</ele>
        <time>2018-08-11T04:48:09Z</time>
      </trkpt>
      <trkpt lat="42.642415" lon="1.713547">
        <ele>1944.6</ele>
        <time>2018-08-11T04:48:25Z</time>
      </trkpt>
      <trkpt lat="42.642436" lon="1.713663">
        <ele>1947.9</ele>
        <time>2018-08-11T04:48:44Z</time>
      </trkpt>
      <trkpt lat="42.642440" lon="1.713789">
        <ele>1950.6</ele>
        <time>2018-08-11T04:49:01Z</time>
      </trkpt>
      <trkpt lat="42.642444" lon="1.713911">
        <ele>1952.7</ele>
        <time>2018-08-11T04:49:18Z</time>
      </trkpt>
      <trkpt lat="42.642433" lon="1.714029">
        <ele>1956.2</ele>
        <time>2018-08-11T04:49:43Z</time>
      </trkpt>
      <trkpt lat="42.642383" lon="1.714139">
        <ele>1956.8</ele>
        <time>2018-08-11T04:49:57Z</time>
      </trkpt>
      <trkpt lat="42.642391" lon="1.714269">
        <ele>1957.8</ele>
        <time>2018-08-11T04:50:24Z</time>
      </trkpt>
      <trkpt lat="42.642401" lon="1.714402">
        <ele>1960.1</ele>
        <time>2018-08-11T04:50:41Z</time>
      </trkpt>
      <trkpt lat="42.642366" lon="1.714529">
        <ele>1961.6</ele>
        <time>2018-08-11T04:50:56Z</time>
      </trkpt>
      <trkpt lat="42.642342" lon="1.714642">
        <ele>1964.7</ele>
        <time>2018-08-11T04:51:14Z</time>
      </trkpt>
      <trkpt lat="42.642341" lon="1.714785">
        <ele>1966.2</ele>
        <time>2018-08-11T04:51:29Z</time>
      </trkpt>
      <trkpt lat="42.642356" lon="1.714910">
        <ele>1969.2</ele>
        <time>2018-08-11T04:51:49Z</time>
      </trkpt>
      <trkpt lat="42.642349" lon="1.715015">
        <ele>1970.7</ele>
        <time>2018-08-11T04:52:03Z</time>
      </trkpt>
      <trkpt lat="42.642359" lon="1.715142">
        <ele>1972.8</ele>
        <time>2018-08-11T04:52:16Z</time>
      </trkpt>
      <trkpt lat="42.642370" lon="1.715236">
        <ele>1975.4</ele>
        <time>2018-08-11T04:52:33Z</time>
      </trkpt>
      <trkpt lat="42.642380" lon="1.715347">
        <ele>1978.2</ele>
        <time>2018-08-11T04:52:52Z</time>
      </trkpt>
      <trkpt lat="42.642399" lon="1.715461">
        <ele>1980.3</ele>
        <time>2018-08-11T04:53:09Z</time>
      </trkpt>
      <trkpt lat="42.642389" lon="1.715579">
        <ele>1982.8</ele>
        <time>2018-08-11T04:53:27Z</time>
      </trkpt>
      <trkpt lat="42.642384" lon="1.715689">
        <ele>1985.1</ele>
        <time>2018-08-11T04:53:42Z</time>
      </trkpt>
      <trkpt lat="42.642370" lon="1.715795">
        <ele>1987.2</ele>
        <time>2018-08-11T04:54:00Z</time>
      </trkpt>
      <trkpt lat="42.642376" lon="1.715874">
        <ele>1991.1</ele>
        <time>2018-08-11T04:54:25Z</time>
      </trkpt>
      <trkpt lat="42.642420" lon="1.715997">
        <ele>1993.7</ele>
        <time>2018-08-11T04:54:44Z</time>
      </trkpt>
      <trkpt lat="42.642413" lon="1.716139">
        <ele>1995.5</ele>
        <time>2018-08-11T04:55:20Z</time>
      </trkpt>
      <trkpt lat="42.642436" lon="1.716244">
        <ele>1997.9</ele>
        <time>2018-08-11T04:55:44Z</time>
      </trkpt>
      <trkpt lat="42.642467" lon="1.716384">
        <ele>2001.2</ele>
        <time>2018-08-11T04:56:02Z</time>
      </trkpt>
      <trkpt lat="42.642472" lon="1.716499">
        <ele>2004.1</ele>
        <time>2018-08-11T04:56:19Z</time>
      </trkpt>
      <trkpt lat="42.642424" lon="1.716596">
        <ele>2005.2</ele>
        <time>2018-08-11T04:56:33Z</time>
      </trkpt>
      <trkpt lat="42.642419" lon="1.716702">
        <ele>2007.2</ele>
        <time>2018-08-11T04:56:50Z</time>
      </trkpt>
      <trkpt lat="42.642457" lon="1.716789">
        <ele>2009.5</ele>
        <time>2018-08-11T04:57:04Z</time>
      </trkpt>
      <trkpt lat="42.642414" lon="1.716894">
        <ele>2011.0</ele>
        <time>2018-08-11T04:57:19Z</time>
      </trkpt>
      <trkpt lat="42.642399" lon="1.717000">
        <ele>2013.2</ele>
        <time>2018-08-11T04:57:35Z</time>
      </trkpt>
      <trkpt lat="42.642440" lon="1.717068">
        <ele>2016.0</ele>
        <time>2018-08-11T04:57:53Z</time>
      </trkpt>
      <trkpt lat="42.642443" lon="1.717171">
        <ele>2019.1</ele>
        <time>2018-08-11T04:58:14Z</time>
      </trkpt>
      <trkpt lat="42.642468" lon="1.717274">
        <ele>2022.2</ele>
        <time>2018-08-11T04:58:34Z</time>
      </trkpt>
      <trkpt lat="42.642485" lon="1.717386">
        <ele>2025.2</ele>
        <time>2018-08-11T04:58:54Z</time>
      </trkpt>
      <trkpt lat="42.642440" lon="1.717475">
        <ele>2026.3</ele>
        <time>2018-08-11T04:59:08Z</time>
      </trkpt>
      <trkpt lat="42.642413" lon="1.717588">
        <ele>2028.1</ele>
        <time>2018-08-11T04:59:25Z</time>
      </trkpt>
      <trkpt lat="42.642432" lon="1.717685">
        <ele>2031.2</ele>
        <time>2018-08-11T04:59:45Z</time>
      </trkpt>
      <trkpt lat="42.642433" lon="1.717800">
        <ele>2033.2</ele>
        <time>2018-08-11T05:00:01Z</time>
      </trkpt>
      <trkpt lat="42.642392" lon="1.717905">
        <ele>2035.1</ele>
        <time>2018-08-11T05:00:18Z</time>
      </trkpt>
      <trkpt lat="42.642339" lon="1.718022">
        <ele>2036.4</ele>
        <time>2018-08-11T05:00:35Z</time>
      </trkpt>
      <trkpt lat="42.642330" lon="1.718140">
        <ele>2038.3</ele>
        <time>2018-08-11T05:00:52Z</time>
      </trkpt>
      <trkpt lat="42.642363" lon="1.718270">
        <ele>2040.4</ele>
        <time>2018-08-11T05:01:08Z</time>
      </trkpt>
      <trkpt lat="42.642376" lon="1.718393">
        <ele>2042.2</ele>
        <time>2018-08-11T05:01:22Z</time>
      </trkpt>
      <trkpt lat="42.642343" lon="1.718495">
        <ele>2044.1</ele>
        <time>2018-08-11T05:01:38Z</time>
      </trkpt>
      <trkpt lat="42.642360" lon="1.718589">
        <ele>2048.7</ele>
        <time>2018-08-11T05:02:06Z</time>
      </trkpt>
      <trkpt lat="42.642384" lon="1.718746">
        <ele>2051.6</ele>
        <time>2018-08-11T05:02:24Z</time>
      </trkpt>
      <trkpt lat="42.642359" lon="1.718889">
        <ele>2054.4</ele>
        <time>2018-08-11T05:02:41Z</time>
      </trkpt>
      <trkpt lat="42.642342" lon="1.719014">
        <ele>2056.5</ele>
        <time>2018-08-11T05:02:56Z</time>
      </trkpt>
      <trkpt lat="42.642300" lon="1.719120">
        <ele>2058.4</ele>
        <time>2018-08-11T05:03:09Z</time>
      </trkpt>
      <trkpt lat="42.642301" lon="1.719236">
        <ele>2060.6</ele>
        <time>2018-08-11T05:03:24Z</time>
      </trkpt>
      <trkpt lat="42.642334" lon="1.719316">
        <ele>2063.8</ele>
        <time>2018-08-11T05:03:42Z</time>
      </trkpt>
      <trkpt lat="42.642330" lon="1.719437">
        <ele>2066.6</ele>
        <time>2018-08-11T05:04:02Z</time>
      </trkpt>
      <trkpt lat="42.642375" lon="1.719516">
        <ele>2069.9</ele>
        <time>2018-08-11T05:04:23Z</time>
      </trkpt>
      <trkpt lat="42.642357" lon="1.719634">
        <ele>2072.5</ele>
        <time>2018-08-11T05:04:41Z</time>
      </trkpt>
      <trkpt lat="42.642355" lon="1.719764">
        <ele>2075.6</ele>
        <time>2018-08-11T05:05:00Z</time>
      </trkpt>
      <trkpt lat="42.642360" lon="1.719888">
        <ele>2078.6</ele>
        <time>2018-08-11T05:05:20Z</time>
      </trkpt>
      <trkpt lat="42.642312" lon="1.719983">
        <ele>2081.2</ele>
        <time>2018-08-11T05:05:39Z</time>
      </trkpt>
      <trkpt lat="42.642272" lon="1.720098">
        <ele>2084.1</ele>
        <time>2018-08-11T05:05:59Z</time>
      </trkpt>
      <trkpt lat="42.642317" lon="1.720221">
        <ele>2085.4</ele>
        <time>2018-08-11T05:06:11Z</time>
      </trkpt>
      <trkpt lat="42.642328" lon="1.720312">
        <ele>2087.8</ele>
        <time>2018-08-11T05:06:27Z</time>
      </trkpt>
      <trkpt lat="42.642292" lon="1.720387">
        <ele>2089.8</ele>
        <time>2018-08-11T05:06:43Z</time>
      </trkpt>
      <trkpt lat="42.642232" lon="1.720465">
        <ele>2091.8</ele>
        <time>2018-08-11T05:08:23Z</time>
      </trkpt>
      <trkpt lat="42.642218" lon="1.720592">
        <ele>2093.4</ele>
        <time>2018-08-11T05:08:37Z</time>
      </trkpt>
      <trkpt lat="42.642216" lon="1.720716">
        <ele>2095.2</ele>
        <time>2018-08-11T05:08:49Z</time>
      </trkpt>
      <trkpt lat="42.642194" lon="1.720848">
        <ele>2097.1</ele>
        <time>2018-08-11T05:09:04Z</time>
      </trkpt>
      <trkpt lat="42.642180" lon="1.720954">
        <ele>2098.9</ele>
        <time>2018-08-11T05:09:18Z</time>
      </trkpt>
      <trkpt lat="42.642129" lon="1.721073">
        <ele>2100.5</ele>
        <time>2018-08-11T05:09:33Z</time>
      </trkpt>
      <trkpt lat="42.642073" lon="1.721179">
        <ele>2102.9</ele>
        <time>2018-08-11T05:09:49Z</time>
      </trkpt>
      <trkpt lat="42.642007" lon="1.721286">
        <ele>2104.8</ele>
        <time>2018-08-11T05:10:04Z</time>
      </trkpt>
      <trkpt lat="42.641943" lon="1.721389">
        <ele>2107.8</ele>
        <time>2018-08-11T05:10:21Z</time>
      </trkpt>
      <trkpt lat="42.641876" lon="1.721455">
        <ele>2110.6</ele>
        <time>2018-08-11T05:10:37Z</time>
      </trkpt>
      <trkpt lat="42.641867" lon="1.721572">
        <ele>2112.5</ele>
        <time>2018-08-11T05:10:50Z</time>
      </trkpt>
      <trkpt lat="42.641844" lon="1.721693">
        <ele>2114.9</ele>
        <time>2018-08-11T05:11:05Z</time>
      </trkpt>
      <trkpt lat="42.641809" lon="1.721816">
        <ele>2116.9</ele>
        <time>2018-08-11T05:11:19Z</time>
      </trkpt>
      <trkpt lat="42.641779" lon="1.721928">
        <ele>2119.0</ele>
        <time>2018-08-11T05:11:32Z</time>
      </trkpt>
      <trkpt lat="42.641747" lon="1.722057">
        <ele>2121.1</ele>
        <time>2018-08-11T05:11:45Z</time>
      </trkpt>
      <trkpt lat="42.641674" lon="1.722143">
        <ele>2123.2</ele>
        <time>2018-08-11T05:12:00Z</time>
      </trkpt>
      <trkpt lat="42.641665" lon="1.722264">
        <ele>2125.0</ele>
        <time>2018-08-11T05:12:15Z</time>
      </trkpt>
      <trkpt lat="42.641638" lon="1.722394">
        <ele>2127.3</ele>
        <time>2018-08-11T05:12:29Z</time>
      </trkpt>
      <trkpt lat="42.641594" lon="1.722503">
        <ele>2129.3</ele>
        <time>2018-08-11T05:12:43Z</time>
      </trkpt>
      <trkpt lat="42.641569" lon="1.722629">
        <ele>2131.8</ele>
        <time>2018-08-11T05:12:58Z</time>
      </trkpt>
      <trkpt lat="42.641548" lon="1.722748">
        <ele>2134.0</ele>
        <time>2018-08-11T05:13:10Z</time>
      </trkpt>
      <trkpt lat="42.641552" lon="1.722870">
        <ele>2135.1</ele>
        <time>2018-08-11T05:13:20Z</time>
      </trkpt>
      <trkpt lat="42.641553" lon="1.722990">
        <ele>2135.9</ele>
        <time>2018-08-11T05:13:30Z</time>
      </trkpt>
      <trkpt lat="42.641535" lon="1.723112">
        <ele>2136.6</ele>
        <time>2018-08-11T05:13:40Z</time>
      </trkpt>
      <trkpt lat="42.641510" lon="1.723221">
        <ele>2137.8</ele>
        <time>2018-08-11T05:13:50Z</time>
      </trkpt>
      <trkpt lat="42.641495" lon="1.723350">
        <ele>2139.0</ele>
        <time>2018-08-11T05:14:02Z</time>
      </trkpt>
      <trkpt lat="42.641510" lon="1.723478">
        <ele>2139.5</ele>
        <time>2018-08-11T05:14:15Z</time>
      </trkpt>
      <trkpt lat="42.641552" lon="1.723620">
        <ele>2140.1</ele>
        <time>2018-08-11T05:14:26Z</time>
      </trkpt>
      <trkpt lat="42.641615" lon="1.723737">
        <ele>2140.7</ele>
        <time>2018-08-11T05:14:39Z</time>
      </trkpt>
      <trkpt lat="42.641679" lon="1.723836">
        <ele>2140.8</ele>
        <time>2018-08-11T05:14:53Z</time>
      </trkpt>
      <trkpt lat="42.641637" lon="1.723956">
        <ele>2143.0</ele>
        <time>2018-08-11T05:15:33Z</time>
      </trkpt>
      <trkpt lat="42.641589" lon="1.724048">
        <ele>2145.1</ele>
        <time>2018-08-11T05:15:48Z</time>
      </trkpt>
      <trkpt lat="42.641490" lon="1.724052">
        <ele>2147.3</ele>
        <time>2018-08-11T05:16:07Z</time>
      </trkpt>
      <trkpt lat="42.641415" lon="1.724035">
        <ele>2150.2</ele>
        <time>2018-08-11T05:16:24Z</time>
      </trkpt>
      <trkpt lat="42.641324" lon="1.724025">
        <ele>2151.6</ele>
        <time>2018-08-11T05:16:38Z</time>
      </trkpt>
      <trkpt lat="42.641246" lon="1.724037">
        <ele>2153.8</ele>
        <time>2018-08-11T05:17:44Z</time>
      </trkpt>
      <trkpt lat="42.641150" lon="1.724035">
        <ele>2155.7</ele>
        <time>2018-08-11T05:17:59Z</time>
      </trkpt>
      <trkpt lat="42.641050" lon="1.724032">
        <ele>2157.1</ele>
        <time>2018-08-11T05:18:13Z</time>
      </trkpt>
      <trkpt lat="42.640962" lon="1.724030">
        <ele>2158.5</ele>
        <time>2018-08-11T05:18:25Z</time>
      </trkpt>
      <trkpt lat="42.640876" lon="1.724092">
        <ele>2159.6</ele>
        <time>2018-08-11T05:18:37Z</time>
      </trkpt>
      <trkpt lat="42.640787" lon="1.724139">
        <ele>2160.9</ele>
        <time>2018-08-11T05:18:49Z</time>
      </trkpt>
      <trkpt lat="42.640689" lon="1.724136">
        <ele>2162.8</ele>
        <time>2018-08-11T05:19:03Z</time>
      </trkpt>
      <trkpt lat="42.640606" lon="1.724169">
        <ele>2164.4</ele>
        <time>2018-08-11T05:19:15Z</time>
      </trkpt>
      <trkpt lat="42.640507" lon="1.724200">
        <ele>2165.0</ele>
        <time>2018-08-11T05:19:28Z</time>
      </trkpt>
      <trkpt lat="42.640425" lon="1.724270">
        <ele>2164.9</ele>
        <time>2018-08-11T05:19:38Z</time>
      </trkpt>
      <trkpt lat="42.640342" lon="1.724328">
        <ele>2165.3</ele>
        <time>2018-08-11T05:19:49Z</time>
      </trkpt>
      <trkpt lat="42.640256" lon="1.724373">
        <ele>2166.3</ele>
        <time>2018-08-11T05:20:00Z</time>
      </trkpt>
      <trkpt lat="42.640173" lon="1.724448">
        <ele>2167.3</ele>
        <time>2018-08-11T05:20:11Z</time>
      </trkpt>
      <trkpt lat="42.640098" lon="1.724530">
        <ele>2168.0</ele>
        <time>2018-08-11T05:20:21Z</time>
      </trkpt>
      <trkpt lat="42.640032" lon="1.724607">
        <ele>2168.6</ele>
        <time>2018-08-11T05:20:31Z</time>
      </trkpt>
      <trkpt lat="42.639964" lon="1.724687">
        <ele>2169.1</ele>
        <time>2018-08-11T05:20:41Z</time>
      </trkpt>
      <trkpt lat="42.639927" lon="1.724781">
        <ele>2169.7</ele>
        <time>2018-08-11T05:20:51Z</time>
      </trkpt>
      <trkpt lat="42.639897" lon="1.724893">
        <ele>2170.4</ele>
        <time>2018-08-11T05:21:01Z</time>
      </trkpt>
      <trkpt lat="42.639843" lon="1.724987">
        <ele>2171.2</ele>
        <time>2018-08-11T05:21:11Z</time>
      </trkpt>
      <trkpt lat="42.639818" lon="1.725099">
        <ele>2171.8</ele>
        <time>2018-08-11T05:21:22Z</time>
      </trkpt>
      <trkpt lat="42.639771" lon="1.725197">
        <ele>2172.7</ele>
        <time>2018-08-11T05:21:32Z</time>
      </trkpt>
      <trkpt lat="42.639696" lon="1.725277">
        <ele>2173.4</ele>
        <time>2018-08-11T05:21:43Z</time>
      </trkpt>
      <trkpt lat="42.639623" lon="1.725367">
        <ele>2174.4</ele>
        <time>2018-08-11T05:21:54Z</time>
      </trkpt>
      <trkpt lat="42.639547" lon="1.725458">
        <ele>2175.5</ele>
        <time>2018-08-11T05:22:06Z</time>
      </trkpt>
      <trkpt lat="42.639492" lon="1.725563">
        <ele>2176.4</ele>
        <time>2018-08-11T05:22:17Z</time>
      </trkpt>
      <trkpt lat="42.639438" lon="1.725674">
        <ele>2177.3</ele>
        <time>2018-08-11T05:22:29Z</time>
      </trkpt>
      <trkpt lat="42.639364" lon="1.725699">
        <ele>2177.5</ele>
        <time>2018-08-11T05:22:41Z</time>
      </trkpt>
      <trkpt lat="42.639253" lon="1.725700">
        <ele>2177.9</ele>
        <time>2018-08-11T05:22:52Z</time>
      </trkpt>
      <trkpt lat="42.639153" lon="1.725734">
        <ele>2178.3</ele>
        <time>2018-08-11T05:23:03Z</time>
      </trkpt>
      <trkpt lat="42.639059" lon="1.725748">
        <ele>2178.5</ele>
        <time>2018-08-11T05:23:14Z</time>
      </trkpt>
      <trkpt lat="42.638967" lon="1.725764">
        <ele>2179.2</ele>
        <time>2018-08-11T05:23:25Z</time>
      </trkpt>
      <trkpt lat="42.638876" lon="1.725755">
        <ele>2180.8</ele>
        <time>2018-08-11T05:23:36Z</time>
      </trkpt>
      <trkpt lat="42.638789" lon="1.725778">
        <ele>2181.4</ele>
        <time>2018-08-11T05:23:46Z</time>
      </trkpt>
      <trkpt lat="42.638699" lon="1.725820">
        <ele>2181.6</ele>
        <time>2018-08-11T05:23:56Z</time>
      </trkpt>
      <trkpt lat="42.638607" lon="1.725835">
        <ele>2181.9</ele>
        <time>2018-08-11T05:24:06Z</time>
      </trkpt>
      <trkpt lat="42.638509" lon="1.725835">
        <ele>2182.5</ele>
        <time>2018-08-11T05:24:18Z</time>
      </trkpt>
      <trkpt lat="42.638407" lon="1.725803">
        <ele>2183.2</ele>
        <time>2018-08-11T05:24:29Z</time>
      </trkpt>
      <trkpt lat="42.638305" lon="1.725803">
        <ele>2182.9</ele>
        <time>2018-08-11T05:24:41Z</time>
      </trkpt>
      <trkpt lat="42.638226" lon="1.725879">
        <ele>2182.6</ele>
        <time>2018-08-11T05:24:53Z</time>
      </trkpt>
      <trkpt lat="42.638178" lon="1.725993">
        <ele>2182.6</ele>
        <time>2018-08-11T05:25:06Z</time>
      </trkpt>
      <trkpt lat="42.638069" lon="1.726031">
        <ele>2182.4</ele>
        <time>2018-08-11T05:25:19Z</time>
      </trkpt>
      <trkpt lat="42.637964" lon="1.726012">
        <ele>2183.0</ele>
        <time>2018-08-11T05:25:32Z</time>
      </trkpt>
      <trkpt lat="42.637961" lon="1.726043">
        <ele>2184.2</ele>
        <time>2018-08-11T05:26:54Z</time>
      </trkpt>
      <trkpt lat="42.637975" lon="1.726043">
        <ele>2185.2</ele>
        <time>2018-08-11T05:28:39Z</time>
      </trkpt>
      <trkpt lat="42.637923" lon="1.726097">
        <ele>2186.5</ele>
        <time>2018-08-11T05:32:30Z</time>
      </trkpt>
      <trkpt lat="42.637887" lon="1.726230">
        <ele>2188.6</ele>
        <time>2018-08-11T05:32:43Z</time>
      </trkpt>
      <trkpt lat="42.637845" lon="1.726353">
        <ele>2190.1</ele>
        <time>2018-08-11T05:32:57Z</time>
      </trkpt>
      <trkpt lat="42.637836" lon="1.726493">
        <ele>2191.9</ele>
        <time>2018-08-11T05:33:09Z</time>
      </trkpt>
      <trkpt lat="42.637813" lon="1.726636">
        <ele>2194.1</ele>
        <time>2018-08-11T05:33:24Z</time>
      </trkpt>
      <trkpt lat="42.637762" lon="1.726755">
        <ele>2197.0</ele>
        <time>2018-08-11T05:33:38Z</time>
      </trkpt>
      <trkpt lat="42.637726" lon="1.726873">
        <ele>2198.9</ele>
        <time>2018-08-11T05:33:49Z</time>
      </trkpt>
      <trkpt lat="42.637686" lon="1.726983">
        <ele>2200.3</ele>
        <time>2018-08-11T05:34:00Z</time>
      </trkpt>
      <trkpt lat="42.637703" lon="1.727125">
        <ele>2201.2</ele>
        <time>2018-08-11T05:34:10Z</time>
      </trkpt>
      <trkpt lat="42.637694" lon="1.727244">
        <ele>2202.3</ele>
        <time>2018-08-11T05:34:20Z</time>
      </trkpt>
      <trkpt lat="42.637696" lon="1.727373">
        <ele>2203.4</ele>
        <time>2018-08-11T05:34:30Z</time>
      </trkpt>
      <trkpt lat="42.637686" lon="1.727496">
        <ele>2204.4</ele>
        <time>2018-08-11T05:34:39Z</time>
      </trkpt>
      <trkpt lat="42.637698" lon="1.727614">
        <ele>2205.4</ele>
        <time>2018-08-11T05:34:48Z</time>
      </trkpt>
      <trkpt lat="42.637683" lon="1.727723">
        <ele>2206.3</ele>
        <time>2018-08-11T05:34:58Z</time>
      </trkpt>
      <trkpt lat="42.637676" lon="1.727850">
        <ele>2207.6</ele>
        <time>2018-08-11T05:35:10Z</time>
      </trkpt>
      <trkpt lat="42.637680" lon="1.727968">
        <ele>2208.6</ele>
        <time>2018-08-11T05:35:19Z</time>
      </trkpt>
      <trkpt lat="42.637686" lon="1.728105">
        <ele>2209.1</ele>
        <time>2018-08-11T05:35:29Z</time>
      </trkpt>
      <trkpt lat="42.637666" lon="1.728233">
        <ele>2209.3</ele>
        <time>2018-08-11T05:35:38Z</time>
      </trkpt>
      <trkpt lat="42.637657" lon="1.728364">
        <ele>2209.5</ele>
        <time>2018-08-11T05:35:48Z</time>
      </trkpt>
      <trkpt lat="42.637651" lon="1.728461">
        <ele>2209.4</ele>
        <time>2018-08-11T05:36:21Z</time>
      </trkpt>
      <trkpt lat="42.637637" lon="1.728576">
        <ele>2208.9</ele>
        <time>2018-08-11T05:36:31Z</time>
      </trkpt>
      <trkpt lat="42.637699" lon="1.728682">
        <ele>2208.9</ele>
        <time>2018-08-11T05:36:40Z</time>
      </trkpt>
      <trkpt lat="42.637746" lon="1.728771">
        <ele>2209.5</ele>
        <time>2018-08-11T05:36:49Z</time>
      </trkpt>
      <trkpt lat="42.637786" lon="1.728888">
        <ele>2210.4</ele>
        <time>2018-08-11T05:36:58Z</time>
      </trkpt>
      <trkpt lat="42.637807" lon="1.729013">
        <ele>2210.8</ele>
        <time>2018-08-11T05:37:07Z</time>
      </trkpt>
      <trkpt lat="42.637854" lon="1.729120">
        <ele>2211.3</ele>
        <time>2018-08-11T05:37:17Z</time>
      </trkpt>
      <trkpt lat="42.637894" lon="1.729229">
        <ele>2212.1</ele>
        <time>2018-08-11T05:37:29Z</time>
      </trkpt>
      <trkpt lat="42.637897" lon="1.729349">
        <ele>2213.0</ele>
        <time>2018-08-11T05:37:43Z</time>
      </trkpt>
      <trkpt lat="42.637882" lon="1.729476">
        <ele>2213.3</ele>
        <time>2018-08-11T05:37:53Z</time>
      </trkpt>
      <trkpt lat="42.637889" lon="1.729612">
        <ele>2213.8</ele>
        <time>2018-08-11T05:38:01Z</time>
      </trkpt>
      <trkpt lat="42.637915" lon="1.729729">
        <ele>2214.1</ele>
        <time>2018-08-11T05:38:07Z</time>
      </trkpt>
      <trkpt lat="42.637939" lon="1.729822">
        <ele>2214.9</ele>
        <time>2018-08-11T05:38:16Z</time>
      </trkpt>
      <trkpt lat="42.637951" lon="1.729924">
        <ele>2215.9</ele>
        <time>2018-08-11T05:38:25Z</time>
      </trkpt>
      <trkpt lat="42.637965" lon="1.730043">
        <ele>2217.0</ele>
        <time>2018-08-11T05:38:35Z</time>
      </trkpt>
      <trkpt lat="42.637953" lon="1.730174">
        <ele>2217.6</ele>
        <time>2018-08-11T05:38:44Z</time>
      </trkpt>
      <trkpt lat="42.637951" lon="1.730292">
        <ele>2217.9</ele>
        <time>2018-08-11T05:38:51Z</time>
      </trkpt>
      <trkpt lat="42.637965" lon="1.730409">
        <ele>2218.3</ele>
        <time>2018-08-11T05:38:58Z</time>
      </trkpt>
      <trkpt lat="42.637955" lon="1.730514">
        <ele>2219.4</ele>
        <time>2018-08-11T05:39:08Z</time>
      </trkpt>
      <trkpt lat="42.637968" lon="1.730638">
        <ele>2220.5</ele>
        <time>2018-08-11T05:39:18Z</time>
      </trkpt>
      <trkpt lat="42.637980" lon="1.730740">
        <ele>2221.4</ele>
        <time>2018-08-11T05:39:28Z</time>
      </trkpt>
      <trkpt lat="42.638001" lon="1.730867">
        <ele>2222.3</ele>
        <time>2018-08-11T05:39:39Z</time>
      </trkpt>
      <trkpt lat="42.638037" lon="1.730991">
        <ele>2223.5</ele>
        <time>2018-08-11T05:39:49Z</time>
      </trkpt>
      <trkpt lat="42.638054" lon="1.731111">
        <ele>2224.6</ele>
        <time>2018-08-11T05:39:59Z</time>
      </trkpt>
      <trkpt lat="42.638080" lon="1.731231">
        <ele>2225.5</ele>
        <time>2018-08-11T05:40:09Z</time>
      </trkpt>
      <trkpt lat="42.638099" lon="1.731372">
        <ele>2226.6</ele>
        <time>2018-08-11T05:40:20Z</time>
      </trkpt>
      <trkpt lat="42.638115" lon="1.731490">
        <ele>2227.1</ele>
        <time>2018-08-11T05:40:29Z</time>
      </trkpt>
      <trkpt lat="42.638086" lon="1.731613">
        <ele>2227.8</ele>
        <time>2018-08-11T05:40:39Z</time>
      </trkpt>
      <trkpt lat="42.638070" lon="1.731720">
        <ele>2228.8</ele>
        <time>2018-08-11T05:41:01Z</time>
      </trkpt>
      <trkpt lat="42.638103" lon="1.731718">
        <ele>2228.0</ele>
        <time>2018-08-11T05:42:05Z</time>
      </trkpt>
      <trkpt lat="42.638061" lon="1.731681">
        <ele>2229.2</ele>
        <time>2018-08-11T05:43:48Z</time>
      </trkpt>
      <trkpt lat="42.638090" lon="1.731780">
        <ele>2229.1</ele>
        <time>2018-08-11T05:43:56Z</time>
      </trkpt>
      <trkpt lat="42.638097" lon="1.731890">
        <ele>2230.0</ele>
        <time>2018-08-11T05:44:06Z</time>
      </trkpt>
      <trkpt lat="42.638093" lon="1.731996">
        <ele>2230.7</ele>
        <time>2018-08-11T05:44:14Z</time>
      </trkpt>
      <trkpt lat="42.638115" lon="1.732101">
        <ele>2231.2</ele>
        <time>2018-08-11T05:44:21Z</time>
      </trkpt>
      <trkpt lat="42.638103" lon="1.732193">
        <ele>2232.1</ele>
        <time>2018-08-11T05:44:32Z</time>
      </trkpt>
      <trkpt lat="42.638119" lon="1.732318">
        <ele>2233.1</ele>
        <time>2018-08-11T05:44:43Z</time>
      </trkpt>
      <trkpt lat="42.638104" lon="1.732445">
        <ele>2234.4</ele>
        <time>2018-08-11T05:44:54Z</time>
      </trkpt>
      <trkpt lat="42.638112" lon="1.732573">
        <ele>2235.8</ele>
        <time>2018-08-11T05:45:07Z</time>
      </trkpt>
      <trkpt lat="42.638138" lon="1.732698">
        <ele>2237.8</ele>
        <time>2018-08-11T05:45:19Z</time>
      </trkpt>
      <trkpt lat="42.638142" lon="1.732811">
        <ele>2239.2</ele>
        <time>2018-08-11T05:45:29Z</time>
      </trkpt>
      <trkpt lat="42.638113" lon="1.732895">
        <ele>2241.2</ele>
        <time>2018-08-11T05:45:42Z</time>
      </trkpt>
      <trkpt lat="42.638094" lon="1.733022">
        <ele>2242.8</ele>
        <time>2018-08-11T05:45:56Z</time>
      </trkpt>
      <trkpt lat="42.638104" lon="1.733159">
        <ele>2244.6</ele>
        <time>2018-08-11T05:46:08Z</time>
      </trkpt>
      <trkpt lat="42.638107" lon="1.733265">
        <ele>2246.4</ele>
        <time>2018-08-11T05:46:18Z</time>
      </trkpt>
      <trkpt lat="42.638067" lon="1.733388">
        <ele>2249.3</ele>
        <time>2018-08-11T05:46:37Z</time>
      </trkpt>
      <trkpt lat="42.638082" lon="1.733517">
        <ele>2251.4</ele>
        <time>2018-08-11T05:46:49Z</time>
      </trkpt>
      <trkpt lat="42.638085" lon="1.733619">
        <ele>2253.2</ele>
        <time>2018-08-11T05:47:03Z</time>
      </trkpt>
      <trkpt lat="42.638082" lon="1.733737">
        <ele>2256.1</ele>
        <time>2018-08-11T05:47:18Z</time>
      </trkpt>
      <trkpt lat="42.638056" lon="1.733845">
        <ele>2258.3</ele>
        <time>2018-08-11T05:47:34Z</time>
      </trkpt>
      <trkpt lat="42.638084" lon="1.733940">
        <ele>2259.8</ele>
        <time>2018-08-11T05:47:44Z</time>
      </trkpt>
      <trkpt lat="42.638095" lon="1.734045">
        <ele>2261.7</ele>
        <time>2018-08-11T05:47:55Z</time>
      </trkpt>
      <trkpt lat="42.638053" lon="1.734146">
        <ele>2263.0</ele>
        <time>2018-08-11T05:48:04Z</time>
      </trkpt>
      <trkpt lat="42.638018" lon="1.734269">
        <ele>2262.7</ele>
        <time>2018-08-11T05:48:13Z</time>
      </trkpt>
      <trkpt lat="42.637995" lon="1.734375">
        <ele>2262.2</ele>
        <time>2018-08-11T05:48:21Z</time>
      </trkpt>
      <trkpt lat="42.637968" lon="1.734475">
        <ele>2262.6</ele>
        <time>2018-08-11T05:48:30Z</time>
      </trkpt>
      <trkpt lat="42.637985" lon="1.734592">
        <ele>2263.5</ele>
        <time>2018-08-11T05:48:37Z</time>
      </trkpt>
      <trkpt lat="42.637981" lon="1.734678">
        <ele>2263.6</ele>
        <time>2018-08-11T05:48:46Z</time>
      </trkpt>
      <trkpt lat="42.637954" lon="1.734791">
        <ele>2263.4</ele>
        <time>2018-08-11T05:48:56Z</time>
      </trkpt>
      <trkpt lat="42.637972" lon="1.734924">
        <ele>2263.6</ele>
        <time>2018-08-11T05:49:09Z</time>
      </trkpt>
      <trkpt lat="42.638012" lon="1.735047">
        <ele>2264.7</ele>
        <time>2018-08-11T05:49:23Z</time>
      </trkpt>
      <trkpt lat="42.638028" lon="1.735181">
        <ele>2265.3</ele>
        <time>2018-08-11T05:49:32Z</time>
      </trkpt>
      <trkpt lat="42.638034" lon="1.735284">
        <ele>2266.2</ele>
        <time>2018-08-11T05:49:42Z</time>
      </trkpt>
      <trkpt lat="42.638002" lon="1.735387">
        <ele>2267.2</ele>
        <time>2018-08-11T05:49:52Z</time>
      </trkpt>
      <trkpt lat="42.637999" lon="1.735511">
        <ele>2267.2</ele>
        <time>2018-08-11T05:50:01Z</time>
      </trkpt>
      <trkpt lat="42.638027" lon="1.735637">
        <ele>2266.9</ele>
        <time>2018-08-11T05:50:10Z</time>
      </trkpt>
      <trkpt lat="42.637999" lon="1.735750">
        <ele>2267.9</ele>
        <time>2018-08-11T05:50:22Z</time>
      </trkpt>
      <trkpt lat="42.638019" lon="1.735873">
        <ele>2269.4</ele>
        <time>2018-08-11T05:50:35Z</time>
      </trkpt>
      <trkpt lat="42.638021" lon="1.735988">
        <ele>2271.4</ele>
        <time>2018-08-11T05:50:47Z</time>
      </trkpt>
      <trkpt lat="42.638048" lon="1.736118">
        <ele>2273.0</ele>
        <time>2018-08-11T05:51:00Z</time>
      </trkpt>
      <trkpt lat="42.638023" lon="1.736242">
        <ele>2274.5</ele>
        <time>2018-08-11T05:51:13Z</time>
      </trkpt>
      <trkpt lat="42.638010" lon="1.736362">
        <ele>2276.0</ele>
        <time>2018-08-11T05:51:26Z</time>
      </trkpt>
      <trkpt lat="42.638020" lon="1.736491">
        <ele>2278.1</ele>
        <time>2018-08-11T05:51:42Z</time>
      </trkpt>
      <trkpt lat="42.637997" lon="1.736630">
        <ele>2279.7</ele>
        <time>2018-08-11T05:51:54Z</time>
      </trkpt>
      <trkpt lat="42.637962" lon="1.736751">
        <ele>2280.8</ele>
        <time>2018-08-11T05:52:05Z</time>
      </trkpt>
      <trkpt lat="42.637924" lon="1.736865">
        <ele>2282.1</ele>
        <time>2018-08-11T05:52:17Z</time>
      </trkpt>
      <trkpt lat="42.637895" lon="1.736991">
        <ele>2282.9</ele>
        <time>2018-08-11T05:52:30Z</time>
      </trkpt>
      <trkpt lat="42.637900" lon="1.737110">
        <ele>2285.1</ele>
        <time>2018-08-11T05:52:45Z</time>
      </trkpt>
      <trkpt lat="42.637904" lon="1.737242">
        <ele>2286.6</ele>
        <time>2018-08-11T05:52:57Z</time>
      </trkpt>
      <trkpt lat="42.637876" lon="1.737366">
        <ele>2286.9</ele>
        <time>2018-08-11T05:53:07Z</time>
      </trkpt>
      <trkpt lat="42.637841" lon="1.737484">
        <ele>2287.1</ele>
        <time>2018-08-11T05:53:17Z</time>
      </trkpt>
      <trkpt lat="42.637831" lon="1.737609">
        <ele>2288.1</ele>
        <time>2018-08-11T05:53:27Z</time>
      </trkpt>
      <trkpt lat="42.637783" lon="1.737718">
        <ele>2288.9</ele>
        <time>2018-08-11T05:53:38Z</time>
      </trkpt>
      <trkpt lat="42.637754" lon="1.737815">
        <ele>2290.0</ele>
        <time>2018-08-11T05:53:52Z</time>
      </trkpt>
      <trkpt lat="42.637718" lon="1.737936">
        <ele>2291.2</ele>
        <time>2018-08-11T05:54:04Z</time>
      </trkpt>
      <trkpt lat="42.637680" lon="1.738046">
        <ele>2292.9</ele>
        <time>2018-08-11T05:54:18Z</time>
      </trkpt>
      <trkpt lat="42.637683" lon="1.738173">
        <ele>2295.8</ele>
        <time>2018-08-11T05:54:34Z</time>
      </trkpt>
      <trkpt lat="42.637691" lon="1.738303">
        <ele>2298.6</ele>
        <time>2018-08-11T05:54:51Z</time>
      </trkpt>
      <trkpt lat="42.637651" lon="1.738417">
        <ele>2300.9</ele>
        <time>2018-08-11T05:55:07Z</time>
      </trkpt>
      <trkpt lat="42.637608" lon="1.738523">
        <ele>2301.8</ele>
        <time>2018-08-11T05:55:21Z</time>
      </trkpt>
      <trkpt lat="42.637596" lon="1.738660">
        <ele>2303.0</ele>
        <time>2018-08-11T05:55:34Z</time>
      </trkpt>
      <trkpt lat="42.637580" lon="1.738790">
        <ele>2304.6</ele>
        <time>2018-08-11T05:55:49Z</time>
      </trkpt>
      <trkpt lat="42.637558" lon="1.738915">
        <ele>2305.8</ele>
        <time>2018-08-11T05:56:01Z</time>
      </trkpt>
      <trkpt lat="42.637536" lon="1.739038">
        <ele>2308.1</ele>
        <time>2018-08-11T05:56:18Z</time>
      </trkpt>
      <trkpt lat="42.637488" lon="1.739145">
        <ele>2310.0</ele>
        <time>2018-08-11T05:56:34Z</time>
      </trkpt>
      <trkpt lat="42.637469" lon="1.739278">
        <ele>2311.8</ele>
        <time>2018-08-11T05:56:51Z</time>
      </trkpt>
      <trkpt lat="42.637424" lon="1.739379">
        <ele>2312.9</ele>
        <time>2018-08-11T05:57:06Z</time>
      </trkpt>
      <trkpt lat="42.637393" lon="1.739496">
        <ele>2315.0</ele>
        <time>2018-08-11T05:57:20Z</time>
      </trkpt>
      <trkpt lat="42.637322" lon="1.739592">
        <ele>2316.8</ele>
        <time>2018-08-11T05:57:34Z</time>
      </trkpt>
      <trkpt lat="42.637273" lon="1.739707">
        <ele>2318.2</ele>
        <time>2018-08-11T05:58:11Z</time>
      </trkpt>
      <trkpt lat="42.637240" lon="1.739831">
        <ele>2320.8</ele>
        <time>2018-08-11T05:58:29Z</time>
      </trkpt>
      <trkpt lat="42.637203" lon="1.739964">
        <ele>2322.3</ele>
        <time>2018-08-11T05:58:43Z</time>
      </trkpt>
      <trkpt lat="42.637144" lon="1.740070">
        <ele>2322.9</ele>
        <time>2018-08-11T05:58:55Z</time>
      </trkpt>
      <trkpt lat="42.637082" lon="1.740177">
        <ele>2322.7</ele>
        <time>2018-08-11T05:59:04Z</time>
      </trkpt>
      <trkpt lat="42.637033" lon="1.740280">
        <ele>2322.6</ele>
        <time>2018-08-11T05:59:14Z</time>
      </trkpt>
      <trkpt lat="42.636962" lon="1.740367">
        <ele>2322.5</ele>
        <time>2018-08-11T05:59:24Z</time>
      </trkpt>
      <trkpt lat="42.636885" lon="1.740461">
        <ele>2321.3</ele>
        <time>2018-08-11T05:59:34Z</time>
      </trkpt>
      <trkpt lat="42.636836" lon="1.740586">
        <ele>2320.6</ele>
        <time>2018-08-11T05:59:49Z</time>
      </trkpt>
      <trkpt lat="42.636780" lon="1.740706">
        <ele>2321.6</ele>
        <time>2018-08-11T06:00:02Z</time>
      </trkpt>
      <trkpt lat="42.636782" lon="1.740706">
        <ele>2323.2</ele>
        <time>2018-08-11T06:05:23Z</time>
      </trkpt>
      <trkpt lat="42.636719" lon="1.740788">
        <ele>2323.3</ele>
        <time>2018-08-11T06:05:57Z</time>
      </trkpt>
      <trkpt lat="42.636655" lon="1.740861">
        <ele>2320.7</ele>
        <time>2018-08-11T06:06:16Z</time>
      </trkpt>
      <trkpt lat="42.636574" lon="1.740849">
        <ele>2316.1</ele>
        <time>2018-08-11T06:06:40Z</time>
      </trkpt>
      <trkpt lat="42.636498" lon="1.740889">
        <ele>2313.4</ele>
        <time>2018-08-11T06:06:57Z</time>
      </trkpt>
      <trkpt lat="42.636411" lon="1.740846">
        <ele>2310.4</ele>
        <time>2018-08-11T06:07:27Z</time>
      </trkpt>
      <trkpt lat="42.636317" lon="1.740847">
        <ele>2309.2</ele>
        <time>2018-08-11T06:07:41Z</time>
      </trkpt>
      <trkpt lat="42.636219" lon="1.740816">
        <ele>2309.2</ele>
        <time>2018-08-11T06:07:56Z</time>
      </trkpt>
      <trkpt lat="42.636110" lon="1.740832">
        <ele>2309.7</ele>
        <time>2018-08-11T06:08:10Z</time>
      </trkpt>
      <trkpt lat="42.636018" lon="1.740874">
        <ele>2309.4</ele>
        <time>2018-08-11T06:08:25Z</time>
      </trkpt>
      <trkpt lat="42.635929" lon="1.740859">
        <ele>2310.6</ele>
        <time>2018-08-11T06:08:55Z</time>
      </trkpt>
      <trkpt lat="42.635899" lon="1.740902">
        <ele>2313.1</ele>
        <time>2018-08-11T06:09:15Z</time>
      </trkpt>
      <trkpt lat="42.635822" lon="1.740933">
        <ele>2317.9</ele>
        <time>2018-08-11T06:09:46Z</time>
      </trkpt>
      <trkpt lat="42.635727" lon="1.740910">
        <ele>2320.4</ele>
        <time>2018-08-11T06:10:15Z</time>
      </trkpt>
      <trkpt lat="42.635644" lon="1.740878">
        <ele>2323.8</ele>
        <time>2018-08-11T06:10:33Z</time>
      </trkpt>
      <trkpt lat="42.635563" lon="1.740828">
        <ele>2324.9</ele>
        <time>2018-08-11T06:10:49Z</time>
      </trkpt>
      <trkpt lat="42.635481" lon="1.740806">
        <ele>2324.9</ele>
        <time>2018-08-11T06:11:09Z</time>
      </trkpt>
      <trkpt lat="42.635479" lon="1.740812">
        <ele>2324.6</ele>
        <time>2018-08-11T06:11:54Z</time>
      </trkpt>
      <trkpt lat="42.635363" lon="1.740864">
        <ele>2325.2</ele>
        <time>2018-08-11T06:12:12Z</time>
      </trkpt>
      <trkpt lat="42.635263" lon="1.740895">
        <ele>2328.1</ele>
        <time>2018-08-11T06:12:36Z</time>
      </trkpt>
      <trkpt lat="42.635164" lon="1.740962">
        <ele>2331.0</ele>
        <time>2018-08-11T06:13:03Z</time>
      </trkpt>
      <trkpt lat="42.635102" lon="1.740884">
        <ele>2331.6</ele>
        <time>2018-08-11T06:13:28Z</time>
      </trkpt>
      <trkpt lat="42.635017" lon="1.740855">
        <ele>2333.2</ele>
        <time>2018-08-11T06:14:12Z</time>
      </trkpt>
      <trkpt lat="42.634967" lon="1.740911">
        <ele>2336.3</ele>
        <time>2018-08-11T06:14:42Z</time>
      </trkpt>
      <trkpt lat="42.634939" lon="1.740844">
        <ele>2338.7</ele>
        <time>2018-08-11T06:16:08Z</time>
      </trkpt>
      <trkpt lat="42.634900" lon="1.740811">
        <ele>2340.0</ele>
        <time>2018-08-11T06:17:12Z</time>
      </trkpt>
      <trkpt lat="42.634868" lon="1.740811">
        <ele>2340.4</ele>
        <time>2018-08-11T06:20:26Z</time>
      </trkpt>
      <trkpt lat="42.634779" lon="1.740775">
        <ele>2341.9</ele>
        <time>2018-08-11T06:20:49Z</time>
      </trkpt>
      <trkpt lat="42.634699" lon="1.740719">
        <ele>2344.8</ele>
        <time>2018-08-11T06:21:23Z</time>
      </trkpt>
      <trkpt lat="42.634620" lon="1.740663">
        <ele>2347.4</ele>
        <time>2018-08-11T06:21:53Z</time>
      </trkpt>
      <trkpt lat="42.634573" lon="1.740620">
        <ele>2350.7</ele>
        <time>2018-08-11T06:22:19Z</time>
      </trkpt>
      <trkpt lat="42.634487" lon="1.740655">
        <ele>2354.4</ele>
        <time>2018-08-11T06:22:52Z</time>
      </trkpt>
      <trkpt lat="42.634435" lon="1.740590">
        <ele>2357.1</ele>
        <time>2018-08-11T06:23:37Z</time>
      </trkpt>
      <trkpt lat="42.634378" lon="1.740509">
        <ele>2358.6</ele>
        <time>2018-08-11T06:24:00Z</time>
      </trkpt>
      <trkpt lat="42.634307" lon="1.740451">
        <ele>2357.9</ele>
        <time>2018-08-11T06:24:20Z</time>
      </trkpt>
      <trkpt lat="42.634288" lon="1.740341">
        <ele>2359.4</ele>
        <time>2018-08-11T06:24:44Z</time>
      </trkpt>
      <trkpt lat="42.634303" lon="1.740354">
        <ele>2359.4</ele>
        <time>2018-08-11T06:25:44Z</time>
      </trkpt>
      <trkpt lat="42.634213" lon="1.740300">
        <ele>2360.2</ele>
        <time>2018-08-11T06:26:24Z</time>
      </trkpt>
      <trkpt lat="42.634126" lon="1.740243">
        <ele>2363.0</ele>
        <time>2018-08-11T06:26:39Z</time>
      </trkpt>
      <trkpt lat="42.634034" lon="1.740206">
        <ele>2366.6</ele>
        <time>2018-08-11T06:27:00Z</time>
      </trkpt>
      <trkpt lat="42.633945" lon="1.740183">
        <ele>2370.9</ele>
        <time>2018-08-11T06:27:26Z</time>
      </trkpt>
      <trkpt lat="42.633858" lon="1.740149">
        <ele>2375.3</ele>
        <time>2018-08-11T06:27:54Z</time>
      </trkpt>
      <trkpt lat="42.633794" lon="1.740251">
        <ele>2384.9</ele>
        <time>2018-08-11T06:28:51Z</time>
      </trkpt>
      <trkpt lat="42.633676" lon="1.740375">
        <ele>2394.4</ele>
        <time>2018-08-11T06:29:56Z</time>
      </trkpt>
      <trkpt lat="42.633614" lon="1.740290">
        <ele>2397.7</ele>
        <time>2018-08-11T06:30:16Z</time>
      </trkpt>
      <trkpt lat="42.633535" lon="1.740223">
        <ele>2400.6</ele>
        <time>2018-08-11T06:30:35Z</time>
      </trkpt>
      <trkpt lat="42.633493" lon="1.740213">
        <ele>2402.3</ele>
        <time>2018-08-11T06:32:04Z</time>
      </trkpt>
      <trkpt lat="42.633400" lon="1.740229">
        <ele>2400.2</ele>
        <time>2018-08-11T06:32:19Z</time>
      </trkpt>
      <trkpt lat="42.633313" lon="1.740203">
        <ele>2398.0</ele>
        <time>2018-08-11T06:32:37Z</time>
      </trkpt>
      <trkpt lat="42.633199" lon="1.740237">
        <ele>2398.9</ele>
        <time>2018-08-11T06:33:00Z</time>
      </trkpt>
      <trkpt lat="42.633093" lon="1.740244">
        <ele>2400.6</ele>
        <time>2018-08-11T06:33:18Z</time>
      </trkpt>
      <trkpt lat="42.632996" lon="1.740229">
        <ele>2401.5</ele>
        <time>2018-08-11T06:33:33Z</time>
      </trkpt>
      <trkpt lat="42.632904" lon="1.740230">
        <ele>2402.0</ele>
        <time>2018-08-11T06:33:44Z</time>
      </trkpt>
      <trkpt lat="42.632834" lon="1.740174">
        <ele>2402.4</ele>
        <time>2018-08-11T06:34:09Z</time>
      </trkpt>
      <trkpt lat="42.632738" lon="1.740202">
        <ele>2403.2</ele>
        <time>2018-08-11T06:34:21Z</time>
      </trkpt>
      <trkpt lat="42.632624" lon="1.740197">
        <ele>2403.5</ele>
        <time>2018-08-11T06:34:35Z</time>
      </trkpt>
      <trkpt lat="42.632513" lon="1.740239">
        <ele>2405.0</ele>
        <time>2018-08-11T06:34:48Z</time>
      </trkpt>
      <trkpt lat="42.632471" lon="1.740292">
        <ele>2406.4</ele>
        <time>2018-08-11T06:35:01Z</time>
      </trkpt>
      <trkpt lat="42.632369" lon="1.740311">
        <ele>2408.5</ele>
        <time>2018-08-11T06:35:20Z</time>
      </trkpt>
      <trkpt lat="42.632269" lon="1.740290">
        <ele>2409.7</ele>
        <time>2018-08-11T06:35:35Z</time>
      </trkpt>
      <trkpt lat="42.632173" lon="1.740280">
        <ele>2412.1</ele>
        <time>2018-08-11T06:35:52Z</time>
      </trkpt>
      <trkpt lat="42.632067" lon="1.740253">
        <ele>2413.4</ele>
        <time>2018-08-11T06:36:08Z</time>
      </trkpt>
      <trkpt lat="42.631969" lon="1.740211">
        <ele>2415.0</ele>
        <time>2018-08-11T06:36:25Z</time>
      </trkpt>
      <trkpt lat="42.631880" lon="1.740158">
        <ele>2416.9</ele>
        <time>2018-08-11T06:36:39Z</time>
      </trkpt>
      <trkpt lat="42.631799" lon="1.740142">
        <ele>2418.8</ele>
        <time>2018-08-11T06:37:00Z</time>
      </trkpt>
      <trkpt lat="42.631714" lon="1.740161">
        <ele>2422.1</ele>
        <time>2018-08-11T06:37:26Z</time>
      </trkpt>
      <trkpt lat="42.631644" lon="1.740128">
        <ele>2425.8</ele>
        <time>2018-08-11T06:37:49Z</time>
      </trkpt>
      <trkpt lat="42.631583" lon="1.740142">
        <ele>2429.5</ele>
        <time>2018-08-11T06:38:10Z</time>
      </trkpt>
      <trkpt lat="42.631523" lon="1.740224">
        <ele>2433.1</ele>
        <time>2018-08-11T06:38:33Z</time>
      </trkpt>
      <trkpt lat="42.631438" lon="1.740263">
        <ele>2435.9</ele>
        <time>2018-08-11T06:38:49Z</time>
      </trkpt>
      <trkpt lat="42.631367" lon="1.740352">
        <ele>2439.3</ele>
        <time>2018-08-11T06:39:10Z</time>
      </trkpt>
      <trkpt lat="42.631315" lon="1.740431">
        <ele>2444.6</ele>
        <time>2018-08-11T06:39:42Z</time>
      </trkpt>
      <trkpt lat="42.631244" lon="1.740528">
        <ele>2447.9</ele>
        <time>2018-08-11T06:40:07Z</time>
      </trkpt>
      <trkpt lat="42.631249" lon="1.740649">
        <ele>2451.8</ele>
        <time>2018-08-11T06:40:32Z</time>
      </trkpt>
      <trkpt lat="42.631223" lon="1.740769">
        <ele>2455.2</ele>
        <time>2018-08-11T06:40:54Z</time>
      </trkpt>
      <trkpt lat="42.631204" lon="1.740883">
        <ele>2457.6</ele>
        <time>2018-08-11T06:41:14Z</time>
      </trkpt>
      <trkpt lat="42.631113" lon="1.740954">
        <ele>2460.8</ele>
        <time>2018-08-11T06:41:35Z</time>
      </trkpt>
      <trkpt lat="42.631004" lon="1.740942">
        <ele>2464.2</ele>
        <time>2018-08-11T06:41:56Z</time>
      </trkpt>
      <trkpt lat="42.630978" lon="1.740955">
        <ele>2467.0</ele>
        <time>2018-08-11T06:42:19Z</time>
      </trkpt>
      <trkpt lat="42.630891" lon="1.740978">
        <ele>2469.4</ele>
        <time>2018-08-11T06:42:41Z</time>
      </trkpt>
      <trkpt lat="42.630905" lon="1.740960">
        <ele>2470.6</ele>
        <time>2018-08-11T06:43:07Z</time>
      </trkpt>
      <trkpt lat="42.630814" lon="1.740999">
        <ele>2472.4</ele>
        <time>2018-08-11T06:43:28Z</time>
      </trkpt>
      <trkpt lat="42.630780" lon="1.741037">
        <ele>2476.0</ele>
        <time>2018-08-11T06:44:09Z</time>
      </trkpt>
      <trkpt lat="42.630732" lon="1.741057">
        <ele>2479.7</ele>
        <time>2018-08-11T06:44:39Z</time>
      </trkpt>
      <trkpt lat="42.630671" lon="1.741061">
        <ele>2482.2</ele>
        <time>2018-08-11T06:45:06Z</time>
      </trkpt>
      <trkpt lat="42.630654" lon="1.741105">
        <ele>2485.5</ele>
        <time>2018-08-11T06:45:35Z</time>
      </trkpt>
      <trkpt lat="42.630597" lon="1.741183">
        <ele>2488.1</ele>
        <time>2018-08-11T06:46:00Z</time>
      </trkpt>
      <trkpt lat="42.630535" lon="1.741191">
        <ele>2491.2</ele>
        <time>2018-08-11T06:46:26Z</time>
      </trkpt>
      <trkpt lat="42.630497" lon="1.741248">
        <ele>2495.7</ele>
        <time>2018-08-11T06:46:57Z</time>
      </trkpt>
      <trkpt lat="42.630433" lon="1.741211">
        <ele>2498.3</ele>
        <time>2018-08-11T06:47:21Z</time>
      </trkpt>
      <trkpt lat="42.630381" lon="1.741225">
        <ele>2502.8</ele>
        <time>2018-08-11T06:47:54Z</time>
      </trkpt>
      <trkpt lat="42.630328" lon="1.741261">
        <ele>2506.5</ele>
        <time>2018-08-11T06:48:22Z</time>
      </trkpt>
      <trkpt lat="42.630275" lon="1.741206">
        <ele>2509.5</ele>
        <time>2018-08-11T06:48:47Z</time>
      </trkpt>
      <trkpt lat="42.630242" lon="1.741259">
        <ele>2513.3</ele>
        <time>2018-08-11T06:49:21Z</time>
      </trkpt>
      <trkpt lat="42.630167" lon="1.741275">
        <ele>2516.3</ele>
        <time>2018-08-11T06:49:41Z</time>
      </trkpt>
      <trkpt lat="42.630100" lon="1.741199">
        <ele>2522.3</ele>
        <time>2018-08-11T06:50:24Z</time>
      </trkpt>
      <trkpt lat="42.630048" lon="1.741224">
        <ele>2525.6</ele>
        <time>2018-08-11T06:50:54Z</time>
      </trkpt>
      <trkpt lat="42.630004" lon="1.741182">
        <ele>2535.0</ele>
        <time>2018-08-11T06:52:49Z</time>
      </trkpt>
      <trkpt lat="42.629942" lon="1.741146">
        <ele>2538.3</ele>
        <time>2018-08-11T06:53:15Z</time>
      </trkpt>
      <trkpt lat="42.629875" lon="1.741111">
        <ele>2542.0</ele>
        <time>2018-08-11T06:53:40Z</time>
      </trkpt>
      <trkpt lat="42.629819" lon="1.741121">
        <ele>2546.0</ele>
        <time>2018-08-11T06:54:19Z</time>
      </trkpt>
      <trkpt lat="42.629754" lon="1.741053">
        <ele>2555.0</ele>
        <time>2018-08-11T06:55:37Z</time>
      </trkpt>
      <trkpt lat="42.629705" lon="1.741036">
        <ele>2560.1</ele>
        <time>2018-08-11T06:56:08Z</time>
      </trkpt>
      <trkpt lat="42.629643" lon="1.741074">
        <ele>2563.8</ele>
        <time>2018-08-11T06:56:35Z</time>
      </trkpt>
      <trkpt lat="42.629589" lon="1.741146">
        <ele>2566.6</ele>
        <time>2018-08-11T06:56:58Z</time>
      </trkpt>
      <trkpt lat="42.629513" lon="1.741108">
        <ele>2570.2</ele>
        <time>2018-08-11T06:57:26Z</time>
      </trkpt>
      <trkpt lat="42.629493" lon="1.740985">
        <ele>2573.6</ele>
        <time>2018-08-11T06:57:53Z</time>
      </trkpt>
      <trkpt lat="42.629472" lon="1.740972">
        <ele>2578.5</ele>
        <time>2018-08-11T06:58:25Z</time>
      </trkpt>
      <trkpt lat="42.629407" lon="1.740994">
        <ele>2581.2</ele>
        <time>2018-08-11T06:58:47Z</time>
      </trkpt>
      <trkpt lat="42.629322" lon="1.740936">
        <ele>2589.9</ele>
        <time>2018-08-11T06:59:47Z</time>
      </trkpt>
      <trkpt lat="42.629273" lon="1.740928">
        <ele>2593.5</ele>
        <time>2018-08-11T07:00:18Z</time>
      </trkpt>
      <trkpt lat="42.629209" lon="1.740902">
        <ele>2595.9</ele>
        <time>2018-08-11T07:01:01Z</time>
      </trkpt>
      <trkpt lat="42.629202" lon="1.740808">
        <ele>2599.9</ele>
        <time>2018-08-11T07:01:25Z</time>
      </trkpt>
      <trkpt lat="42.629196" lon="1.740690">
        <ele>2603.4</ele>
        <time>2018-08-11T07:01:47Z</time>
      </trkpt>
      <trkpt lat="42.629200" lon="1.740606">
        <ele>2604.7</ele>
        <time>2018-08-11T07:02:03Z</time>
      </trkpt>
      <trkpt lat="42.629243" lon="1.740536">
        <ele>2609.3</ele>
        <time>2018-08-11T07:02:34Z</time>
      </trkpt>
      <trkpt lat="42.629275" lon="1.740424">
        <ele>2627.6</ele>
        <time>2018-08-11T07:05:34Z</time>
      </trkpt>
      <trkpt lat="42.629227" lon="1.740316">
        <ele>2631.3</ele>
        <time>2018-08-11T07:06:01Z</time>
      </trkpt>
      <trkpt lat="42.629159" lon="1.740275">
        <ele>2634.9</ele>
        <time>2018-08-11T07:06:27Z</time>
      </trkpt>
      <trkpt lat="42.629093" lon="1.740171">
        <ele>2638.6</ele>
        <time>2018-08-11T07:06:52Z</time>
      </trkpt>
      <trkpt lat="42.629094" lon="1.740045">
        <ele>2639.6</ele>
        <time>2018-08-11T07:07:10Z</time>
      </trkpt>
      <trkpt lat="42.629113" lon="1.739919">
        <ele>2641.0</ele>
        <time>2018-08-11T07:07:27Z</time>
      </trkpt>
      <trkpt lat="42.629116" lon="1.739792">
        <ele>2642.4</ele>
        <time>2018-08-11T07:08:03Z</time>
      </trkpt>
      <trkpt lat="42.629119" lon="1.739662">
        <ele>2642.2</ele>
        <time>2018-08-11T07:08:18Z</time>
      </trkpt>
      <trkpt lat="42.629087" lon="1.739545">
        <ele>2642.8</ele>
        <time>2018-08-11T07:08:33Z</time>
      </trkpt>
      <trkpt lat="42.629031" lon="1.739502">
        <ele>2647.9</ele>
        <time>2018-08-11T07:10:10Z</time>
      </trkpt>
      <trkpt lat="42.628967" lon="1.739547">
        <ele>2654.8</ele>
        <time>2018-08-11T07:11:01Z</time>
      </trkpt>
      <trkpt lat="42.628943" lon="1.739582">
        <ele>2660.3</ele>
        <time>2018-08-11T07:11:35Z</time>
      </trkpt>
      <trkpt lat="42.628886" lon="1.739636">
        <ele>2664.4</ele>
        <time>2018-08-11T07:12:22Z</time>
      </trkpt>
      <trkpt lat="42.628848" lon="1.739595">
        <ele>2667.0</ele>
        <time>2018-08-11T07:12:58Z</time>
      </trkpt>
      <trkpt lat="42.628767" lon="1.739587">
        <ele>2676.9</ele>
        <time>2018-08-11T07:13:58Z</time>
      </trkpt>
      <trkpt lat="42.628735" lon="1.739632">
        <ele>2680.4</ele>
        <time>2018-08-11T07:14:27Z</time>
      </trkpt>
      <trkpt lat="42.628687" lon="1.739677">
        <ele>2686.9</ele>
        <time>2018-08-11T07:15:14Z</time>
      </trkpt>
      <trkpt lat="42.628657" lon="1.739749">
        <ele>2691.4</ele>
        <time>2018-08-11T07:15:41Z</time>
      </trkpt>
      <trkpt lat="42.628569" lon="1.739773">
        <ele>2696.6</ele>
        <time>2018-08-11T07:16:11Z</time>
      </trkpt>
      <trkpt lat="42.628482" lon="1.739783">
        <ele>2699.0</ele>
        <time>2018-08-11T07:16:43Z</time>
      </trkpt>
      <trkpt lat="42.628389" lon="1.739772">
        <ele>2700.3</ele>
        <time>2018-08-11T07:17:00Z</time>
      </trkpt>
      <trkpt lat="42.628326" lon="1.739809">
        <ele>2704.9</ele>
        <time>2018-08-11T07:17:22Z</time>
      </trkpt>
      <trkpt lat="42.628248" lon="1.739830">
        <ele>2709.0</ele>
        <time>2018-08-11T07:17:45Z</time>
      </trkpt>
      <trkpt lat="42.628149" lon="1.739839">
        <ele>2711.4</ele>
        <time>2018-08-11T07:18:08Z</time>
      </trkpt>
      <trkpt lat="42.628122" lon="1.739851">
        <ele>2718.4</ele>
        <time>2018-08-11T07:18:48Z</time>
      </trkpt>
      <trkpt lat="42.628039" lon="1.739894">
        <ele>2724.3</ele>
        <time>2018-08-11T07:19:30Z</time>
      </trkpt>
      <trkpt lat="42.628021" lon="1.739883">
        <ele>2725.9</ele>
        <time>2018-08-11T07:20:26Z</time>
      </trkpt>
      <trkpt lat="42.627974" lon="1.739851">
        <ele>2726.3</ele>
        <time>2018-08-11T07:21:24Z</time>
      </trkpt>
      <trkpt lat="42.627948" lon="1.739741">
        <ele>2727.4</ele>
        <time>2018-08-11T07:21:51Z</time>
      </trkpt>
      <trkpt lat="42.627907" lon="1.739684">
        <ele>2730.1</ele>
        <time>2018-08-11T07:22:52Z</time>
      </trkpt>
      <trkpt lat="42.627898" lon="1.739632">
        <ele>2733.1</ele>
        <time>2018-08-11T07:24:22Z</time>
      </trkpt>
      <trkpt lat="42.627865" lon="1.739540">
        <ele>2736.1</ele>
        <time>2018-08-11T07:25:59Z</time>
      </trkpt>
      <trkpt lat="42.627835" lon="1.739484">
        <ele>2740.7</ele>
        <time>2018-08-11T07:27:02Z</time>
      </trkpt>
      <trkpt lat="42.627787" lon="1.739466">
        <ele>2745.6</ele>
        <time>2018-08-11T07:28:00Z</time>
      </trkpt>
      <trkpt lat="42.627725" lon="1.739413">
        <ele>2745.8</ele>
        <time>2018-08-11T07:28:42Z</time>
      </trkpt>
      <trkpt lat="42.627711" lon="1.739369">
        <ele>2749.0</ele>
        <time>2018-08-11T07:29:44Z</time>
      </trkpt>
      <trkpt lat="42.627634" lon="1.739311">
        <ele>2752.9</ele>
        <time>2018-08-11T07:30:07Z</time>
      </trkpt>
      <trkpt lat="42.627550" lon="1.739261">
        <ele>2754.8</ele>
        <time>2018-08-11T07:30:49Z</time>
      </trkpt>
      <trkpt lat="42.627461" lon="1.739208">
        <ele>2757.9</ele>
        <time>2018-08-11T07:31:44Z</time>
      </trkpt>
      <trkpt lat="42.627426" lon="1.739138">
        <ele>2761.5</ele>
        <time>2018-08-11T07:33:03Z</time>
      </trkpt>
      <trkpt lat="42.627392" lon="1.739077">
        <ele>2763.1</ele>
        <time>2018-08-11T07:33:34Z</time>
      </trkpt>
      <trkpt lat="42.627328" lon="1.739050">
        <ele>2770.4</ele>
        <time>2018-08-11T07:39:10Z</time>
      </trkpt>
      <trkpt lat="42.627302" lon="1.738993">
        <ele>2772.3</ele>
        <time>2018-08-11T07:40:42Z</time>
      </trkpt>
      <trkpt lat="42.627265" lon="1.738966">
        <ele>2778.3</ele>
        <time>2018-08-11T07:57:02Z</time>
      </trkpt>
      <trkpt lat="42.627237" lon="1.738890">
        <ele>2776.7</ele>
        <time>2018-08-11T07:58:35Z</time>
      </trkpt>
      <trkpt lat="42.627192" lon="1.738806">
        <ele>2772.2</ele>
        <time>2018-08-11T08:00:37Z</time>
      </trkpt>
      <trkpt lat="42.627128" lon="1.738747">
        <ele>2770.2</ele>
        <time>2018-08-11T08:01:22Z</time>
      </trkpt>
      <trkpt lat="42.627057" lon="1.738707">
        <ele>2765.9</ele>
        <time>2018-08-11T08:02:01Z</time>
      </trkpt>
      <trkpt lat="42.626991" lon="1.738744">
        <ele>2764.6</ele>
        <time>2018-08-11T08:03:07Z</time>
      </trkpt>
      <trkpt lat="42.626969" lon="1.738739">
        <ele>2763.0</ele>
        <time>2018-08-11T08:03:41Z</time>
      </trkpt>
      <trkpt lat="42.626911" lon="1.738690">
        <ele>2762.6</ele>
        <time>2018-08-11T08:04:00Z</time>
      </trkpt>
      <trkpt lat="42.626887" lon="1.738651">
        <ele>2760.7</ele>
        <time>2018-08-11T08:04:30Z</time>
      </trkpt>
      <trkpt lat="42.626799" lon="1.738641">
        <ele>2757.1</ele>
        <time>2018-08-11T08:04:59Z</time>
      </trkpt>
      <trkpt lat="42.626719" lon="1.738665">
        <ele>2753.2</ele>
        <time>2018-08-11T08:05:49Z</time>
      </trkpt>
      <trkpt lat="42.626658" lon="1.738635">
        <ele>2751.2</ele>
        <time>2018-08-11T08:06:40Z</time>
      </trkpt>
      <trkpt lat="42.626636" lon="1.738583">
        <ele>2746.9</ele>
        <time>2018-08-11T08:07:17Z</time>
      </trkpt>
      <trkpt lat="42.626586" lon="1.738534">
        <ele>2744.5</ele>
        <time>2018-08-11T08:07:43Z</time>
      </trkpt>
      <trkpt lat="42.626509" lon="1.738489">
        <ele>2742.3</ele>
        <time>2018-08-11T08:08:08Z</time>
      </trkpt>
      <trkpt lat="42.626462" lon="1.738490">
        <ele>2738.6</ele>
        <time>2018-08-11T08:09:36Z</time>
      </trkpt>
      <trkpt lat="42.626404" lon="1.738450">
        <ele>2743.2</ele>
        <time>2018-08-11T08:10:27Z</time>
      </trkpt>
      <trkpt lat="42.626368" lon="1.738469">
        <ele>2740.4</ele>
        <time>2018-08-11T08:11:21Z</time>
      </trkpt>
      <trkpt lat="42.626331" lon="1.738417">
        <ele>2738.2</ele>
        <time>2018-08-11T08:12:58Z</time>
      </trkpt>
      <trkpt lat="42.626288" lon="1.738342">
        <ele>2735.9</ele>
        <time>2018-08-11T08:13:44Z</time>
      </trkpt>
      <trkpt lat="42.626381" lon="1.738332">
        <ele>2732.7</ele>
        <time>2018-08-11T08:14:14Z</time>
      </trkpt>
      <trkpt lat="42.626419" lon="1.738249">
        <ele>2728.3</ele>
        <time>2018-08-11T08:14:48Z</time>
      </trkpt>
      <trkpt lat="42.626329" lon="1.738271">
        <ele>2725.8</ele>
        <time>2018-08-11T08:15:15Z</time>
      </trkpt>
      <trkpt lat="42.626241" lon="1.738259">
        <ele>2724.4</ele>
        <time>2018-08-11T08:15:32Z</time>
      </trkpt>
      <trkpt lat="42.626158" lon="1.738264">
        <ele>2724.4</ele>
        <time>2018-08-11T08:15:50Z</time>
      </trkpt>
      <trkpt lat="42.626077" lon="1.738243">
        <ele>2725.0</ele>
        <time>2018-08-11T08:16:05Z</time>
      </trkpt>
      <trkpt lat="42.626104" lon="1.738245">
        <ele>2724.9</ele>
        <time>2018-08-11T08:16:28Z</time>
      </trkpt>
      <trkpt lat="42.626071" lon="1.738245">
        <ele>2725.2</ele>
        <time>2018-08-11T08:17:37Z</time>
      </trkpt>
      <trkpt lat="42.626049" lon="1.738209">
        <ele>2721.7</ele>
        <time>2018-08-11T08:18:29Z</time>
      </trkpt>
      <trkpt lat="42.625992" lon="1.738219">
        <ele>2719.7</ele>
        <time>2018-08-11T08:18:52Z</time>
      </trkpt>
      <trkpt lat="42.625899" lon="1.738250">
        <ele>2717.8</ele>
        <time>2018-08-11T08:19:57Z</time>
      </trkpt>
      <trkpt lat="42.625890" lon="1.738179">
        <ele>2715.1</ele>
        <time>2018-08-11T08:20:26Z</time>
      </trkpt>
      <trkpt lat="42.625827" lon="1.738200">
        <ele>2711.0</ele>
        <time>2018-08-11T08:21:06Z</time>
      </trkpt>
      <trkpt lat="42.625733" lon="1.738231">
        <ele>2707.9</ele>
        <time>2018-08-11T08:21:33Z</time>
      </trkpt>
      <trkpt lat="42.625722" lon="1.738159">
        <ele>2705.7</ele>
        <time>2018-08-11T08:22:00Z</time>
      </trkpt>
      <trkpt lat="42.625723" lon="1.738120">
        <ele>2702.9</ele>
        <time>2018-08-11T08:22:56Z</time>
      </trkpt>
      <trkpt lat="42.625701" lon="1.738077">
        <ele>2698.9</ele>
        <time>2018-08-11T08:23:36Z</time>
      </trkpt>
      <trkpt lat="42.625655" lon="1.738066">
        <ele>2694.1</ele>
        <time>2018-08-11T08:24:31Z</time>
      </trkpt>
      <trkpt lat="42.625610" lon="1.738011">
        <ele>2688.6</ele>
        <time>2018-08-11T08:25:17Z</time>
      </trkpt>
      <trkpt lat="42.625571" lon="1.737935">
        <ele>2684.8</ele>
        <time>2018-08-11T08:26:56Z</time>
      </trkpt>
      <trkpt lat="42.625544" lon="1.737883">
        <ele>2681.1</ele>
        <time>2018-08-11T08:27:25Z</time>
      </trkpt>
      <trkpt lat="42.625510" lon="1.737823">
        <ele>2676.5</ele>
        <time>2018-08-11T08:28:39Z</time>
      </trkpt>
      <trkpt lat="42.625483" lon="1.737797">
        <ele>2674.8</ele>
        <time>2018-08-11T08:29:29Z</time>
      </trkpt>
      <trkpt lat="42.625430" lon="1.737777">
        <ele>2673.3</ele>
        <time>2018-08-11T08:30:03Z</time>
      </trkpt>
      <trkpt lat="42.625439" lon="1.737787">
        <ele>2670.5</ele>
        <time>2018-08-11T08:31:02Z</time>
      </trkpt>
      <trkpt lat="42.625406" lon="1.737743">
        <ele>2668.5</ele>
        <time>2018-08-11T08:31:36Z</time>
      </trkpt>
      <trkpt lat="42.625370" lon="1.737691">
        <ele>2666.2</ele>
        <time>2018-08-11T08:32:10Z</time>
      </trkpt>
      <trkpt lat="42.625339" lon="1.737699">
        <ele>2662.8</ele>
        <time>2018-08-11T08:33:10Z</time>
      </trkpt>
      <trkpt lat="42.625264" lon="1.737659">
        <ele>2658.1</ele>
        <time>2018-08-11T08:34:03Z</time>
      </trkpt>
      <trkpt lat="42.625234" lon="1.737600">
        <ele>2653.2</ele>
        <time>2018-08-11T08:34:52Z</time>
      </trkpt>
      <trkpt lat="42.625225" lon="1.737585">
        <ele>2649.6</ele>
        <time>2018-08-11T08:35:53Z</time>
      </trkpt>
      <trkpt lat="42.625179" lon="1.737515">
        <ele>2645.7</ele>
        <time>2018-08-11T08:36:42Z</time>
      </trkpt>
      <trkpt lat="42.625158" lon="1.737508">
        <ele>2642.6</ele>
        <time>2018-08-11T08:37:44Z</time>
      </trkpt>
      <trkpt lat="42.625135" lon="1.737466">
        <ele>2639.2</ele>
        <time>2018-08-11T08:38:47Z</time>
      </trkpt>
      <trkpt lat="42.625125" lon="1.737413">
        <ele>2634.3</ele>
        <time>2018-08-11T08:40:56Z</time>
      </trkpt>
      <trkpt lat="42.625051" lon="1.737368">
        <ele>2630.1</ele>
        <time>2018-08-11T08:41:28Z</time>
      </trkpt>
      <trkpt lat="42.625007" lon="1.737300">
        <ele>2626.5</ele>
        <time>2018-08-11T08:42:00Z</time>
      </trkpt>
      <trkpt lat="42.624976" lon="1.737228">
        <ele>2622.3</ele>
        <time>2018-08-11T08:44:05Z</time>
      </trkpt>
      <trkpt lat="42.624952" lon="1.737205">
        <ele>2618.7</ele>
        <time>2018-08-11T08:44:58Z</time>
      </trkpt>
      <trkpt lat="42.624920" lon="1.737210">
        <ele>2616.4</ele>
        <time>2018-08-11T08:45:40Z</time>
      </trkpt>
      <trkpt lat="42.624886" lon="1.737105">
        <ele>2611.4</ele>
        <time>2018-08-11T08:46:13Z</time>
      </trkpt>
      <trkpt lat="42.624820" lon="1.737125">
        <ele>2606.8</ele>
        <time>2018-08-11T08:47:09Z</time>
      </trkpt>
      <trkpt lat="42.624778" lon="1.737087">
        <ele>2603.4</ele>
        <time>2018-08-11T08:47:36Z</time>
      </trkpt>
      <trkpt lat="42.624658" lon="1.737026">
        <ele>2596.4</ele>
        <time>2018-08-11T08:48:40Z</time>
      </trkpt>
      <trkpt lat="42.624645" lon="1.737036">
        <ele>2592.3</ele>
        <time>2018-08-11T08:49:24Z</time>
      </trkpt>
      <trkpt lat="42.624591" lon="1.737099">
        <ele>2589.1</ele>
        <time>2018-08-11T08:50:02Z</time>
      </trkpt>
      <trkpt lat="42.624540" lon="1.737060">
        <ele>2585.5</ele>
        <time>2018-08-11T08:50:52Z</time>
      </trkpt>
      <trkpt lat="42.624466" lon="1.737036">
        <ele>2582.6</ele>
        <time>2018-08-11T08:52:08Z</time>
      </trkpt>
      <trkpt lat="42.624421" lon="1.736999">
        <ele>2578.7</ele>
        <time>2018-08-11T08:52:37Z</time>
      </trkpt>
      <trkpt lat="42.624389" lon="1.737032">
        <ele>2575.3</ele>
        <time>2018-08-11T08:53:22Z</time>
      </trkpt>
      <trkpt lat="42.624325" lon="1.736983">
        <ele>2572.1</ele>
        <time>2018-08-11T08:53:50Z</time>
      </trkpt>
      <trkpt lat="42.624324" lon="1.736868">
        <ele>2565.5</ele>
        <time>2018-08-11T08:56:28Z</time>
      </trkpt>
      <trkpt lat="42.624309" lon="1.736789">
        <ele>2562.6</ele>
        <time>2018-08-11T08:56:53Z</time>
      </trkpt>
      <trkpt lat="42.624290" lon="1.736688">
        <ele>2558.6</ele>
        <time>2018-08-11T08:57:20Z</time>
      </trkpt>
      <trkpt lat="42.624219" lon="1.736648">
        <ele>2550.3</ele>
        <time>2018-08-11T08:59:08Z</time>
      </trkpt>
      <trkpt lat="42.624193" lon="1.736577">
        <ele>2547.1</ele>
        <time>2018-08-11T08:59:33Z</time>
      </trkpt>
      <trkpt lat="42.624141" lon="1.736524">
        <ele>2542.8</ele>
        <time>2018-08-11T09:00:19Z</time>
      </trkpt>
      <trkpt lat="42.624125" lon="1.736465">
        <ele>2537.8</ele>
        <time>2018-08-11T09:01:55Z</time>
      </trkpt>
      <trkpt lat="42.624093" lon="1.736390">
        <ele>2534.0</ele>
        <time>2018-08-11T09:02:44Z</time>
      </trkpt>
      <trkpt lat="42.624025" lon="1.736370">
        <ele>2530.8</ele>
        <time>2018-08-11T09:03:16Z</time>
      </trkpt>
      <trkpt lat="42.623963" lon="1.736310">
        <ele>2526.7</ele>
        <time>2018-08-11T09:03:42Z</time>
      </trkpt>
      <trkpt lat="42.623934" lon="1.736290">
        <ele>2520.5</ele>
        <time>2018-08-11T09:07:20Z</time>
      </trkpt>
      <trkpt lat="42.623894" lon="1.736210">
        <ele>2517.0</ele>
        <time>2018-08-11T09:07:57Z</time>
      </trkpt>
      <trkpt lat="42.623893" lon="1.736147">
        <ele>2514.9</ele>
        <time>2018-08-11T09:09:00Z</time>
      </trkpt>
      <trkpt lat="42.623876" lon="1.736047">
        <ele>2512.1</ele>
        <time>2018-08-11T09:09:41Z</time>
      </trkpt>
      <trkpt lat="42.623837" lon="1.736004">
        <ele>2508.0</ele>
        <time>2018-08-11T09:10:15Z</time>
      </trkpt>
      <trkpt lat="42.623817" lon="1.736018">
        <ele>2506.8</ele>
        <time>2018-08-11T09:11:01Z</time>
      </trkpt>
      <trkpt lat="42.623746" lon="1.736022">
        <ele>2505.8</ele>
        <time>2018-08-11T09:11:42Z</time>
      </trkpt>
      <trkpt lat="42.623727" lon="1.736017">
        <ele>2500.8</ele>
        <time>2018-08-11T09:13:49Z</time>
      </trkpt>
      <trkpt lat="42.623673" lon="1.735980">
        <ele>2499.6</ele>
        <time>2018-08-11T09:14:23Z</time>
      </trkpt>
      <trkpt lat="42.623653" lon="1.735886">
        <ele>2496.8</ele>
        <time>2018-08-11T09:14:47Z</time>
      </trkpt>
      <trkpt lat="42.623659" lon="1.735786">
        <ele>2493.7</ele>
        <time>2018-08-11T09:15:06Z</time>
      </trkpt>
      <trkpt lat="42.623649" lon="1.735769">
        <ele>2490.1</ele>
        <time>2018-08-11T09:15:34Z</time>
      </trkpt>
      <trkpt lat="42.623654" lon="1.735683">
        <ele>2485.2</ele>
        <time>2018-08-11T09:19:03Z</time>
      </trkpt>
      <trkpt lat="42.623732" lon="1.735601">
        <ele>2484.3</ele>
        <time>2018-08-11T09:19:35Z</time>
      </trkpt>
      <trkpt lat="42.623792" lon="1.735523">
        <ele>2481.6</ele>
        <time>2018-08-11T09:19:59Z</time>
      </trkpt>
      <trkpt lat="42.623831" lon="1.735409">
        <ele>2480.4</ele>
        <time>2018-08-11T09:20:12Z</time>
      </trkpt>
      <trkpt lat="42.623802" lon="1.735325">
        <ele>2478.9</ele>
        <time>2018-08-11T09:20:28Z</time>
      </trkpt>
      <trkpt lat="42.623778" lon="1.735226">
        <ele>2476.7</ele>
        <time>2018-08-11T09:20:46Z</time>
      </trkpt>
      <trkpt lat="42.623744" lon="1.735119">
        <ele>2475.7</ele>
        <time>2018-08-11T09:21:13Z</time>
      </trkpt>
      <trkpt lat="42.623701" lon="1.735089">
        <ele>2478.4</ele>
        <time>2018-08-11T09:21:42Z</time>
      </trkpt>
      <trkpt lat="42.623606" lon="1.735063">
        <ele>2479.5</ele>
        <time>2018-08-11T09:22:02Z</time>
      </trkpt>
      <trkpt lat="42.623529" lon="1.735070">
        <ele>2480.1</ele>
        <time>2018-08-11T09:23:40Z</time>
      </trkpt>
      <trkpt lat="42.623492" lon="1.735052">
        <ele>2478.9</ele>
        <time>2018-08-11T09:25:06Z</time>
      </trkpt>
      <trkpt lat="42.623472" lon="1.734963">
        <ele>2478.6</ele>
        <time>2018-08-11T09:26:05Z</time>
      </trkpt>
      <trkpt lat="42.623414" lon="1.734869">
        <ele>2477.1</ele>
        <time>2018-08-11T09:26:26Z</time>
      </trkpt>
      <trkpt lat="42.623373" lon="1.734770">
        <ele>2476.9</ele>
        <time>2018-08-11T09:26:43Z</time>
      </trkpt>
      <trkpt lat="42.623350" lon="1.734613">
        <ele>2472.5</ele>
        <time>2018-08-11T09:27:45Z</time>
      </trkpt>
      <trkpt lat="42.623337" lon="1.734445">
        <ele>2464.0</ele>
        <time>2018-08-11T09:34:48Z</time>
      </trkpt>
      <trkpt lat="42.623358" lon="1.734351">
        <ele>2464.5</ele>
        <time>2018-08-11T09:35:45Z</time>
      </trkpt>
      <trkpt lat="42.623436" lon="1.734285">
        <ele>2464.7</ele>
        <time>2018-08-11T09:35:59Z</time>
      </trkpt>
      <trkpt lat="42.623451" lon="1.734160">
        <ele>2464.0</ele>
        <time>2018-08-11T09:36:12Z</time>
      </trkpt>
      <trkpt lat="42.623392" lon="1.734081">
        <ele>2464.3</ele>
        <time>2018-08-11T09:36:25Z</time>
      </trkpt>
      <trkpt lat="42.623315" lon="1.734023">
        <ele>2464.8</ele>
        <time>2018-08-11T09:36:46Z</time>
      </trkpt>
      <trkpt lat="42.623209" lon="1.734001">
        <ele>2465.2</ele>
        <time>2018-08-11T09:37:05Z</time>
      </trkpt>
      <trkpt lat="42.623124" lon="1.733942">
        <ele>2466.8</ele>
        <time>2018-08-11T09:37:23Z</time>
      </trkpt>
      <trkpt lat="42.623051" lon="1.733878">
        <ele>2468.1</ele>
        <time>2018-08-11T09:37:39Z</time>
      </trkpt>
      <trkpt lat="42.622988" lon="1.733785">
        <ele>2470.0</ele>
        <time>2018-08-11T09:37:56Z</time>
      </trkpt>
      <trkpt lat="42.622920" lon="1.733708">
        <ele>2471.1</ele>
        <time>2018-08-11T09:38:43Z</time>
      </trkpt>
      <trkpt lat="42.622835" lon="1.733646">
        <ele>2470.9</ele>
        <time>2018-08-11T09:38:56Z</time>
      </trkpt>
      <trkpt lat="42.622768" lon="1.733541">
        <ele>2471.1</ele>
        <time>2018-08-11T09:39:09Z</time>
      </trkpt>
      <trkpt lat="42.622698" lon="1.733450">
        <ele>2470.7</ele>
        <time>2018-08-11T09:39:30Z</time>
      </trkpt>
      <trkpt lat="42.622633" lon="1.733342">
        <ele>2471.6</ele>
        <time>2018-08-11T09:39:44Z</time>
      </trkpt>
      <trkpt lat="42.622577" lon="1.733243">
        <ele>2471.8</ele>
        <time>2018-08-11T09:39:55Z</time>
      </trkpt>
      <trkpt lat="42.622482" lon="1.733197">
        <ele>2471.3</ele>
        <time>2018-08-11T09:40:13Z</time>
      </trkpt>
      <trkpt lat="42.622394" lon="1.733101">
        <ele>2469.6</ele>
        <time>2018-08-11T09:40:26Z</time>
      </trkpt>
      <trkpt lat="42.622312" lon="1.733110">
        <ele>2470.1</ele>
        <time>2018-08-11T09:40:38Z</time>
      </trkpt>
      <trkpt lat="42.622238" lon="1.733036">
        <ele>2468.3</ele>
        <time>2018-08-11T09:40:50Z</time>
      </trkpt>
      <trkpt lat="42.622224" lon="1.732907">
        <ele>2466.6</ele>
        <time>2018-08-11T09:41:00Z</time>
      </trkpt>
      <trkpt lat="42.622255" lon="1.732766">
        <ele>2465.3</ele>
        <time>2018-08-11T09:41:26Z</time>
      </trkpt>
      <trkpt lat="42.622220" lon="1.732697">
        <ele>2461.6</ele>
        <time>2018-08-11T09:41:55Z</time>
      </trkpt>
      <trkpt lat="42.622169" lon="1.732628">
        <ele>2458.6</ele>
        <time>2018-08-11T09:42:10Z</time>
      </trkpt>
      <trkpt lat="42.622180" lon="1.732511">
        <ele>2456.1</ele>
        <time>2018-08-11T09:42:26Z</time>
      </trkpt>
      <trkpt lat="42.622089" lon="1.732489">
        <ele>2454.1</ele>
        <time>2018-08-11T09:42:39Z</time>
      </trkpt>
      <trkpt lat="42.621990" lon="1.732414">
        <ele>2451.7</ele>
        <time>2018-08-11T09:42:52Z</time>
      </trkpt>
      <trkpt lat="42.621901" lon="1.732370">
        <ele>2449.4</ele>
        <time>2018-08-11T09:43:06Z</time>
      </trkpt>
      <trkpt lat="42.621874" lon="1.732256">
        <ele>2446.9</ele>
        <time>2018-08-11T09:43:24Z</time>
      </trkpt>
      <trkpt lat="42.621820" lon="1.732169">
        <ele>2443.4</ele>
        <time>2018-08-11T09:43:42Z</time>
      </trkpt>
      <trkpt lat="42.621762" lon="1.732115">
        <ele>2439.0</ele>
        <time>2018-08-11T09:44:41Z</time>
      </trkpt>
      <trkpt lat="42.621685" lon="1.732145">
        <ele>2435.9</ele>
        <time>2018-08-11T09:45:10Z</time>
      </trkpt>
      <trkpt lat="42.621642" lon="1.732067">
        <ele>2432.5</ele>
        <time>2018-08-11T09:45:49Z</time>
      </trkpt>
      <trkpt lat="42.621667" lon="1.731938">
        <ele>2430.9</ele>
        <time>2018-08-11T09:46:16Z</time>
      </trkpt>
      <trkpt lat="42.621677" lon="1.731836">
        <ele>2428.4</ele>
        <time>2018-08-11T09:46:35Z</time>
      </trkpt>
      <trkpt lat="42.621685" lon="1.731746">
        <ele>2426.4</ele>
        <time>2018-08-11T09:46:53Z</time>
      </trkpt>
      <trkpt lat="42.621652" lon="1.731691">
        <ele>2422.6</ele>
        <time>2018-08-11T09:47:14Z</time>
      </trkpt>
      <trkpt lat="42.621632" lon="1.731632">
        <ele>2419.1</ele>
        <time>2018-08-11T09:47:36Z</time>
      </trkpt>
      <trkpt lat="42.621569" lon="1.731607">
        <ele>2416.9</ele>
        <time>2018-08-11T09:48:07Z</time>
      </trkpt>
      <trkpt lat="42.621497" lon="1.731617">
        <ele>2413.9</ele>
        <time>2018-08-11T09:48:31Z</time>
      </trkpt>
      <trkpt lat="42.621421" lon="1.731647">
        <ele>2410.6</ele>
        <time>2018-08-11T09:48:51Z</time>
      </trkpt>
      <trkpt lat="42.621333" lon="1.731665">
        <ele>2407.6</ele>
        <time>2018-08-11T09:49:08Z</time>
      </trkpt>
      <trkpt lat="42.621252" lon="1.731640">
        <ele>2405.2</ele>
        <time>2018-08-11T09:49:24Z</time>
      </trkpt>
      <trkpt lat="42.621227" lon="1.731538">
        <ele>2400.7</ele>
        <time>2018-08-11T09:49:50Z</time>
      </trkpt>
      <trkpt lat="42.621181" lon="1.731491">
        <ele>2396.9</ele>
        <time>2018-08-11T09:50:22Z</time>
      </trkpt>
      <trkpt lat="42.621188" lon="1.731380">
        <ele>2392.5</ele>
        <time>2018-08-11T09:50:52Z</time>
      </trkpt>
      <trkpt lat="42.621193" lon="1.731263">
        <ele>2388.4</ele>
        <time>2018-08-11T09:51:08Z</time>
      </trkpt>
      <trkpt lat="42.621172" lon="1.731181">
        <ele>2385.4</ele>
        <time>2018-08-11T09:51:25Z</time>
      </trkpt>
      <trkpt lat="42.621160" lon="1.731096">
        <ele>2381.9</ele>
        <time>2018-08-11T09:51:42Z</time>
      </trkpt>
      <trkpt lat="42.621163" lon="1.731021">
        <ele>2378.7</ele>
        <time>2018-08-11T09:53:18Z</time>
      </trkpt>
      <trkpt lat="42.621233" lon="1.730937">
        <ele>2377.0</ele>
        <time>2018-08-11T09:53:32Z</time>
      </trkpt>
      <trkpt lat="42.621289" lon="1.730860">
        <ele>2375.7</ele>
        <time>2018-08-11T09:53:49Z</time>
      </trkpt>
      <trkpt lat="42.621316" lon="1.730752">
        <ele>2373.4</ele>
        <time>2018-08-11T09:54:15Z</time>
      </trkpt>
      <trkpt lat="42.621336" lon="1.730673">
        <ele>2371.2</ele>
        <time>2018-08-11T09:54:35Z</time>
      </trkpt>
      <trkpt lat="42.621362" lon="1.730621">
        <ele>2370.4</ele>
        <time>2018-08-11T09:56:53Z</time>
      </trkpt>
      <trkpt lat="42.621366" lon="1.730478">
        <ele>2367.9</ele>
        <time>2018-08-11T09:57:27Z</time>
      </trkpt>
      <trkpt lat="42.621383" lon="1.730363">
        <ele>2365.7</ele>
        <time>2018-08-11T09:57:47Z</time>
      </trkpt>
      <trkpt lat="42.621426" lon="1.730263">
        <ele>2363.7</ele>
        <time>2018-08-11T09:58:03Z</time>
      </trkpt>
      <trkpt lat="42.621420" lon="1.730199">
        <ele>2360.4</ele>
        <time>2018-08-11T09:58:20Z</time>
      </trkpt>
      <trkpt lat="42.621421" lon="1.730051">
        <ele>2355.4</ele>
        <time>2018-08-11T09:59:07Z</time>
      </trkpt>
      <trkpt lat="42.621418" lon="1.729961">
        <ele>2354.0</ele>
        <time>2018-08-11T09:59:26Z</time>
      </trkpt>
      <trkpt lat="42.621411" lon="1.729919">
        <ele>2351.7</ele>
        <time>2018-08-11T10:01:09Z</time>
      </trkpt>
      <trkpt lat="42.621442" lon="1.729794">
        <ele>2352.6</ele>
        <time>2018-08-11T10:01:22Z</time>
      </trkpt>
      <trkpt lat="42.621491" lon="1.729671">
        <ele>2354.8</ele>
        <time>2018-08-11T10:01:36Z</time>
      </trkpt>
      <trkpt lat="42.621544" lon="1.729561">
        <ele>2355.8</ele>
        <time>2018-08-11T10:01:50Z</time>
      </trkpt>
      <trkpt lat="42.621551" lon="1.729474">
        <ele>2356.8</ele>
        <time>2018-08-11T10:02:07Z</time>
      </trkpt>
      <trkpt lat="42.621585" lon="1.729368">
        <ele>2356.6</ele>
        <time>2018-08-11T10:02:27Z</time>
      </trkpt>
      <trkpt lat="42.621616" lon="1.729261">
        <ele>2355.8</ele>
        <time>2018-08-11T10:02:40Z</time>
      </trkpt>
      <trkpt lat="42.621638" lon="1.729166">
        <ele>2354.1</ele>
        <time>2018-08-11T10:02:57Z</time>
      </trkpt>
      <trkpt lat="42.621650" lon="1.729072">
        <ele>2350.9</ele>
        <time>2018-08-11T10:03:14Z</time>
      </trkpt>
      <trkpt lat="42.621687" lon="1.728987">
        <ele>2347.5</ele>
        <time>2018-08-11T10:03:32Z</time>
      </trkpt>
      <trkpt lat="42.621747" lon="1.728890">
        <ele>2345.1</ele>
        <time>2018-08-11T10:03:48Z</time>
      </trkpt>
      <trkpt lat="42.621833" lon="1.728845">
        <ele>2344.8</ele>
        <time>2018-08-11T10:04:03Z</time>
      </trkpt>
      <trkpt lat="42.621858" lon="1.728776">
        <ele>2347.4</ele>
        <time>2018-08-11T10:04:20Z</time>
      </trkpt>
      <trkpt lat="42.621825" lon="1.728639">
        <ele>2347.0</ele>
        <time>2018-08-11T10:04:36Z</time>
      </trkpt>
      <trkpt lat="42.621782" lon="1.728525">
        <ele>2345.4</ele>
        <time>2018-08-11T10:04:47Z</time>
      </trkpt>
      <trkpt lat="42.621795" lon="1.728394">
        <ele>2344.2</ele>
        <time>2018-08-11T10:04:59Z</time>
      </trkpt>
      <trkpt lat="42.621819" lon="1.728285">
        <ele>2344.1</ele>
        <time>2018-08-11T10:05:13Z</time>
      </trkpt>
      <trkpt lat="42.621836" lon="1.728197">
        <ele>2344.6</ele>
        <time>2018-08-11T10:05:28Z</time>
      </trkpt>
      <trkpt lat="42.621891" lon="1.728149">
        <ele>2344.0</ele>
        <time>2018-08-11T10:05:42Z</time>
      </trkpt>
      <trkpt lat="42.621975" lon="1.728092">
        <ele>2343.7</ele>
        <time>2018-08-11T10:05:59Z</time>
      </trkpt>
      <trkpt lat="42.621958" lon="1.728015">
        <ele>2342.9</ele>
        <time>2018-08-11T10:06:13Z</time>
      </trkpt>
      <trkpt lat="42.621898" lon="1.727925">
        <ele>2343.2</ele>
        <time>2018-08-11T10:06:24Z</time>
      </trkpt>
      <trkpt lat="42.621882" lon="1.727803">
        <ele>2343.1</ele>
        <time>2018-08-11T10:06:39Z</time>
      </trkpt>
      <trkpt lat="42.621845" lon="1.727701">
        <ele>2342.0</ele>
        <time>2018-08-11T10:06:54Z</time>
      </trkpt>
      <trkpt lat="42.621731" lon="1.727721">
        <ele>2339.3</ele>
        <time>2018-08-11T10:07:08Z</time>
      </trkpt>
      <trkpt lat="42.621626" lon="1.727708">
        <ele>2336.9</ele>
        <time>2018-08-11T10:07:24Z</time>
      </trkpt>
      <trkpt lat="42.621593" lon="1.727668">
        <ele>2342.5</ele>
        <time>2018-08-11T11:12:22Z</time>
      </trkpt>
      <trkpt lat="42.621571" lon="1.727546">
        <ele>2342.7</ele>
        <time>2018-08-11T11:12:36Z</time>
      </trkpt>
      <trkpt lat="42.621568" lon="1.727422">
        <ele>2342.3</ele>
        <time>2018-08-11T11:12:52Z</time>
      </trkpt>
      <trkpt lat="42.621558" lon="1.727341">
        <ele>2342.0</ele>
        <time>2018-08-11T11:13:22Z</time>
      </trkpt>
      <trkpt lat="42.621559" lon="1.727199">
        <ele>2343.0</ele>
        <time>2018-08-11T11:13:45Z</time>
      </trkpt>
      <trkpt lat="42.621507" lon="1.727086">
        <ele>2345.1</ele>
        <time>2018-08-11T11:14:05Z</time>
      </trkpt>
      <trkpt lat="42.621436" lon="1.726996">
        <ele>2348.0</ele>
        <time>2018-08-11T11:14:25Z</time>
      </trkpt>
      <trkpt lat="42.621344" lon="1.726960">
        <ele>2350.1</ele>
        <time>2018-08-11T11:14:39Z</time>
      </trkpt>
      <trkpt lat="42.621257" lon="1.726889">
        <ele>2351.3</ele>
        <time>2018-08-11T11:14:52Z</time>
      </trkpt>
      <trkpt lat="42.621210" lon="1.726779">
        <ele>2351.4</ele>
        <time>2018-08-11T11:15:05Z</time>
      </trkpt>
      <trkpt lat="42.621150" lon="1.726678">
        <ele>2349.3</ele>
        <time>2018-08-11T11:15:17Z</time>
      </trkpt>
      <trkpt lat="42.621094" lon="1.726582">
        <ele>2347.4</ele>
        <time>2018-08-11T11:15:28Z</time>
      </trkpt>
      <trkpt lat="42.621085" lon="1.726456">
        <ele>2345.7</ele>
        <time>2018-08-11T11:15:40Z</time>
      </trkpt>
      <trkpt lat="42.621107" lon="1.726328">
        <ele>2344.0</ele>
        <time>2018-08-11T11:15:52Z</time>
      </trkpt>
      <trkpt lat="42.621140" lon="1.726205">
        <ele>2344.2</ele>
        <time>2018-08-11T11:16:04Z</time>
      </trkpt>
      <trkpt lat="42.621164" lon="1.726095">
        <ele>2344.2</ele>
        <time>2018-08-11T11:16:19Z</time>
      </trkpt>
      <trkpt lat="42.621221" lon="1.726054">
        <ele>2344.4</ele>
        <time>2018-08-11T11:16:51Z</time>
      </trkpt>
      <trkpt lat="42.621304" lon="1.725997">
        <ele>2342.4</ele>
        <time>2018-08-11T11:17:31Z</time>
      </trkpt>
      <trkpt lat="42.621373" lon="1.725950">
        <ele>2339.5</ele>
        <time>2018-08-11T11:17:50Z</time>
      </trkpt>
      <trkpt lat="42.621436" lon="1.725893">
        <ele>2337.1</ele>
        <time>2018-08-11T11:18:08Z</time>
      </trkpt>
      <trkpt lat="42.621519" lon="1.725860">
        <ele>2336.9</ele>
        <time>2018-08-11T11:18:24Z</time>
      </trkpt>
      <trkpt lat="42.621582" lon="1.725809">
        <ele>2332.9</ele>
        <time>2018-08-11T11:18:56Z</time>
      </trkpt>
      <trkpt lat="42.621658" lon="1.725769">
        <ele>2330.9</ele>
        <time>2018-08-11T11:19:14Z</time>
      </trkpt>
      <trkpt lat="42.621710" lon="1.725692">
        <ele>2328.7</ele>
        <time>2018-08-11T11:19:33Z</time>
      </trkpt>
      <trkpt lat="42.621800" lon="1.725639">
        <ele>2328.5</ele>
        <time>2018-08-11T11:19:45Z</time>
      </trkpt>
      <trkpt lat="42.621901" lon="1.725618">
        <ele>2326.8</ele>
        <time>2018-08-11T11:20:07Z</time>
      </trkpt>
      <trkpt lat="42.621988" lon="1.725592">
        <ele>2324.4</ele>
        <time>2018-08-11T11:20:45Z</time>
      </trkpt>
      <trkpt lat="42.622059" lon="1.725516">
        <ele>2322.5</ele>
        <time>2018-08-11T11:21:05Z</time>
      </trkpt>
      <trkpt lat="42.622119" lon="1.725555">
        <ele>2318.3</ele>
        <time>2018-08-11T11:21:34Z</time>
      </trkpt>
      <trkpt lat="42.622136" lon="1.725683">
        <ele>2315.4</ele>
        <time>2018-08-11T11:21:48Z</time>
      </trkpt>
      <trkpt lat="42.622148" lon="1.725753">
        <ele>2313.2</ele>
        <time>2018-08-11T11:22:06Z</time>
      </trkpt>
      <trkpt lat="42.622206" lon="1.725709">
        <ele>2309.5</ele>
        <time>2018-08-11T11:22:25Z</time>
      </trkpt>
      <trkpt lat="42.622240" lon="1.725602">
        <ele>2307.5</ele>
        <time>2018-08-11T11:22:43Z</time>
      </trkpt>
      <trkpt lat="42.622273" lon="1.725484">
        <ele>2305.5</ele>
        <time>2018-08-11T11:22:57Z</time>
      </trkpt>
      <trkpt lat="42.622320" lon="1.725569">
        <ele>2302.8</ele>
        <time>2018-08-11T11:23:11Z</time>
      </trkpt>
      <trkpt lat="42.622363" lon="1.725696">
        <ele>2300.8</ele>
        <time>2018-08-11T11:23:26Z</time>
      </trkpt>
      <trkpt lat="42.622393" lon="1.725743">
        <ele>2297.7</ele>
        <time>2018-08-11T11:23:46Z</time>
      </trkpt>
      <trkpt lat="42.622429" lon="1.725686">
        <ele>2295.2</ele>
        <time>2018-08-11T11:24:29Z</time>
      </trkpt>
      <trkpt lat="42.622427" lon="1.725596">
        <ele>2294.3</ele>
        <time>2018-08-11T11:24:51Z</time>
      </trkpt>
      <trkpt lat="42.622425" lon="1.725478">
        <ele>2291.6</ele>
        <time>2018-08-11T11:25:10Z</time>
      </trkpt>
      <trkpt lat="42.622454" lon="1.725363">
        <ele>2289.7</ele>
        <time>2018-08-11T11:25:24Z</time>
      </trkpt>
      <trkpt lat="42.622459" lon="1.725238">
        <ele>2288.2</ele>
        <time>2018-08-11T11:25:38Z</time>
      </trkpt>
      <trkpt lat="42.622506" lon="1.725186">
        <ele>2282.9</ele>
        <time>2018-08-11T11:26:25Z</time>
      </trkpt>
      <trkpt lat="42.622533" lon="1.725305">
        <ele>2281.2</ele>
        <time>2018-08-11T11:26:39Z</time>
      </trkpt>
      <trkpt lat="42.622577" lon="1.725322">
        <ele>2278.3</ele>
        <time>2018-08-11T11:26:56Z</time>
      </trkpt>
      <trkpt lat="42.622615" lon="1.725316">
        <ele>2276.0</ele>
        <time>2018-08-11T11:27:12Z</time>
      </trkpt>
      <trkpt lat="42.622662" lon="1.725424">
        <ele>2272.5</ele>
        <time>2018-08-11T11:27:38Z</time>
      </trkpt>
      <trkpt lat="42.622719" lon="1.725518">
        <ele>2270.6</ele>
        <time>2018-08-11T11:28:03Z</time>
      </trkpt>
      <trkpt lat="42.622757" lon="1.725505">
        <ele>2267.3</ele>
        <time>2018-08-11T11:28:24Z</time>
      </trkpt>
      <trkpt lat="42.622749" lon="1.725371">
        <ele>2265.0</ele>
        <time>2018-08-11T11:28:38Z</time>
      </trkpt>
      <trkpt lat="42.622772" lon="1.725256">
        <ele>2263.8</ele>
        <time>2018-08-11T11:28:52Z</time>
      </trkpt>
      <trkpt lat="42.622768" lon="1.725118">
        <ele>2262.0</ele>
        <time>2018-08-11T11:29:06Z</time>
      </trkpt>
      <trkpt lat="42.622793" lon="1.725066">
        <ele>2259.2</ele>
        <time>2018-08-11T11:29:21Z</time>
      </trkpt>
      <trkpt lat="42.622846" lon="1.725171">
        <ele>2255.7</ele>
        <time>2018-08-11T11:29:40Z</time>
      </trkpt>
      <trkpt lat="42.622883" lon="1.725175">
        <ele>2252.9</ele>
        <time>2018-08-11T11:30:01Z</time>
      </trkpt>
      <trkpt lat="42.622915" lon="1.725067">
        <ele>2250.4</ele>
        <time>2018-08-11T11:30:20Z</time>
      </trkpt>
      <trkpt lat="42.622973" lon="1.725070">
        <ele>2246.8</ele>
        <time>2018-08-11T11:30:40Z</time>
      </trkpt>
      <trkpt lat="42.623000" lon="1.725188">
        <ele>2244.2</ele>
        <time>2018-08-11T11:30:56Z</time>
      </trkpt>
      <trkpt lat="42.623062" lon="1.725292">
        <ele>2239.0</ele>
        <time>2018-08-11T11:33:36Z</time>
      </trkpt>
      <trkpt lat="42.623083" lon="1.725324">
        <ele>2235.2</ele>
        <time>2018-08-11T11:34:14Z</time>
      </trkpt>
      <trkpt lat="42.623149" lon="1.725298">
        <ele>2229.9</ele>
        <time>2018-08-11T11:34:58Z</time>
      </trkpt>
      <trkpt lat="42.623198" lon="1.725346">
        <ele>2226.6</ele>
        <time>2018-08-11T11:35:19Z</time>
      </trkpt>
      <trkpt lat="42.623252" lon="1.725290">
        <ele>2222.9</ele>
        <time>2018-08-11T11:35:36Z</time>
      </trkpt>
      <trkpt lat="42.623318" lon="1.725281">
        <ele>2216.5</ele>
        <time>2018-08-11T11:36:38Z</time>
      </trkpt>
      <trkpt lat="42.623349" lon="1.725183">
        <ele>2214.4</ele>
        <time>2018-08-11T11:36:58Z</time>
      </trkpt>
      <trkpt lat="42.623385" lon="1.725085">
        <ele>2212.6</ele>
        <time>2018-08-11T11:37:18Z</time>
      </trkpt>
      <trkpt lat="42.623424" lon="1.724956">
        <ele>2210.9</ele>
        <time>2018-08-11T11:37:33Z</time>
      </trkpt>
      <trkpt lat="42.623466" lon="1.725008">
        <ele>2208.0</ele>
        <time>2018-08-11T11:37:49Z</time>
      </trkpt>
      <trkpt lat="42.623505" lon="1.725103">
        <ele>2205.9</ele>
        <time>2018-08-11T11:38:05Z</time>
      </trkpt>
      <trkpt lat="42.623545" lon="1.725070">
        <ele>2203.4</ele>
        <time>2018-08-11T11:38:20Z</time>
      </trkpt>
      <trkpt lat="42.623542" lon="1.725200">
        <ele>2201.5</ele>
        <time>2018-08-11T11:38:38Z</time>
      </trkpt>
      <trkpt lat="42.623623" lon="1.725175">
        <ele>2199.1</ele>
        <time>2018-08-11T11:38:53Z</time>
      </trkpt>
      <trkpt lat="42.623656" lon="1.725217">
        <ele>2195.8</ele>
        <time>2018-08-11T11:39:16Z</time>
      </trkpt>
      <trkpt lat="42.623710" lon="1.725140">
        <ele>2193.9</ele>
        <time>2018-08-11T11:39:29Z</time>
      </trkpt>
      <trkpt lat="42.623718" lon="1.725262">
        <ele>2190.8</ele>
        <time>2018-08-11T11:39:44Z</time>
      </trkpt>
      <trkpt lat="42.623789" lon="1.725198">
        <ele>2187.9</ele>
        <time>2018-08-11T11:40:01Z</time>
      </trkpt>
      <trkpt lat="42.623782" lon="1.725303">
        <ele>2186.2</ele>
        <time>2018-08-11T11:40:17Z</time>
      </trkpt>
      <trkpt lat="42.623770" lon="1.725438">
        <ele>2184.3</ele>
        <time>2018-08-11T11:40:32Z</time>
      </trkpt>
      <trkpt lat="42.623855" lon="1.725485">
        <ele>2178.2</ele>
        <time>2018-08-11T11:42:00Z</time>
      </trkpt>
      <trkpt lat="42.623924" lon="1.725483">
        <ele>2174.9</ele>
        <time>2018-08-11T11:42:17Z</time>
      </trkpt>
      <trkpt lat="42.623948" lon="1.725574">
        <ele>2172.0</ele>
        <time>2018-08-11T11:42:35Z</time>
      </trkpt>
      <trkpt lat="42.623995" lon="1.725551">
        <ele>2169.6</ele>
        <time>2018-08-11T11:42:49Z</time>
      </trkpt>
      <trkpt lat="42.624006" lon="1.725657">
        <ele>2166.4</ele>
        <time>2018-08-11T11:43:05Z</time>
      </trkpt>
      <trkpt lat="42.624043" lon="1.725708">
        <ele>2164.1</ele>
        <time>2018-08-11T11:43:20Z</time>
      </trkpt>
      <trkpt lat="42.624133" lon="1.725652">
        <ele>2161.1</ele>
        <time>2018-08-11T11:43:38Z</time>
      </trkpt>
      <trkpt lat="42.624193" lon="1.725609">
        <ele>2158.9</ele>
        <time>2018-08-11T11:43:54Z</time>
      </trkpt>
      <trkpt lat="42.624287" lon="1.725621">
        <ele>2156.0</ele>
        <time>2018-08-11T11:44:40Z</time>
      </trkpt>
      <trkpt lat="42.624367" lon="1.725682">
        <ele>2153.6</ele>
        <time>2018-08-11T11:44:54Z</time>
      </trkpt>
      <trkpt lat="42.624452" lon="1.725646">
        <ele>2150.6</ele>
        <time>2018-08-11T11:45:10Z</time>
      </trkpt>
      <trkpt lat="42.624502" lon="1.725743">
        <ele>2148.5</ele>
        <time>2018-08-11T11:45:25Z</time>
      </trkpt>
      <trkpt lat="42.624564" lon="1.725769">
        <ele>2145.3</ele>
        <time>2018-08-11T11:45:48Z</time>
      </trkpt>
      <trkpt lat="42.624627" lon="1.725712">
        <ele>2142.5</ele>
        <time>2018-08-11T11:46:06Z</time>
      </trkpt>
      <trkpt lat="42.624657" lon="1.725820">
        <ele>2139.4</ele>
        <time>2018-08-11T11:46:26Z</time>
      </trkpt>
      <trkpt lat="42.624721" lon="1.725824">
        <ele>2136.3</ele>
        <time>2018-08-11T11:47:27Z</time>
      </trkpt>
      <trkpt lat="42.624804" lon="1.725818">
        <ele>2134.4</ele>
        <time>2018-08-11T11:47:42Z</time>
      </trkpt>
      <trkpt lat="42.624899" lon="1.725834">
        <ele>2133.5</ele>
        <time>2018-08-11T11:47:57Z</time>
      </trkpt>
      <trkpt lat="42.624995" lon="1.725801">
        <ele>2133.4</ele>
        <time>2018-08-11T11:48:09Z</time>
      </trkpt>
      <trkpt lat="42.625077" lon="1.725721">
        <ele>2133.5</ele>
        <time>2018-08-11T11:48:22Z</time>
      </trkpt>
      <trkpt lat="42.625160" lon="1.725720">
        <ele>2133.2</ele>
        <time>2018-08-11T11:48:35Z</time>
      </trkpt>
      <trkpt lat="42.625243" lon="1.725811">
        <ele>2133.1</ele>
        <time>2018-08-11T11:48:50Z</time>
      </trkpt>
      <trkpt lat="42.625321" lon="1.725904">
        <ele>2133.5</ele>
        <time>2018-08-11T11:49:02Z</time>
      </trkpt>
      <trkpt lat="42.625417" lon="1.725867">
        <ele>2134.4</ele>
        <time>2018-08-11T11:49:18Z</time>
      </trkpt>
      <trkpt lat="42.625495" lon="1.725901">
        <ele>2134.1</ele>
        <time>2018-08-11T11:49:32Z</time>
      </trkpt>
      <trkpt lat="42.625572" lon="1.725953">
        <ele>2133.0</ele>
        <time>2018-08-11T11:49:44Z</time>
      </trkpt>
      <trkpt lat="42.625675" lon="1.725997">
        <ele>2132.5</ele>
        <time>2018-08-11T11:50:02Z</time>
      </trkpt>
      <trkpt lat="42.625757" lon="1.726071">
        <ele>2132.4</ele>
        <time>2018-08-11T11:50:13Z</time>
      </trkpt>
      <trkpt lat="42.625820" lon="1.726152">
        <ele>2132.2</ele>
        <time>2018-08-11T11:50:23Z</time>
      </trkpt>
      <trkpt lat="42.625887" lon="1.726168">
        <ele>2131.1</ele>
        <time>2018-08-11T11:56:09Z</time>
      </trkpt>
      <trkpt lat="42.625979" lon="1.726224">
        <ele>2131.2</ele>
        <time>2018-08-11T11:56:17Z</time>
      </trkpt>
      <trkpt lat="42.626071" lon="1.726254">
        <ele>2131.2</ele>
        <time>2018-08-11T11:56:27Z</time>
      </trkpt>
      <trkpt lat="42.626167" lon="1.726284">
        <ele>2131.4</ele>
        <time>2018-08-11T11:56:37Z</time>
      </trkpt>
      <trkpt lat="42.626273" lon="1.726268">
        <ele>2132.0</ele>
        <time>2018-08-11T11:56:49Z</time>
      </trkpt>
      <trkpt lat="42.626376" lon="1.726286">
        <ele>2131.3</ele>
        <time>2018-08-11T11:57:01Z</time>
      </trkpt>
      <trkpt lat="42.626469" lon="1.726277">
        <ele>2131.0</ele>
        <time>2018-08-11T11:57:12Z</time>
      </trkpt>
      <trkpt lat="42.626568" lon="1.726312">
        <ele>2131.1</ele>
        <time>2018-08-11T11:57:24Z</time>
      </trkpt>
      <trkpt lat="42.626647" lon="1.726407">
        <ele>2130.9</ele>
        <time>2018-08-11T11:57:34Z</time>
      </trkpt>
      <trkpt lat="42.626722" lon="1.726467">
        <ele>2130.8</ele>
        <time>2018-08-11T11:57:45Z</time>
      </trkpt>
      <trkpt lat="42.626813" lon="1.726535">
        <ele>2130.9</ele>
        <time>2018-08-11T11:57:55Z</time>
      </trkpt>
      <trkpt lat="42.626899" lon="1.726561">
        <ele>2131.1</ele>
        <time>2018-08-11T11:58:06Z</time>
      </trkpt>
      <trkpt lat="42.626982" lon="1.726623">
        <ele>2131.5</ele>
        <time>2018-08-11T11:58:17Z</time>
      </trkpt>
      <trkpt lat="42.627082" lon="1.726642">
        <ele>2130.9</ele>
        <time>2018-08-11T11:58:29Z</time>
      </trkpt>
      <trkpt lat="42.627191" lon="1.726695">
        <ele>2131.1</ele>
        <time>2018-08-11T11:58:42Z</time>
      </trkpt>
      <trkpt lat="42.627269" lon="1.726763">
        <ele>2131.4</ele>
        <time>2018-08-11T11:58:52Z</time>
      </trkpt>
      <trkpt lat="42.627347" lon="1.726851">
        <ele>2132.1</ele>
        <time>2018-08-11T11:59:04Z</time>
      </trkpt>
      <trkpt lat="42.627420" lon="1.726925">
        <ele>2132.2</ele>
        <time>2018-08-11T11:59:16Z</time>
      </trkpt>
      <trkpt lat="42.627496" lon="1.726928">
        <ele>2130.8</ele>
        <time>2018-08-11T11:59:28Z</time>
      </trkpt>
      <trkpt lat="42.627587" lon="1.726898">
        <ele>2129.7</ele>
        <time>2018-08-11T11:59:37Z</time>
      </trkpt>
      <trkpt lat="42.627681" lon="1.726853">
        <ele>2129.3</ele>
        <time>2018-08-11T11:59:49Z</time>
      </trkpt>
      <trkpt lat="42.627773" lon="1.726825">
        <ele>2128.2</ele>
        <time>2018-08-11T12:00:03Z</time>
      </trkpt>
      <trkpt lat="42.627837" lon="1.726864">
        <ele>2125.6</ele>
        <time>2018-08-11T12:00:21Z</time>
      </trkpt>
      <trkpt lat="42.627877" lon="1.726910">
        <ele>2122.6</ele>
        <time>2018-08-11T12:00:40Z</time>
      </trkpt>
      <trkpt lat="42.627958" lon="1.726965">
        <ele>2120.4</ele>
        <time>2018-08-11T12:00:58Z</time>
      </trkpt>
      <trkpt lat="42.628047" lon="1.726916">
        <ele>2119.1</ele>
        <time>2018-08-11T12:01:17Z</time>
      </trkpt>
      <trkpt lat="42.628119" lon="1.726861">
        <ele>2117.0</ele>
        <time>2018-08-11T12:01:32Z</time>
      </trkpt>
      <trkpt lat="42.628181" lon="1.726767">
        <ele>2114.8</ele>
        <time>2018-08-11T12:01:46Z</time>
      </trkpt>
      <trkpt lat="42.628241" lon="1.726675">
        <ele>2113.1</ele>
        <time>2018-08-11T12:01:56Z</time>
      </trkpt>
      <trkpt lat="42.628307" lon="1.726584">
        <ele>2111.6</ele>
        <time>2018-08-11T12:02:09Z</time>
      </trkpt>
      <trkpt lat="42.628381" lon="1.726503">
        <ele>2111.6</ele>
        <time>2018-08-11T12:02:19Z</time>
      </trkpt>
      <trkpt lat="42.628437" lon="1.726407">
        <ele>2110.3</ele>
        <time>2018-08-11T12:02:36Z</time>
      </trkpt>
      <trkpt lat="42.628526" lon="1.726335">
        <ele>2109.7</ele>
        <time>2018-08-11T12:02:47Z</time>
      </trkpt>
      <trkpt lat="42.628583" lon="1.726230">
        <ele>2109.1</ele>
        <time>2018-08-11T12:03:01Z</time>
      </trkpt>
      <trkpt lat="42.628677" lon="1.726174">
        <ele>2107.1</ele>
        <time>2018-08-11T12:04:11Z</time>
      </trkpt>
      <trkpt lat="42.628775" lon="1.726123">
        <ele>2106.9</ele>
        <time>2018-08-11T12:04:20Z</time>
      </trkpt>
      <trkpt lat="42.628856" lon="1.726089">
        <ele>2107.4</ele>
        <time>2018-08-11T12:04:29Z</time>
      </trkpt>
      <trkpt lat="42.628931" lon="1.726003">
        <ele>2108.7</ele>
        <time>2018-08-11T12:04:38Z</time>
      </trkpt>
      <trkpt lat="42.629002" lon="1.725926">
        <ele>2109.1</ele>
        <time>2018-08-11T12:04:46Z</time>
      </trkpt>
      <trkpt lat="42.629081" lon="1.725853">
        <ele>2108.9</ele>
        <time>2018-08-11T12:04:55Z</time>
      </trkpt>
      <trkpt lat="42.629166" lon="1.725819">
        <ele>2108.3</ele>
        <time>2018-08-11T12:05:05Z</time>
      </trkpt>
      <trkpt lat="42.629250" lon="1.725821">
        <ele>2107.3</ele>
        <time>2018-08-11T12:05:14Z</time>
      </trkpt>
      <trkpt lat="42.629352" lon="1.725781">
        <ele>2106.8</ele>
        <time>2018-08-11T12:05:24Z</time>
      </trkpt>
      <trkpt lat="42.629435" lon="1.725757">
        <ele>2106.0</ele>
        <time>2018-08-11T12:05:32Z</time>
      </trkpt>
      <trkpt lat="42.629515" lon="1.725790">
        <ele>2105.6</ele>
        <time>2018-08-11T12:05:41Z</time>
      </trkpt>
      <trkpt lat="42.629584" lon="1.725792">
        <ele>2105.1</ele>
        <time>2018-08-11T12:05:50Z</time>
      </trkpt>
      <trkpt lat="42.629656" lon="1.725866">
        <ele>2105.7</ele>
        <time>2018-08-11T12:06:04Z</time>
      </trkpt>
      <trkpt lat="42.629750" lon="1.725916">
        <ele>2105.6</ele>
        <time>2018-08-11T12:06:18Z</time>
      </trkpt>
      <trkpt lat="42.629830" lon="1.725963">
        <ele>2106.0</ele>
        <time>2018-08-11T12:06:38Z</time>
      </trkpt>
      <trkpt lat="42.629863" lon="1.725884">
        <ele>2105.2</ele>
        <time>2018-08-11T12:07:14Z</time>
      </trkpt>
      <trkpt lat="42.629836" lon="1.725762">
        <ele>2105.1</ele>
        <time>2018-08-11T12:07:26Z</time>
      </trkpt>
      <trkpt lat="42.629897" lon="1.725660">
        <ele>2105.2</ele>
        <time>2018-08-11T12:07:45Z</time>
      </trkpt>
      <trkpt lat="42.629926" lon="1.725539">
        <ele>2106.8</ele>
        <time>2018-08-11T12:07:58Z</time>
      </trkpt>
      <trkpt lat="42.629942" lon="1.725425">
        <ele>2108.3</ele>
        <time>2018-08-11T12:08:10Z</time>
      </trkpt>
      <trkpt lat="42.629926" lon="1.725318">
        <ele>2108.3</ele>
        <time>2018-08-11T12:08:23Z</time>
      </trkpt>
      <trkpt lat="42.629886" lon="1.725187">
        <ele>2108.6</ele>
        <time>2018-08-11T12:08:43Z</time>
      </trkpt>
      <trkpt lat="42.629819" lon="1.725086">
        <ele>2110.8</ele>
        <time>2018-08-11T12:09:01Z</time>
      </trkpt>
      <trkpt lat="42.629750" lon="1.725002">
        <ele>2113.1</ele>
        <time>2018-08-11T12:09:18Z</time>
      </trkpt>
      <trkpt lat="42.629700" lon="1.724898">
        <ele>2114.9</ele>
        <time>2018-08-11T12:09:31Z</time>
      </trkpt>
      <trkpt lat="42.629645" lon="1.724798">
        <ele>2115.8</ele>
        <time>2018-08-11T12:09:47Z</time>
      </trkpt>
      <trkpt lat="42.629585" lon="1.724708">
        <ele>2116.3</ele>
        <time>2018-08-11T12:10:00Z</time>
      </trkpt>
      <trkpt lat="42.629534" lon="1.724605">
        <ele>2116.1</ele>
        <time>2018-08-11T12:10:14Z</time>
      </trkpt>
      <trkpt lat="42.629534" lon="1.724489">
        <ele>2115.3</ele>
        <time>2018-08-11T12:10:24Z</time>
      </trkpt>
      <trkpt lat="42.629546" lon="1.724363">
        <ele>2114.7</ele>
        <time>2018-08-11T12:10:34Z</time>
      </trkpt>
      <trkpt lat="42.629617" lon="1.724283">
        <ele>2114.5</ele>
        <time>2018-08-11T12:10:45Z</time>
      </trkpt>
      <trkpt lat="42.629654" lon="1.724172">
        <ele>2114.3</ele>
        <time>2018-08-11T12:10:55Z</time>
      </trkpt>
      <trkpt lat="42.629710" lon="1.724054">
        <ele>2114.1</ele>
        <time>2018-08-11T12:11:06Z</time>
      </trkpt>
      <trkpt lat="42.629711" lon="1.723970">
        <ele>2112.7</ele>
        <time>2018-08-11T12:11:21Z</time>
      </trkpt>
      <trkpt lat="42.629710" lon="1.723856">
        <ele>2110.3</ele>
        <time>2018-08-11T12:11:40Z</time>
      </trkpt>
      <trkpt lat="42.629630" lon="1.723824">
        <ele>2108.2</ele>
        <time>2018-08-11T12:11:55Z</time>
      </trkpt>
      <trkpt lat="42.629616" lon="1.723698">
        <ele>2105.7</ele>
        <time>2018-08-11T12:12:13Z</time>
      </trkpt>
      <trkpt lat="42.629618" lon="1.723599">
        <ele>2104.5</ele>
        <time>2018-08-11T12:12:40Z</time>
      </trkpt>
      <trkpt lat="42.629604" lon="1.723473">
        <ele>2104.6</ele>
        <time>2018-08-11T12:12:55Z</time>
      </trkpt>
      <trkpt lat="42.629645" lon="1.723367">
        <ele>2103.4</ele>
        <time>2018-08-11T12:13:17Z</time>
      </trkpt>
      <trkpt lat="42.629732" lon="1.723284">
        <ele>2102.8</ele>
        <time>2018-08-11T12:13:34Z</time>
      </trkpt>
      <trkpt lat="42.629816" lon="1.723186">
        <ele>2102.6</ele>
        <time>2018-08-11T12:13:48Z</time>
      </trkpt>
      <trkpt lat="42.629869" lon="1.723180">
        <ele>2102.8</ele>
        <time>2018-08-11T12:14:27Z</time>
      </trkpt>
      <trkpt lat="42.629875" lon="1.723053">
        <ele>2103.2</ele>
        <time>2018-08-11T12:14:40Z</time>
      </trkpt>
      <trkpt lat="42.629851" lon="1.722929">
        <ele>2103.4</ele>
        <time>2018-08-11T12:14:53Z</time>
      </trkpt>
      <trkpt lat="42.629871" lon="1.722817">
        <ele>2102.6</ele>
        <time>2018-08-11T12:15:16Z</time>
      </trkpt>
      <trkpt lat="42.629951" lon="1.722733">
        <ele>2099.9</ele>
        <time>2018-08-11T12:15:36Z</time>
      </trkpt>
      <trkpt lat="42.629999" lon="1.722612">
        <ele>2098.9</ele>
        <time>2018-08-11T12:15:49Z</time>
      </trkpt>
      <trkpt lat="42.630058" lon="1.722565">
        <ele>2098.4</ele>
        <time>2018-08-11T12:16:24Z</time>
      </trkpt>
      <trkpt lat="42.630111" lon="1.722580">
        <ele>2098.1</ele>
        <time>2018-08-11T12:17:40Z</time>
      </trkpt>
      <trkpt lat="42.630101" lon="1.722504">
        <ele>2097.9</ele>
        <time>2018-08-11T12:18:01Z</time>
      </trkpt>
      <trkpt lat="42.630123" lon="1.722372">
        <ele>2097.6</ele>
        <time>2018-08-11T12:18:14Z</time>
      </trkpt>
      <trkpt lat="42.630098" lon="1.722248">
        <ele>2096.3</ele>
        <time>2018-08-11T12:18:26Z</time>
      </trkpt>
      <trkpt lat="42.630066" lon="1.722146">
        <ele>2095.0</ele>
        <time>2018-08-11T12:18:42Z</time>
      </trkpt>
      <trkpt lat="42.630057" lon="1.722055">
        <ele>2093.8</ele>
        <time>2018-08-11T12:19:03Z</time>
      </trkpt>
      <trkpt lat="42.630044" lon="1.721947">
        <ele>2093.2</ele>
        <time>2018-08-11T12:19:17Z</time>
      </trkpt>
      <trkpt lat="42.630031" lon="1.721820">
        <ele>2091.6</ele>
        <time>2018-08-11T12:19:31Z</time>
      </trkpt>
      <trkpt lat="42.629986" lon="1.721737">
        <ele>2089.9</ele>
        <time>2018-08-11T12:19:45Z</time>
      </trkpt>
      <trkpt lat="42.630023" lon="1.721640">
        <ele>2087.7</ele>
        <time>2018-08-11T12:20:00Z</time>
      </trkpt>
      <trkpt lat="42.630027" lon="1.721523">
        <ele>2085.6</ele>
        <time>2018-08-11T12:20:18Z</time>
      </trkpt>
      <trkpt lat="42.630015" lon="1.721401">
        <ele>2084.2</ele>
        <time>2018-08-11T12:20:31Z</time>
      </trkpt>
      <trkpt lat="42.630015" lon="1.721283">
        <ele>2083.4</ele>
        <time>2018-08-11T12:20:44Z</time>
      </trkpt>
      <trkpt lat="42.630004" lon="1.721170">
        <ele>2082.5</ele>
        <time>2018-08-11T12:20:59Z</time>
      </trkpt>
      <trkpt lat="42.630048" lon="1.721087">
        <ele>2081.7</ele>
        <time>2018-08-11T12:21:15Z</time>
      </trkpt>
      <trkpt lat="42.630027" lon="1.721008">
        <ele>2081.4</ele>
        <time>2018-08-11T12:22:10Z</time>
      </trkpt>
      <trkpt lat="42.629984" lon="1.720896">
        <ele>2081.1</ele>
        <time>2018-08-11T12:22:29Z</time>
      </trkpt>
      <trkpt lat="42.629960" lon="1.720818">
        <ele>2081.1</ele>
        <time>2018-08-11T12:22:45Z</time>
      </trkpt>
      <trkpt lat="42.629901" lon="1.720722">
        <ele>2080.9</ele>
        <time>2018-08-11T12:23:03Z</time>
      </trkpt>
      <trkpt lat="42.629877" lon="1.720712">
        <ele>2082.0</ele>
        <time>2018-08-11T12:23:22Z</time>
      </trkpt>
      <trkpt lat="42.629852" lon="1.720610">
        <ele>2084.0</ele>
        <time>2018-08-11T12:23:44Z</time>
      </trkpt>
      <trkpt lat="42.629780" lon="1.720553">
        <ele>2088.0</ele>
        <time>2018-08-11T12:24:12Z</time>
      </trkpt>
      <trkpt lat="42.629757" lon="1.720433">
        <ele>2089.3</ele>
        <time>2018-08-11T12:24:30Z</time>
      </trkpt>
      <trkpt lat="42.629716" lon="1.720303">
        <ele>2091.2</ele>
        <time>2018-08-11T12:24:49Z</time>
      </trkpt>
      <trkpt lat="42.629711" lon="1.720200">
        <ele>2092.3</ele>
        <time>2018-08-11T12:25:09Z</time>
      </trkpt>
      <trkpt lat="42.629675" lon="1.720112">
        <ele>2094.6</ele>
        <time>2018-08-11T12:25:27Z</time>
      </trkpt>
      <trkpt lat="42.629736" lon="1.719989">
        <ele>2097.1</ele>
        <time>2018-08-11T12:25:46Z</time>
      </trkpt>
      <trkpt lat="42.629837" lon="1.719899">
        <ele>2098.8</ele>
        <time>2018-08-11T12:26:04Z</time>
      </trkpt>
      <trkpt lat="42.629912" lon="1.719781">
        <ele>2100.7</ele>
        <time>2018-08-11T12:26:23Z</time>
      </trkpt>
      <trkpt lat="42.629953" lon="1.719677">
        <ele>2101.7</ele>
        <time>2018-08-11T12:26:40Z</time>
      </trkpt>
      <trkpt lat="42.629896" lon="1.719659">
        <ele>2103.1</ele>
        <time>2018-08-11T12:26:56Z</time>
      </trkpt>
      <trkpt lat="42.629829" lon="1.719665">
        <ele>2106.2</ele>
        <time>2018-08-11T12:27:20Z</time>
      </trkpt>
      <trkpt lat="42.629804" lon="1.719563">
        <ele>2108.3</ele>
        <time>2018-08-11T12:27:36Z</time>
      </trkpt>
      <trkpt lat="42.629760" lon="1.719442">
        <ele>2110.5</ele>
        <time>2018-08-11T12:27:57Z</time>
      </trkpt>
      <trkpt lat="42.629743" lon="1.719309">
        <ele>2112.9</ele>
        <time>2018-08-11T12:28:18Z</time>
      </trkpt>
      <trkpt lat="42.629793" lon="1.719213">
        <ele>2116.2</ele>
        <time>2018-08-11T12:28:46Z</time>
      </trkpt>
      <trkpt lat="42.629829" lon="1.719096">
        <ele>2118.4</ele>
        <time>2018-08-11T12:29:06Z</time>
      </trkpt>
      <trkpt lat="42.629834" lon="1.718976">
        <ele>2119.4</ele>
        <time>2018-08-11T12:29:22Z</time>
      </trkpt>
      <trkpt lat="42.629842" lon="1.718844">
        <ele>2120.4</ele>
        <time>2018-08-11T12:29:40Z</time>
      </trkpt>
      <trkpt lat="42.629878" lon="1.718716">
        <ele>2121.4</ele>
        <time>2018-08-11T12:29:54Z</time>
      </trkpt>
      <trkpt lat="42.629954" lon="1.718595">
        <ele>2122.4</ele>
        <time>2018-08-11T12:30:12Z</time>
      </trkpt>
      <trkpt lat="42.629989" lon="1.718470">
        <ele>2122.5</ele>
        <time>2018-08-11T12:30:27Z</time>
      </trkpt>
      <trkpt lat="42.630026" lon="1.718337">
        <ele>2123.4</ele>
        <time>2018-08-11T12:30:42Z</time>
      </trkpt>
      <trkpt lat="42.630115" lon="1.718223">
        <ele>2123.2</ele>
        <time>2018-08-11T12:30:54Z</time>
      </trkpt>
      <trkpt lat="42.630143" lon="1.718100">
        <ele>2123.2</ele>
        <time>2018-08-11T12:31:09Z</time>
      </trkpt>
      <trkpt lat="42.630169" lon="1.717985">
        <ele>2124.3</ele>
        <time>2018-08-11T12:31:23Z</time>
      </trkpt>
      <trkpt lat="42.630246" lon="1.717906">
        <ele>2125.8</ele>
        <time>2018-08-11T12:31:40Z</time>
      </trkpt>
      <trkpt lat="42.630294" lon="1.717797">
        <ele>2127.8</ele>
        <time>2018-08-11T12:31:57Z</time>
      </trkpt>
      <trkpt lat="42.630334" lon="1.717682">
        <ele>2128.9</ele>
        <time>2018-08-11T12:32:09Z</time>
      </trkpt>
      <trkpt lat="42.630375" lon="1.717594">
        <ele>2131.2</ele>
        <time>2018-08-11T12:32:24Z</time>
      </trkpt>
      <trkpt lat="42.630429" lon="1.717505">
        <ele>2133.6</ele>
        <time>2018-08-11T12:32:41Z</time>
      </trkpt>
      <trkpt lat="42.630460" lon="1.717403">
        <ele>2132.5</ele>
        <time>2018-08-11T12:33:03Z</time>
      </trkpt>
      <trkpt lat="42.630546" lon="1.717311">
        <ele>2131.8</ele>
        <time>2018-08-11T12:33:18Z</time>
      </trkpt>
      <trkpt lat="42.630563" lon="1.717220">
        <ele>2132.6</ele>
        <time>2018-08-11T12:33:47Z</time>
      </trkpt>
      <trkpt lat="42.630615" lon="1.717124">
        <ele>2132.9</ele>
        <time>2018-08-11T12:34:19Z</time>
      </trkpt>
      <trkpt lat="42.630661" lon="1.717092">
        <ele>2131.9</ele>
        <time>2018-08-11T12:35:36Z</time>
      </trkpt>
      <trkpt lat="42.630713" lon="1.717059">
        <ele>2128.0</ele>
        <time>2018-08-11T12:35:59Z</time>
      </trkpt>
      <trkpt lat="42.630808" lon="1.717047">
        <ele>2124.2</ele>
        <time>2018-08-11T12:36:46Z</time>
      </trkpt>
      <trkpt lat="42.630870" lon="1.716995">
        <ele>2123.1</ele>
        <time>2018-08-11T12:37:27Z</time>
      </trkpt>
      <trkpt lat="42.630920" lon="1.716895">
        <ele>2123.4</ele>
        <time>2018-08-11T12:37:40Z</time>
      </trkpt>
      <trkpt lat="42.630987" lon="1.716821">
        <ele>2124.7</ele>
        <time>2018-08-11T12:37:57Z</time>
      </trkpt>
      <trkpt lat="42.631073" lon="1.716773">
        <ele>2124.9</ele>
        <time>2018-08-11T12:38:10Z</time>
      </trkpt>
      <trkpt lat="42.631117" lon="1.716681">
        <ele>2124.1</ele>
        <time>2018-08-11T12:38:23Z</time>
      </trkpt>
      <trkpt lat="42.631193" lon="1.716606">
        <ele>2125.6</ele>
        <time>2018-08-11T12:38:38Z</time>
      </trkpt>
      <trkpt lat="42.631234" lon="1.716470">
        <ele>2124.3</ele>
        <time>2018-08-11T12:38:54Z</time>
      </trkpt>
      <trkpt lat="42.631265" lon="1.716360">
        <ele>2123.4</ele>
        <time>2018-08-11T12:39:13Z</time>
      </trkpt>
      <trkpt lat="42.631303" lon="1.716241">
        <ele>2123.5</ele>
        <time>2018-08-11T12:39:32Z</time>
      </trkpt>
      <trkpt lat="42.631360" lon="1.716101">
        <ele>2124.7</ele>
        <time>2018-08-11T12:39:45Z</time>
      </trkpt>
      <trkpt lat="42.631391" lon="1.715990">
        <ele>2125.3</ele>
        <time>2018-08-11T12:39:58Z</time>
      </trkpt>
      <trkpt lat="42.631391" lon="1.715862">
        <ele>2124.4</ele>
        <time>2018-08-11T12:40:11Z</time>
      </trkpt>
      <trkpt lat="42.631348" lon="1.715735">
        <ele>2124.1</ele>
        <time>2018-08-11T12:40:22Z</time>
      </trkpt>
      <trkpt lat="42.631296" lon="1.715628">
        <ele>2124.2</ele>
        <time>2018-08-11T12:40:32Z</time>
      </trkpt>
      <trkpt lat="42.631237" lon="1.715516">
        <ele>2123.8</ele>
        <time>2018-08-11T12:40:43Z</time>
      </trkpt>
      <trkpt lat="42.631212" lon="1.715384">
        <ele>2122.5</ele>
        <time>2018-08-11T12:40:57Z</time>
      </trkpt>
      <trkpt lat="42.631152" lon="1.715284">
        <ele>2121.2</ele>
        <time>2018-08-11T12:41:10Z</time>
      </trkpt>
      <trkpt lat="42.631082" lon="1.715201">
        <ele>2120.8</ele>
        <time>2018-08-11T12:41:22Z</time>
      </trkpt>
      <trkpt lat="42.631010" lon="1.715112">
        <ele>2123.2</ele>
        <time>2018-08-11T12:41:41Z</time>
      </trkpt>
      <trkpt lat="42.630974" lon="1.715000">
        <ele>2123.1</ele>
        <time>2018-08-11T12:41:55Z</time>
      </trkpt>
      <trkpt lat="42.630982" lon="1.714872">
        <ele>2121.5</ele>
        <time>2018-08-11T12:42:10Z</time>
      </trkpt>
      <trkpt lat="42.630931" lon="1.714783">
        <ele>2121.2</ele>
        <time>2018-08-11T12:42:33Z</time>
      </trkpt>
      <trkpt lat="42.630908" lon="1.714694">
        <ele>2122.8</ele>
        <time>2018-08-11T12:42:56Z</time>
      </trkpt>
      <trkpt lat="42.630880" lon="1.714576">
        <ele>2123.6</ele>
        <time>2018-08-11T12:43:11Z</time>
      </trkpt>
      <trkpt lat="42.630806" lon="1.714486">
        <ele>2124.8</ele>
        <time>2018-08-11T12:43:23Z</time>
      </trkpt>
      <trkpt lat="42.630719" lon="1.714441">
        <ele>2125.7</ele>
        <time>2018-08-11T12:43:34Z</time>
      </trkpt>
      <trkpt lat="42.630631" lon="1.714374">
        <ele>2127.1</ele>
        <time>2018-08-11T12:43:48Z</time>
      </trkpt>
      <trkpt lat="42.630554" lon="1.714283">
        <ele>2129.5</ele>
        <time>2018-08-11T12:44:07Z</time>
      </trkpt>
      <trkpt lat="42.630466" lon="1.714203">
        <ele>2131.6</ele>
        <time>2018-08-11T12:44:22Z</time>
      </trkpt>
      <trkpt lat="42.630401" lon="1.714106">
        <ele>2133.6</ele>
        <time>2018-08-11T12:44:37Z</time>
      </trkpt>
      <trkpt lat="42.630322" lon="1.714015">
        <ele>2134.9</ele>
        <time>2018-08-11T12:44:49Z</time>
      </trkpt>
      <trkpt lat="42.630259" lon="1.713908">
        <ele>2136.1</ele>
        <time>2018-08-11T12:45:00Z</time>
      </trkpt>
      <trkpt lat="42.630236" lon="1.713780">
        <ele>2136.3</ele>
        <time>2018-08-11T12:45:10Z</time>
      </trkpt>
      <trkpt lat="42.630178" lon="1.713682">
        <ele>2136.6</ele>
        <time>2018-08-11T12:45:20Z</time>
      </trkpt>
      <trkpt lat="42.630151" lon="1.713563">
        <ele>2137.2</ele>
        <time>2018-08-11T12:45:30Z</time>
      </trkpt>
      <trkpt lat="42.630093" lon="1.713464">
        <ele>2137.5</ele>
        <time>2018-08-11T12:45:39Z</time>
      </trkpt>
      <trkpt lat="42.630029" lon="1.713375">
        <ele>2137.7</ele>
        <time>2018-08-11T12:45:50Z</time>
      </trkpt>
      <trkpt lat="42.629961" lon="1.713307">
        <ele>2138.3</ele>
        <time>2018-08-11T12:46:01Z</time>
      </trkpt>
      <trkpt lat="42.629878" lon="1.713229">
        <ele>2138.6</ele>
        <time>2018-08-11T12:46:12Z</time>
      </trkpt>
      <trkpt lat="42.629822" lon="1.713133">
        <ele>2139.2</ele>
        <time>2018-08-11T12:46:22Z</time>
      </trkpt>
      <trkpt lat="42.629749" lon="1.713063">
        <ele>2139.5</ele>
        <time>2018-08-11T12:46:32Z</time>
      </trkpt>
      <trkpt lat="42.629690" lon="1.712966">
        <ele>2139.8</ele>
        <time>2018-08-11T12:46:43Z</time>
      </trkpt>
      <trkpt lat="42.629630" lon="1.712866">
        <ele>2139.9</ele>
        <time>2018-08-11T12:46:54Z</time>
      </trkpt>
      <trkpt lat="42.629550" lon="1.712797">
        <ele>2140.1</ele>
        <time>2018-08-11T12:47:04Z</time>
      </trkpt>
      <trkpt lat="42.629467" lon="1.712741">
        <ele>2140.3</ele>
        <time>2018-08-11T12:47:14Z</time>
      </trkpt>
      <trkpt lat="42.629379" lon="1.712669">
        <ele>2140.8</ele>
        <time>2018-08-11T12:47:26Z</time>
      </trkpt>
      <trkpt lat="42.629316" lon="1.712580">
        <ele>2140.9</ele>
        <time>2018-08-11T12:47:37Z</time>
      </trkpt>
      <trkpt lat="42.629261" lon="1.712518">
        <ele>2140.3</ele>
        <time>2018-08-11T12:47:48Z</time>
      </trkpt>
      <trkpt lat="42.629210" lon="1.712438">
        <ele>2137.9</ele>
        <time>2018-08-11T12:48:07Z</time>
      </trkpt>
      <trkpt lat="42.629174" lon="1.712342">
        <ele>2138.2</ele>
        <time>2018-08-11T12:48:22Z</time>
      </trkpt>
      <trkpt lat="42.629097" lon="1.712258">
        <ele>2138.5</ele>
        <time>2018-08-11T12:48:34Z</time>
      </trkpt>
      <trkpt lat="42.629049" lon="1.712150">
        <ele>2139.2</ele>
        <time>2018-08-11T12:48:46Z</time>
      </trkpt>
      <trkpt lat="42.629052" lon="1.712013">
        <ele>2139.3</ele>
        <time>2018-08-11T12:48:56Z</time>
      </trkpt>
      <trkpt lat="42.629013" lon="1.711923">
        <ele>2139.5</ele>
        <time>2018-08-11T12:49:11Z</time>
      </trkpt>
      <trkpt lat="42.629026" lon="1.711936">
        <ele>2139.5</ele>
        <time>2018-08-11T12:49:58Z</time>
      </trkpt>
      <trkpt lat="42.629021" lon="1.711925">
        <ele>2139.6</ele>
        <time>2018-08-11T12:50:40Z</time>
      </trkpt>
      <trkpt lat="42.628947" lon="1.711884">
        <ele>2139.8</ele>
        <time>2018-08-11T12:51:02Z</time>
      </trkpt>
      <trkpt lat="42.628956" lon="1.711755">
        <ele>2147.7</ele>
        <time>2018-08-11T12:57:26Z</time>
      </trkpt>
      <trkpt lat="42.628998" lon="1.711647">
        <ele>2148.0</ele>
        <time>2018-08-11T13:02:19Z</time>
      </trkpt>
      <trkpt lat="42.629131" lon="1.711450">
        <ele>2147.7</ele>
        <time>2018-08-11T13:12:57Z</time>
      </trkpt>
      <trkpt lat="42.629276" lon="1.711297">
        <ele>2148.6</ele>
        <time>2018-08-11T13:22:56Z</time>
      </trkpt>
      <trkpt lat="42.629372" lon="1.711122">
        <ele>2149.5</ele>
        <time>2018-08-11T13:31:38Z</time>
      </trkpt>
      <trkpt lat="42.629524" lon="1.710965">
        <ele>2151.2</ele>
        <time>2018-08-11T13:42:01Z</time>
      </trkpt>
      <trkpt lat="42.629705" lon="1.710781">
        <ele>2153.6</ele>
        <time>2018-08-11T13:54:21Z</time>
      </trkpt>
      <trkpt lat="42.629827" lon="1.710664">
        <ele>2155.5</ele>
        <time>2018-08-11T14:02:30Z</time>
      </trkpt>
      <trkpt lat="42.629996" lon="1.710534">
        <ele>2158.4</ele>
        <time>2018-08-11T14:13:06Z</time>
      </trkpt>
      <trkpt lat="42.630072" lon="1.710498">
        <ele>2159.6</ele>
        <time>2018-08-11T14:17:30Z</time>
      </trkpt>
      <trkpt lat="42.630186" lon="1.710475">
        <ele>2136.0</ele>
        <time>2018-08-11T14:30:37Z</time>
      </trkpt>
      <trkpt lat="42.630089" lon="1.710777">
        <ele>2137.9</ele>
        <time>2018-08-11T14:31:17Z</time>
      </trkpt>
      <trkpt lat="42.630033" lon="1.710883">
        <ele>2138.0</ele>
        <time>2018-08-11T14:31:29Z</time>
      </trkpt>
      <trkpt lat="42.629966" lon="1.711001">
        <ele>2138.9</ele>
        <time>2018-08-11T14:31:43Z</time>
      </trkpt>
      <trkpt lat="42.629899" lon="1.711082">
        <ele>2139.3</ele>
        <time>2018-08-11T14:31:56Z</time>
      </trkpt>
      <trkpt lat="42.629833" lon="1.711178">
        <ele>2139.2</ele>
        <time>2018-08-11T14:32:08Z</time>
      </trkpt>
      <trkpt lat="42.629758" lon="1.711237">
        <ele>2139.0</ele>
        <time>2018-08-11T14:32:19Z</time>
      </trkpt>
      <trkpt lat="42.629677" lon="1.711300">
        <ele>2139.1</ele>
        <time>2018-08-11T14:32:30Z</time>
      </trkpt>
      <trkpt lat="42.629580" lon="1.711359">
        <ele>2138.8</ele>
        <time>2018-08-11T14:32:42Z</time>
      </trkpt>
      <trkpt lat="42.629497" lon="1.711435">
        <ele>2138.7</ele>
        <time>2018-08-11T14:32:54Z</time>
      </trkpt>
      <trkpt lat="42.629448" lon="1.711528">
        <ele>2139.9</ele>
        <time>2018-08-11T14:33:08Z</time>
      </trkpt>
      <trkpt lat="42.629484" lon="1.711625">
        <ele>2140.6</ele>
        <time>2018-08-11T14:33:19Z</time>
      </trkpt>
      <trkpt lat="42.629548" lon="1.711711">
        <ele>2141.4</ele>
        <time>2018-08-11T14:33:31Z</time>
      </trkpt>
      <trkpt lat="42.629633" lon="1.711784">
        <ele>2141.8</ele>
        <time>2018-08-11T14:33:42Z</time>
      </trkpt>
      <trkpt lat="42.629698" lon="1.711870">
        <ele>2142.3</ele>
        <time>2018-08-11T14:33:52Z</time>
      </trkpt>
      <trkpt lat="42.629767" lon="1.711940">
        <ele>2142.6</ele>
        <time>2018-08-11T14:34:02Z</time>
      </trkpt>
      <trkpt lat="42.629851" lon="1.712010">
        <ele>2142.6</ele>
        <time>2018-08-11T14:34:13Z</time>
      </trkpt>
      <trkpt lat="42.629913" lon="1.712106">
        <ele>2142.8</ele>
        <time>2018-08-11T14:34:25Z</time>
      </trkpt>
      <trkpt lat="42.629963" lon="1.712202">
        <ele>2143.4</ele>
        <time>2018-08-11T14:34:39Z</time>
      </trkpt>
      <trkpt lat="42.630043" lon="1.712250">
        <ele>2143.4</ele>
        <time>2018-08-11T14:34:50Z</time>
      </trkpt>
      <trkpt lat="42.630133" lon="1.712293">
        <ele>2143.5</ele>
        <time>2018-08-11T14:35:01Z</time>
      </trkpt>
      <trkpt lat="42.630219" lon="1.712349">
        <ele>2143.4</ele>
        <time>2018-08-11T14:35:13Z</time>
      </trkpt>
      <trkpt lat="42.630295" lon="1.712413">
        <ele>2142.8</ele>
        <time>2018-08-11T14:35:25Z</time>
      </trkpt>
      <trkpt lat="42.630382" lon="1.712478">
        <ele>2141.9</ele>
        <time>2018-08-11T14:35:36Z</time>
      </trkpt>
      <trkpt lat="42.630460" lon="1.712557">
        <ele>2141.8</ele>
        <time>2018-08-11T14:35:47Z</time>
      </trkpt>
      <trkpt lat="42.630526" lon="1.712654">
        <ele>2141.6</ele>
        <time>2018-08-11T14:35:58Z</time>
      </trkpt>
      <trkpt lat="42.630553" lon="1.712774">
        <ele>2140.8</ele>
        <time>2018-08-11T14:36:10Z</time>
      </trkpt>
      <trkpt lat="42.630581" lon="1.712910">
        <ele>2139.7</ele>
        <time>2018-08-11T14:36:20Z</time>
      </trkpt>
      <trkpt lat="42.630612" lon="1.713034">
        <ele>2139.3</ele>
        <time>2018-08-11T14:36:30Z</time>
      </trkpt>
      <trkpt lat="42.630650" lon="1.713155">
        <ele>2139.1</ele>
        <time>2018-08-11T14:36:40Z</time>
      </trkpt>
      <trkpt lat="42.630694" lon="1.713260">
        <ele>2139.1</ele>
        <time>2018-08-11T14:36:50Z</time>
      </trkpt>
      <trkpt lat="42.630720" lon="1.713386">
        <ele>2139.8</ele>
        <time>2018-08-11T14:37:02Z</time>
      </trkpt>
      <trkpt lat="42.630793" lon="1.713445">
        <ele>2139.5</ele>
        <time>2018-08-11T14:37:12Z</time>
      </trkpt>
      <trkpt lat="42.630871" lon="1.713502">
        <ele>2139.3</ele>
        <time>2018-08-11T14:37:21Z</time>
      </trkpt>
      <trkpt lat="42.630959" lon="1.713557">
        <ele>2139.0</ele>
        <time>2018-08-11T14:37:32Z</time>
      </trkpt>
      <trkpt lat="42.631035" lon="1.713622">
        <ele>2138.8</ele>
        <time>2018-08-11T14:37:41Z</time>
      </trkpt>
      <trkpt lat="42.631119" lon="1.713681">
        <ele>2138.2</ele>
        <time>2018-08-11T14:37:52Z</time>
      </trkpt>
      <trkpt lat="42.631197" lon="1.713768">
        <ele>2137.5</ele>
        <time>2018-08-11T14:38:05Z</time>
      </trkpt>
      <trkpt lat="42.631265" lon="1.713850">
        <ele>2137.0</ele>
        <time>2018-08-11T14:38:22Z</time>
      </trkpt>
      <trkpt lat="42.631351" lon="1.713915">
        <ele>2136.4</ele>
        <time>2018-08-11T14:38:32Z</time>
      </trkpt>
      <trkpt lat="42.631433" lon="1.713990">
        <ele>2135.9</ele>
        <time>2018-08-11T14:38:41Z</time>
      </trkpt>
      <trkpt lat="42.631497" lon="1.714075">
        <ele>2135.7</ele>
        <time>2018-08-11T14:38:52Z</time>
      </trkpt>
      <trkpt lat="42.631566" lon="1.714156">
        <ele>2134.8</ele>
        <time>2018-08-11T14:39:04Z</time>
      </trkpt>
      <trkpt lat="42.631633" lon="1.714250">
        <ele>2133.5</ele>
        <time>2018-08-11T14:39:17Z</time>
      </trkpt>
      <trkpt lat="42.631703" lon="1.714335">
        <ele>2132.4</ele>
        <time>2018-08-11T14:39:28Z</time>
      </trkpt>
      <trkpt lat="42.631726" lon="1.714361">
        <ele>2131.9</ele>
        <time>2018-08-11T14:43:16Z</time>
      </trkpt>
      <trkpt lat="42.631762" lon="1.714387">
        <ele>2132.0</ele>
        <time>2018-08-11T14:44:40Z</time>
      </trkpt>
      <trkpt lat="42.631833" lon="1.714472">
        <ele>2131.2</ele>
        <time>2018-08-11T14:44:55Z</time>
      </trkpt>
      <trkpt lat="42.631911" lon="1.714553">
        <ele>2129.8</ele>
        <time>2018-08-11T14:45:14Z</time>
      </trkpt>
      <trkpt lat="42.631976" lon="1.714629">
        <ele>2128.1</ele>
        <time>2018-08-11T14:45:31Z</time>
      </trkpt>
      <trkpt lat="42.632052" lon="1.714703">
        <ele>2127.4</ele>
        <time>2018-08-11T14:45:47Z</time>
      </trkpt>
      <trkpt lat="42.632127" lon="1.714776">
        <ele>2126.5</ele>
        <time>2018-08-11T14:45:59Z</time>
      </trkpt>
      <trkpt lat="42.632213" lon="1.714828">
        <ele>2126.0</ele>
        <time>2018-08-11T14:46:43Z</time>
      </trkpt>
      <trkpt lat="42.632307" lon="1.714875">
        <ele>2125.4</ele>
        <time>2018-08-11T14:46:55Z</time>
      </trkpt>
      <trkpt lat="42.632401" lon="1.714927">
        <ele>2124.5</ele>
        <time>2018-08-11T14:47:09Z</time>
      </trkpt>
      <trkpt lat="42.632497" lon="1.714953">
        <ele>2123.5</ele>
        <time>2018-08-11T14:47:23Z</time>
      </trkpt>
      <trkpt lat="42.632502" lon="1.715000">
        <ele>2123.4</ele>
        <time>2018-08-11T14:48:31Z</time>
      </trkpt>
      <trkpt lat="42.632586" lon="1.714998">
        <ele>2123.0</ele>
        <time>2018-08-11T14:48:48Z</time>
      </trkpt>
      <trkpt lat="42.632676" lon="1.714974">
        <ele>2121.2</ele>
        <time>2018-08-11T14:49:01Z</time>
      </trkpt>
      <trkpt lat="42.632769" lon="1.714968">
        <ele>2120.0</ele>
        <time>2018-08-11T14:49:15Z</time>
      </trkpt>
      <trkpt lat="42.632821" lon="1.715029">
        <ele>2117.0</ele>
        <time>2018-08-11T14:49:33Z</time>
      </trkpt>
      <trkpt lat="42.632907" lon="1.714998">
        <ele>2115.9</ele>
        <time>2018-08-11T14:49:58Z</time>
      </trkpt>
      <trkpt lat="42.632991" lon="1.714963">
        <ele>2113.6</ele>
        <time>2018-08-11T14:50:12Z</time>
      </trkpt>
      <trkpt lat="42.633087" lon="1.714931">
        <ele>2112.8</ele>
        <time>2018-08-11T14:50:32Z</time>
      </trkpt>
      <trkpt lat="42.633170" lon="1.714881">
        <ele>2109.6</ele>
        <time>2018-08-11T14:51:02Z</time>
      </trkpt>
      <trkpt lat="42.633235" lon="1.714840">
        <ele>2107.4</ele>
        <time>2018-08-11T14:51:27Z</time>
      </trkpt>
      <trkpt lat="42.633290" lon="1.714846">
        <ele>2104.6</ele>
        <time>2018-08-11T14:51:51Z</time>
      </trkpt>
      <trkpt lat="42.633292" lon="1.714966">
        <ele>2102.2</ele>
        <time>2018-08-11T14:52:10Z</time>
      </trkpt>
      <trkpt lat="42.633367" lon="1.714927">
        <ele>2098.8</ele>
        <time>2018-08-11T14:52:27Z</time>
      </trkpt>
      <trkpt lat="42.633453" lon="1.714855">
        <ele>2095.6</ele>
        <time>2018-08-11T14:53:14Z</time>
      </trkpt>
      <trkpt lat="42.633532" lon="1.714800">
        <ele>2092.8</ele>
        <time>2018-08-11T14:53:54Z</time>
      </trkpt>
      <trkpt lat="42.633631" lon="1.714746">
        <ele>2091.9</ele>
        <time>2018-08-11T14:54:20Z</time>
      </trkpt>
      <trkpt lat="42.633727" lon="1.714731">
        <ele>2090.4</ele>
        <time>2018-08-11T14:54:31Z</time>
      </trkpt>
      <trkpt lat="42.633826" lon="1.714740">
        <ele>2089.3</ele>
        <time>2018-08-11T14:54:42Z</time>
      </trkpt>
      <trkpt lat="42.633901" lon="1.714802">
        <ele>2088.8</ele>
        <time>2018-08-11T14:54:52Z</time>
      </trkpt>
      <trkpt lat="42.633972" lon="1.714883">
        <ele>2088.5</ele>
        <time>2018-08-11T14:55:04Z</time>
      </trkpt>
      <trkpt lat="42.634051" lon="1.714921">
        <ele>2087.7</ele>
        <time>2018-08-11T14:55:22Z</time>
      </trkpt>
      <trkpt lat="42.634138" lon="1.714876">
        <ele>2087.0</ele>
        <time>2018-08-11T14:55:34Z</time>
      </trkpt>
      <trkpt lat="42.634227" lon="1.714817">
        <ele>2085.3</ele>
        <time>2018-08-11T14:55:47Z</time>
      </trkpt>
      <trkpt lat="42.634322" lon="1.714774">
        <ele>2083.1</ele>
        <time>2018-08-11T14:55:59Z</time>
      </trkpt>
      <trkpt lat="42.634384" lon="1.714721">
        <ele>2082.7</ele>
        <time>2018-08-11T14:56:25Z</time>
      </trkpt>
      <trkpt lat="42.634469" lon="1.714651">
        <ele>2082.2</ele>
        <time>2018-08-11T14:56:35Z</time>
      </trkpt>
      <trkpt lat="42.634560" lon="1.714621">
        <ele>2080.9</ele>
        <time>2018-08-11T14:56:44Z</time>
      </trkpt>
      <trkpt lat="42.634657" lon="1.714579">
        <ele>2080.2</ele>
        <time>2018-08-11T14:56:54Z</time>
      </trkpt>
      <trkpt lat="42.634750" lon="1.714575">
        <ele>2078.7</ele>
        <time>2018-08-11T14:57:06Z</time>
      </trkpt>
      <trkpt lat="42.634833" lon="1.714574">
        <ele>2078.2</ele>
        <time>2018-08-11T14:57:22Z</time>
      </trkpt>
      <trkpt lat="42.634906" lon="1.714535">
        <ele>2076.5</ele>
        <time>2018-08-11T14:57:34Z</time>
      </trkpt>
      <trkpt lat="42.634977" lon="1.714456">
        <ele>2073.2</ele>
        <time>2018-08-11T14:57:50Z</time>
      </trkpt>
      <trkpt lat="42.635029" lon="1.714434">
        <ele>2069.4</ele>
        <time>2018-08-11T14:58:08Z</time>
      </trkpt>
      <trkpt lat="42.635105" lon="1.714421">
        <ele>2066.8</ele>
        <time>2018-08-11T14:58:26Z</time>
      </trkpt>
      <trkpt lat="42.635174" lon="1.714378">
        <ele>2062.4</ele>
        <time>2018-08-11T14:59:17Z</time>
      </trkpt>
      <trkpt lat="42.635237" lon="1.714316">
        <ele>2060.4</ele>
        <time>2018-08-11T14:59:33Z</time>
      </trkpt>
      <trkpt lat="42.635310" lon="1.714249">
        <ele>2055.9</ele>
        <time>2018-08-11T15:00:02Z</time>
      </trkpt>
      <trkpt lat="42.635383" lon="1.714256">
        <ele>2054.3</ele>
        <time>2018-08-11T15:00:16Z</time>
      </trkpt>
      <trkpt lat="42.635448" lon="1.714224">
        <ele>2052.1</ele>
        <time>2018-08-11T15:00:43Z</time>
      </trkpt>
      <trkpt lat="42.635517" lon="1.714132">
        <ele>2050.1</ele>
        <time>2018-08-11T15:00:57Z</time>
      </trkpt>
      <trkpt lat="42.635561" lon="1.714041">
        <ele>2048.3</ele>
        <time>2018-08-11T15:01:09Z</time>
      </trkpt>
      <trkpt lat="42.635625" lon="1.713948">
        <ele>2047.0</ele>
        <time>2018-08-11T15:01:23Z</time>
      </trkpt>
      <trkpt lat="42.635697" lon="1.713879">
        <ele>2045.0</ele>
        <time>2018-08-11T15:01:43Z</time>
      </trkpt>
      <trkpt lat="42.635728" lon="1.713791">
        <ele>2043.4</ele>
        <time>2018-08-11T15:02:20Z</time>
      </trkpt>
      <trkpt lat="42.635782" lon="1.713703">
        <ele>2040.2</ele>
        <time>2018-08-11T15:02:40Z</time>
      </trkpt>
      <trkpt lat="42.635824" lon="1.713606">
        <ele>2037.1</ele>
        <time>2018-08-11T15:02:55Z</time>
      </trkpt>
      <trkpt lat="42.635905" lon="1.713543">
        <ele>2034.4</ele>
        <time>2018-08-11T15:03:10Z</time>
      </trkpt>
      <trkpt lat="42.635963" lon="1.713452">
        <ele>2031.3</ele>
        <time>2018-08-11T15:03:25Z</time>
      </trkpt>
      <trkpt lat="42.636022" lon="1.713362">
        <ele>2028.3</ele>
        <time>2018-08-11T15:03:40Z</time>
      </trkpt>
      <trkpt lat="42.636082" lon="1.713270">
        <ele>2025.0</ele>
        <time>2018-08-11T15:04:05Z</time>
      </trkpt>
      <trkpt lat="42.636084" lon="1.713156">
        <ele>2023.1</ele>
        <time>2018-08-11T15:04:18Z</time>
      </trkpt>
      <trkpt lat="42.636125" lon="1.713063">
        <ele>2019.6</ele>
        <time>2018-08-11T15:04:34Z</time>
      </trkpt>
      <trkpt lat="42.636153" lon="1.712954">
        <ele>2017.0</ele>
        <time>2018-08-11T15:04:50Z</time>
      </trkpt>
      <trkpt lat="42.636184" lon="1.712851">
        <ele>2012.9</ele>
        <time>2018-08-11T15:05:23Z</time>
      </trkpt>
      <trkpt lat="42.636240" lon="1.712767">
        <ele>2011.7</ele>
        <time>2018-08-11T15:05:38Z</time>
      </trkpt>
      <trkpt lat="42.636284" lon="1.712670">
        <ele>2009.1</ele>
        <time>2018-08-11T15:05:52Z</time>
      </trkpt>
      <trkpt lat="42.636340" lon="1.712588">
        <ele>2005.2</ele>
        <time>2018-08-11T15:06:12Z</time>
      </trkpt>
      <trkpt lat="42.636386" lon="1.712504">
        <ele>2001.0</ele>
        <time>2018-08-11T15:06:39Z</time>
      </trkpt>
      <trkpt lat="42.636423" lon="1.712415">
        <ele>1998.0</ele>
        <time>2018-08-11T15:06:56Z</time>
      </trkpt>
      <trkpt lat="42.636487" lon="1.712350">
        <ele>1995.4</ele>
        <time>2018-08-11T15:07:10Z</time>
      </trkpt>
      <trkpt lat="42.636579" lon="1.712323">
        <ele>1992.8</ele>
        <time>2018-08-11T15:07:25Z</time>
      </trkpt>
      <trkpt lat="42.636633" lon="1.712261">
        <ele>1990.2</ele>
        <time>2018-08-11T15:07:43Z</time>
      </trkpt>
      <trkpt lat="42.636693" lon="1.712202">
        <ele>1987.5</ele>
        <time>2018-08-11T15:08:04Z</time>
      </trkpt>
      <trkpt lat="42.636766" lon="1.712153">
        <ele>1985.2</ele>
        <time>2018-08-11T15:08:18Z</time>
      </trkpt>
      <trkpt lat="42.636857" lon="1.712133">
        <ele>1982.6</ele>
        <time>2018-08-11T15:08:41Z</time>
      </trkpt>
      <trkpt lat="42.636938" lon="1.712137">
        <ele>1980.5</ele>
        <time>2018-08-11T15:08:56Z</time>
      </trkpt>
      <trkpt lat="42.637005" lon="1.712054">
        <ele>1978.4</ele>
        <time>2018-08-11T15:09:12Z</time>
      </trkpt>
      <trkpt lat="42.637078" lon="1.711989">
        <ele>1975.3</ele>
        <time>2018-08-11T15:09:28Z</time>
      </trkpt>
      <trkpt lat="42.637158" lon="1.711934">
        <ele>1973.3</ele>
        <time>2018-08-11T15:09:44Z</time>
      </trkpt>
      <trkpt lat="42.637232" lon="1.711862">
        <ele>1971.5</ele>
        <time>2018-08-11T15:09:58Z</time>
      </trkpt>
      <trkpt lat="42.637314" lon="1.711799">
        <ele>1969.1</ele>
        <time>2018-08-11T15:10:15Z</time>
      </trkpt>
      <trkpt lat="42.637390" lon="1.711760">
        <ele>1966.6</ele>
        <time>2018-08-11T15:10:31Z</time>
      </trkpt>
      <trkpt lat="42.637442" lon="1.711676">
        <ele>1963.9</ele>
        <time>2018-08-11T15:10:49Z</time>
      </trkpt>
      <trkpt lat="42.637466" lon="1.711609">
        <ele>1959.9</ele>
        <time>2018-08-11T15:12:48Z</time>
      </trkpt>
      <trkpt lat="42.637465" lon="1.711529">
        <ele>1959.1</ele>
        <time>2018-08-11T15:13:40Z</time>
      </trkpt>
      <trkpt lat="42.637513" lon="1.711434">
        <ele>1956.4</ele>
        <time>2018-08-11T15:14:06Z</time>
      </trkpt>
      <trkpt lat="42.637557" lon="1.711353">
        <ele>1953.0</ele>
        <time>2018-08-11T15:14:26Z</time>
      </trkpt>
      <trkpt lat="42.637602" lon="1.711354">
        <ele>1952.0</ele>
        <time>2018-08-11T15:15:33Z</time>
      </trkpt>
      <trkpt lat="42.637669" lon="1.711264">
        <ele>1949.2</ele>
        <time>2018-08-11T15:15:50Z</time>
      </trkpt>
      <trkpt lat="42.637727" lon="1.711205">
        <ele>1947.3</ele>
        <time>2018-08-11T15:16:03Z</time>
      </trkpt>
      <trkpt lat="42.637786" lon="1.711170">
        <ele>1945.2</ele>
        <time>2018-08-11T15:16:18Z</time>
      </trkpt>
      <trkpt lat="42.637835" lon="1.711078">
        <ele>1944.0</ele>
        <time>2018-08-11T15:16:31Z</time>
      </trkpt>
      <trkpt lat="42.637867" lon="1.710955">
        <ele>1942.5</ele>
        <time>2018-08-11T15:16:46Z</time>
      </trkpt>
      <trkpt lat="42.637885" lon="1.710841">
        <ele>1939.0</ele>
        <time>2018-08-11T15:17:03Z</time>
      </trkpt>
      <trkpt lat="42.637952" lon="1.710777">
        <ele>1936.2</ele>
        <time>2018-08-11T15:17:18Z</time>
      </trkpt>
      <trkpt lat="42.637989" lon="1.710655">
        <ele>1933.4</ele>
        <time>2018-08-11T15:17:32Z</time>
      </trkpt>
      <trkpt lat="42.638033" lon="1.710545">
        <ele>1930.2</ele>
        <time>2018-08-11T15:17:51Z</time>
      </trkpt>
      <trkpt lat="42.638038" lon="1.710443">
        <ele>1928.6</ele>
        <time>2018-08-11T15:18:04Z</time>
      </trkpt>
      <trkpt lat="42.638070" lon="1.710332">
        <ele>1925.8</ele>
        <time>2018-08-11T15:18:19Z</time>
      </trkpt>
      <trkpt lat="42.638168" lon="1.710310">
        <ele>1921.6</ele>
        <time>2018-08-11T15:19:05Z</time>
      </trkpt>
      <trkpt lat="42.638220" lon="1.710411">
        <ele>1918.9</ele>
        <time>2018-08-11T15:19:24Z</time>
      </trkpt>
      <trkpt lat="42.638268" lon="1.710526">
        <ele>1916.0</ele>
        <time>2018-08-11T15:19:42Z</time>
      </trkpt>
      <trkpt lat="42.638329" lon="1.710631">
        <ele>1913.4</ele>
        <time>2018-08-11T15:19:59Z</time>
      </trkpt>
      <trkpt lat="42.638391" lon="1.710697">
        <ele>1910.7</ele>
        <time>2018-08-11T15:20:16Z</time>
      </trkpt>
      <trkpt lat="42.638444" lon="1.710807">
        <ele>1908.5</ele>
        <time>2018-08-11T15:20:31Z</time>
      </trkpt>
      <trkpt lat="42.638528" lon="1.710779">
        <ele>1906.4</ele>
        <time>2018-08-11T15:21:02Z</time>
      </trkpt>
      <trkpt lat="42.638626" lon="1.710735">
        <ele>1906.8</ele>
        <time>2018-08-11T15:21:15Z</time>
      </trkpt>
      <trkpt lat="42.638712" lon="1.710773">
        <ele>1905.6</ele>
        <time>2018-08-11T15:21:31Z</time>
      </trkpt>
      <trkpt lat="42.638773" lon="1.710852">
        <ele>1903.7</ele>
        <time>2018-08-11T15:21:44Z</time>
      </trkpt>
      <trkpt lat="42.638872" lon="1.710860">
        <ele>1902.1</ele>
        <time>2018-08-11T15:22:03Z</time>
      </trkpt>
      <trkpt lat="42.638921" lon="1.710916">
        <ele>1900.5</ele>
        <time>2018-08-11T15:22:26Z</time>
      </trkpt>
      <trkpt lat="42.638997" lon="1.710973">
        <ele>1900.1</ele>
        <time>2018-08-11T15:22:53Z</time>
      </trkpt>
      <trkpt lat="42.639075" lon="1.711022">
        <ele>1899.6</ele>
        <time>2018-08-11T15:23:08Z</time>
      </trkpt>
      <trkpt lat="42.639149" lon="1.711051">
        <ele>1898.8</ele>
        <time>2018-08-11T15:23:23Z</time>
      </trkpt>
      <trkpt lat="42.639201" lon="1.711150">
        <ele>1898.4</ele>
        <time>2018-08-11T15:23:50Z</time>
      </trkpt>
      <trkpt lat="42.639224" lon="1.711283">
        <ele>1898.4</ele>
        <time>2018-08-11T15:24:03Z</time>
      </trkpt>
      <trkpt lat="42.639304" lon="1.711325">
        <ele>1897.5</ele>
        <time>2018-08-11T15:24:15Z</time>
      </trkpt>
      <trkpt lat="42.639392" lon="1.711354">
        <ele>1896.2</ele>
        <time>2018-08-11T15:24:27Z</time>
      </trkpt>
      <trkpt lat="42.639485" lon="1.711394">
        <ele>1895.7</ele>
        <time>2018-08-11T15:24:40Z</time>
      </trkpt>
      <trkpt lat="42.639576" lon="1.711463">
        <ele>1895.5</ele>
        <time>2018-08-11T15:24:53Z</time>
      </trkpt>
      <trkpt lat="42.639648" lon="1.711529">
        <ele>1895.8</ele>
        <time>2018-08-11T15:25:04Z</time>
      </trkpt>
      <trkpt lat="42.639682" lon="1.711679">
        <ele>1897.3</ele>
        <time>2018-08-11T15:25:17Z</time>
      </trkpt>
      <trkpt lat="42.639733" lon="1.711794">
        <ele>1897.9</ele>
        <time>2018-08-11T15:25:29Z</time>
      </trkpt>
      <trkpt lat="42.639828" lon="1.711779">
        <ele>1897.5</ele>
        <time>2018-08-11T15:25:43Z</time>
      </trkpt>
      <trkpt lat="42.639870" lon="1.711650">
        <ele>1897.3</ele>
        <time>2018-08-11T15:25:55Z</time>
      </trkpt>
      <trkpt lat="42.639873" lon="1.711519">
        <ele>1897.1</ele>
        <time>2018-08-11T15:26:06Z</time>
      </trkpt>
      <trkpt lat="42.639896" lon="1.711468">
        <ele>1895.7</ele>
        <time>2018-08-11T15:27:15Z</time>
      </trkpt>
      <trkpt lat="42.639894" lon="1.711488">
        <ele>1896.2</ele>
        <time>2018-08-11T15:29:15Z</time>
      </trkpt>
      <trkpt lat="42.639868" lon="1.711436">
        <ele>1896.1</ele>
        <time>2018-08-11T15:30:19Z</time>
      </trkpt>
      <trkpt lat="42.639855" lon="1.711299">
        <ele>1896.3</ele>
        <time>2018-08-11T15:30:33Z</time>
      </trkpt>
      <trkpt lat="42.639853" lon="1.711174">
        <ele>1896.1</ele>
        <time>2018-08-11T15:30:46Z</time>
      </trkpt>
      <trkpt lat="42.639839" lon="1.711067">
        <ele>1894.1</ele>
        <time>2018-08-11T15:31:02Z</time>
      </trkpt>
      <trkpt lat="42.639835" lon="1.710935">
        <ele>1892.9</ele>
        <time>2018-08-11T15:31:18Z</time>
      </trkpt>
      <trkpt lat="42.639812" lon="1.710808">
        <ele>1891.2</ele>
        <time>2018-08-11T15:31:31Z</time>
      </trkpt>
      <trkpt lat="42.639840" lon="1.710669">
        <ele>1889.8</ele>
        <time>2018-08-11T15:31:46Z</time>
      </trkpt>
      <trkpt lat="42.639872" lon="1.710556">
        <ele>1889.4</ele>
        <time>2018-08-11T15:31:57Z</time>
      </trkpt>
      <trkpt lat="42.639880" lon="1.710429">
        <ele>1889.1</ele>
        <time>2018-08-11T15:32:10Z</time>
      </trkpt>
      <trkpt lat="42.639887" lon="1.710304">
        <ele>1887.5</ele>
        <time>2018-08-11T15:32:25Z</time>
      </trkpt>
      <trkpt lat="42.639885" lon="1.710175">
        <ele>1885.4</ele>
        <time>2018-08-11T15:32:38Z</time>
      </trkpt>
      <trkpt lat="42.639911" lon="1.710049">
        <ele>1883.8</ele>
        <time>2018-08-11T15:32:49Z</time>
      </trkpt>
      <trkpt lat="42.639929" lon="1.709927">
        <ele>1882.4</ele>
        <time>2018-08-11T15:33:03Z</time>
      </trkpt>
      <trkpt lat="42.639911" lon="1.709805">
        <ele>1880.8</ele>
        <time>2018-08-11T15:33:15Z</time>
      </trkpt>
      <trkpt lat="42.639913" lon="1.709679">
        <ele>1879.3</ele>
        <time>2018-08-11T15:33:27Z</time>
      </trkpt>
      <trkpt lat="42.639912" lon="1.709561">
        <ele>1877.6</ele>
        <time>2018-08-11T15:33:39Z</time>
      </trkpt>
      <trkpt lat="42.639887" lon="1.709440">
        <ele>1876.5</ele>
        <time>2018-08-11T15:33:51Z</time>
      </trkpt>
      <trkpt lat="42.639866" lon="1.709305">
        <ele>1874.9</ele>
        <time>2018-08-11T15:34:05Z</time>
      </trkpt>
      <trkpt lat="42.639869" lon="1.709172">
        <ele>1872.8</ele>
        <time>2018-08-11T15:34:19Z</time>
      </trkpt>
      <trkpt lat="42.639867" lon="1.709049">
        <ele>1870.5</ele>
        <time>2018-08-11T15:34:35Z</time>
      </trkpt>
      <trkpt lat="42.639894" lon="1.708919">
        <ele>1868.0</ele>
        <time>2018-08-11T15:34:49Z</time>
      </trkpt>
      <trkpt lat="42.639908" lon="1.708786">
        <ele>1866.6</ele>
        <time>2018-08-11T15:35:02Z</time>
      </trkpt>
      <trkpt lat="42.639959" lon="1.708673">
        <ele>1865.1</ele>
        <time>2018-08-11T15:35:14Z</time>
      </trkpt>
      <trkpt lat="42.639994" lon="1.708573">
        <ele>1864.3</ele>
        <time>2018-08-11T15:35:29Z</time>
      </trkpt>
      <trkpt lat="42.640005" lon="1.708450">
        <ele>1863.1</ele>
        <time>2018-08-11T15:35:42Z</time>
      </trkpt>
      <trkpt lat="42.640022" lon="1.708336">
        <ele>1861.6</ele>
        <time>2018-08-11T15:35:57Z</time>
      </trkpt>
      <trkpt lat="42.640060" lon="1.708218">
        <ele>1860.5</ele>
        <time>2018-08-11T15:36:13Z</time>
      </trkpt>
      <trkpt lat="42.640121" lon="1.708091">
        <ele>1858.8</ele>
        <time>2018-08-11T15:36:28Z</time>
      </trkpt>
      <trkpt lat="42.640189" lon="1.708025">
        <ele>1856.9</ele>
        <time>2018-08-11T15:36:41Z</time>
      </trkpt>
      <trkpt lat="42.640258" lon="1.707962">
        <ele>1855.6</ele>
        <time>2018-08-11T15:36:52Z</time>
      </trkpt>
      <trkpt lat="42.640303" lon="1.707861">
        <ele>1854.4</ele>
        <time>2018-08-11T15:37:06Z</time>
      </trkpt>
      <trkpt lat="42.640353" lon="1.707767">
        <ele>1853.3</ele>
        <time>2018-08-11T15:37:19Z</time>
      </trkpt>
      <trkpt lat="42.640425" lon="1.707701">
        <ele>1852.7</ele>
        <time>2018-08-11T15:37:33Z</time>
      </trkpt>
      <trkpt lat="42.640506" lon="1.707622">
        <ele>1852.4</ele>
        <time>2018-08-11T15:37:45Z</time>
      </trkpt>
      <trkpt lat="42.640562" lon="1.707519">
        <ele>1852.0</ele>
        <time>2018-08-11T15:37:56Z</time>
      </trkpt>
      <trkpt lat="42.640610" lon="1.707410">
        <ele>1851.7</ele>
        <time>2018-08-11T15:38:06Z</time>
      </trkpt>
      <trkpt lat="42.640672" lon="1.707305">
        <ele>1851.8</ele>
        <time>2018-08-11T15:38:18Z</time>
      </trkpt>
      <trkpt lat="42.640735" lon="1.707213">
        <ele>1850.9</ele>
        <time>2018-08-11T15:38:30Z</time>
      </trkpt>
      <trkpt lat="42.640789" lon="1.707161">
        <ele>1849.1</ele>
        <time>2018-08-11T15:38:44Z</time>
      </trkpt>
      <trkpt lat="42.640814" lon="1.707053">
        <ele>1847.0</ele>
        <time>2018-08-11T15:39:00Z</time>
      </trkpt>
      <trkpt lat="42.640848" lon="1.706935">
        <ele>1845.4</ele>
        <time>2018-08-11T15:39:13Z</time>
      </trkpt>
      <trkpt lat="42.640910" lon="1.706836">
        <ele>1843.6</ele>
        <time>2018-08-11T15:41:15Z</time>
      </trkpt>
      <trkpt lat="42.640897" lon="1.706709">
        <ele>1841.9</ele>
        <time>2018-08-11T15:41:32Z</time>
      </trkpt>
      <trkpt lat="42.640933" lon="1.706607">
        <ele>1840.3</ele>
        <time>2018-08-11T15:41:52Z</time>
      </trkpt>
      <trkpt lat="42.640972" lon="1.706488">
        <ele>1839.0</ele>
        <time>2018-08-11T15:42:05Z</time>
      </trkpt>
      <trkpt lat="42.640985" lon="1.706364">
        <ele>1836.6</ele>
        <time>2018-08-11T15:42:20Z</time>
      </trkpt>
      <trkpt lat="42.641009" lon="1.706281">
        <ele>1834.4</ele>
        <time>2018-08-11T15:42:42Z</time>
      </trkpt>
      <trkpt lat="42.641024" lon="1.706144">
        <ele>1832.7</ele>
        <time>2018-08-11T15:42:57Z</time>
      </trkpt>
      <trkpt lat="42.641078" lon="1.706085">
        <ele>1831.3</ele>
        <time>2018-08-11T15:43:18Z</time>
      </trkpt>
      <trkpt lat="42.641108" lon="1.706000">
        <ele>1829.3</ele>
        <time>2018-08-11T15:43:38Z</time>
      </trkpt>
      <trkpt lat="42.641137" lon="1.705883">
        <ele>1826.1</ele>
        <time>2018-08-11T15:43:57Z</time>
      </trkpt>
      <trkpt lat="42.641164" lon="1.705768">
        <ele>1824.2</ele>
        <time>2018-08-11T15:44:21Z</time>
      </trkpt>
      <trkpt lat="42.641147" lon="1.705683">
        <ele>1822.5</ele>
        <time>2018-08-11T15:44:41Z</time>
      </trkpt>
      <trkpt lat="42.641195" lon="1.705571">
        <ele>1820.5</ele>
        <time>2018-08-11T15:44:58Z</time>
      </trkpt>
      <trkpt lat="42.641238" lon="1.705480">
        <ele>1818.6</ele>
        <time>2018-08-11T15:45:19Z</time>
      </trkpt>
      <trkpt lat="42.641283" lon="1.705377">
        <ele>1816.9</ele>
        <time>2018-08-11T15:45:33Z</time>
      </trkpt>
      <trkpt lat="42.641338" lon="1.705302">
        <ele>1814.4</ele>
        <time>2018-08-11T15:45:53Z</time>
      </trkpt>
      <trkpt lat="42.641368" lon="1.705201">
        <ele>1811.6</ele>
        <time>2018-08-11T15:46:14Z</time>
      </trkpt>
      <trkpt lat="42.641438" lon="1.705110">
        <ele>1809.5</ele>
        <time>2018-08-11T15:46:29Z</time>
      </trkpt>
      <trkpt lat="42.641508" lon="1.705058">
        <ele>1807.5</ele>
        <time>2018-08-11T15:46:43Z</time>
      </trkpt>
      <trkpt lat="42.641583" lon="1.705000">
        <ele>1804.3</ele>
        <time>2018-08-11T15:47:02Z</time>
      </trkpt>
      <trkpt lat="42.641634" lon="1.704899">
        <ele>1801.9</ele>
        <time>2018-08-11T15:47:21Z</time>
      </trkpt>
      <trkpt lat="42.641675" lon="1.704791">
        <ele>1800.6</ele>
        <time>2018-08-11T15:47:34Z</time>
      </trkpt>
      <trkpt lat="42.641710" lon="1.704681">
        <ele>1799.3</ele>
        <time>2018-08-11T15:47:47Z</time>
      </trkpt>
      <trkpt lat="42.641709" lon="1.704606">
        <ele>1794.8</ele>
        <time>2018-08-11T15:48:24Z</time>
      </trkpt>
      <trkpt lat="42.641708" lon="1.704559">
        <ele>1792.2</ele>
        <time>2018-08-11T15:48:42Z</time>
      </trkpt>
      <trkpt lat="42.641750" lon="1.704448">
        <ele>1789.1</ele>
        <time>2018-08-11T15:48:59Z</time>
      </trkpt>
      <trkpt lat="42.641788" lon="1.704349">
        <ele>1785.4</ele>
        <time>2018-08-11T15:49:21Z</time>
      </trkpt>
      <trkpt lat="42.641815" lon="1.704284">
        <ele>1782.3</ele>
        <time>2018-08-11T15:49:58Z</time>
      </trkpt>
      <trkpt lat="42.641808" lon="1.704215">
        <ele>1781.2</ele>
        <time>2018-08-11T15:50:33Z</time>
      </trkpt>
      <trkpt lat="42.641829" lon="1.704074">
        <ele>1776.1</ele>
        <time>2018-08-11T15:51:15Z</time>
      </trkpt>
      <trkpt lat="42.641910" lon="1.703997">
        <ele>1774.2</ele>
        <time>2018-08-11T15:51:30Z</time>
      </trkpt>
      <trkpt lat="42.641963" lon="1.703895">
        <ele>1772.2</ele>
        <time>2018-08-11T15:51:43Z</time>
      </trkpt>
      <trkpt lat="42.642012" lon="1.703804">
        <ele>1769.8</ele>
        <time>2018-08-11T15:51:55Z</time>
      </trkpt>
      <trkpt lat="42.642051" lon="1.703695">
        <ele>1767.9</ele>
        <time>2018-08-11T15:52:08Z</time>
      </trkpt>
      <trkpt lat="42.642125" lon="1.703613">
        <ele>1765.8</ele>
        <time>2018-08-11T15:52:19Z</time>
      </trkpt>
      <trkpt lat="42.642180" lon="1.703494">
        <ele>1763.3</ele>
        <time>2018-08-11T15:52:33Z</time>
      </trkpt>
      <trkpt lat="42.642263" lon="1.703414">
        <ele>1761.5</ele>
        <time>2018-08-11T15:52:45Z</time>
      </trkpt>
      <trkpt lat="42.642350" lon="1.703347">
        <ele>1759.5</ele>
        <time>2018-08-11T15:52:59Z</time>
      </trkpt>
      <trkpt lat="42.642439" lon="1.703294">
        <ele>1758.0</ele>
        <time>2018-08-11T15:53:13Z</time>
      </trkpt>
      <trkpt lat="42.642508" lon="1.703224">
        <ele>1756.1</ele>
        <time>2018-08-11T15:53:28Z</time>
      </trkpt>
      <trkpt lat="42.642605" lon="1.703188">
        <ele>1753.7</ele>
        <time>2018-08-11T15:53:42Z</time>
      </trkpt>
      <trkpt lat="42.642690" lon="1.703183">
        <ele>1752.3</ele>
        <time>2018-08-11T15:53:53Z</time>
      </trkpt>
      <trkpt lat="42.642764" lon="1.703187">
        <ele>1751.7</ele>
        <time>2018-08-11T15:54:17Z</time>
      </trkpt>
      <trkpt lat="42.642850" lon="1.703179">
        <ele>1749.7</ele>
        <time>2018-08-11T15:54:30Z</time>
      </trkpt>
      <trkpt lat="42.642944" lon="1.703173">
        <ele>1748.3</ele>
        <time>2018-08-11T15:54:46Z</time>
      </trkpt>
      <trkpt lat="42.643030" lon="1.703171">
        <ele>1747.5</ele>
        <time>2018-08-11T15:54:56Z</time>
      </trkpt>
      <trkpt lat="42.643113" lon="1.703188">
        <ele>1746.6</ele>
        <time>2018-08-11T15:55:07Z</time>
      </trkpt>
      <trkpt lat="42.643177" lon="1.703095">
        <ele>1745.2</ele>
        <time>2018-08-11T15:55:19Z</time>
      </trkpt>
      <trkpt lat="42.643245" lon="1.703015">
        <ele>1743.7</ele>
        <time>2018-08-11T15:55:33Z</time>
      </trkpt>
      <trkpt lat="42.643325" lon="1.702951">
        <ele>1742.1</ele>
        <time>2018-08-11T15:55:45Z</time>
      </trkpt>
      <trkpt lat="42.643411" lon="1.702887">
        <ele>1740.6</ele>
        <time>2018-08-11T15:55:57Z</time>
      </trkpt>
      <trkpt lat="42.643501" lon="1.702858">
        <ele>1739.0</ele>
        <time>2018-08-11T15:56:10Z</time>
      </trkpt>
      <trkpt lat="42.643578" lon="1.702802">
        <ele>1737.2</ele>
        <time>2018-08-11T15:56:22Z</time>
      </trkpt>
      <trkpt lat="42.643675" lon="1.702762">
        <ele>1735.1</ele>
        <time>2018-08-11T15:56:35Z</time>
      </trkpt>
      <trkpt lat="42.643769" lon="1.702730">
        <ele>1733.2</ele>
        <time>2018-08-11T15:56:47Z</time>
      </trkpt>
      <trkpt lat="42.643868" lon="1.702714">
        <ele>1732.0</ele>
        <time>2018-08-11T15:56:59Z</time>
      </trkpt>
      <trkpt lat="42.643962" lon="1.702713">
        <ele>1731.2</ele>
        <time>2018-08-11T15:57:10Z</time>
      </trkpt>
      <trkpt lat="42.644055" lon="1.702740">
        <ele>1730.2</ele>
        <time>2018-08-11T15:57:24Z</time>
      </trkpt>
      <trkpt lat="42.644152" lon="1.702775">
        <ele>1729.2</ele>
        <time>2018-08-11T15:57:39Z</time>
      </trkpt>
      <trkpt lat="42.644251" lon="1.702747">
        <ele>1728.8</ele>
        <time>2018-08-11T15:57:52Z</time>
      </trkpt>
      <trkpt lat="42.644331" lon="1.702696">
        <ele>1728.4</ele>
        <time>2018-08-11T15:58:03Z</time>
      </trkpt>
      <trkpt lat="42.644436" lon="1.702661">
        <ele>1728.4</ele>
        <time>2018-08-11T15:58:15Z</time>
      </trkpt>
      <trkpt lat="42.644531" lon="1.702610">
        <ele>1728.0</ele>
        <time>2018-08-11T15:58:26Z</time>
      </trkpt>
      <trkpt lat="42.644615" lon="1.702616">
        <ele>1727.6</ele>
        <time>2018-08-11T15:58:36Z</time>
      </trkpt>
      <trkpt lat="42.644708" lon="1.702609">
        <ele>1727.0</ele>
        <time>2018-08-11T15:58:46Z</time>
      </trkpt>
      <trkpt lat="42.644794" lon="1.702630">
        <ele>1726.9</ele>
        <time>2018-08-11T15:58:57Z</time>
      </trkpt>
      <trkpt lat="42.644869" lon="1.702635">
        <ele>1726.6</ele>
        <time>2018-08-11T15:59:12Z</time>
      </trkpt>
      <trkpt lat="42.644963" lon="1.702633">
        <ele>1726.1</ele>
        <time>2018-08-11T15:59:23Z</time>
      </trkpt>
      <trkpt lat="42.645042" lon="1.702604">
        <ele>1725.5</ele>
        <time>2018-08-11T15:59:35Z</time>
      </trkpt>
      <trkpt lat="42.645132" lon="1.702585">
        <ele>1725.1</ele>
        <time>2018-08-11T15:59:51Z</time>
      </trkpt>
      <trkpt lat="42.645221" lon="1.702593">
        <ele>1724.5</ele>
        <time>2018-08-11T16:00:01Z</time>
      </trkpt>
      <trkpt lat="42.645295" lon="1.702628">
        <ele>1724.8</ele>
        <time>2018-08-11T16:00:19Z</time>
      </trkpt>
      <trkpt lat="42.645394" lon="1.702620">
        <ele>1724.6</ele>
        <time>2018-08-11T16:00:33Z</time>
      </trkpt>
      <trkpt lat="42.645472" lon="1.702618">
        <ele>1724.6</ele>
        <time>2018-08-11T16:01:05Z</time>
      </trkpt>
      <trkpt lat="42.645552" lon="1.702658">
        <ele>1724.7</ele>
        <time>2018-08-11T16:01:16Z</time>
      </trkpt>
      <trkpt lat="42.645647" lon="1.702631">
        <ele>1725.8</ele>
        <time>2018-08-11T16:01:29Z</time>
      </trkpt>
      <trkpt lat="42.645749" lon="1.702652">
        <ele>1727.7</ele>
        <time>2018-08-11T16:01:48Z</time>
      </trkpt>
      <trkpt lat="42.645851" lon="1.702665">
        <ele>1728.2</ele>
        <time>2018-08-11T16:02:01Z</time>
      </trkpt>
      <trkpt lat="42.645953" lon="1.702690">
        <ele>1728.0</ele>
        <time>2018-08-11T16:02:11Z</time>
      </trkpt>
      <trkpt lat="42.646050" lon="1.702688">
        <ele>1727.7</ele>
        <time>2018-08-11T16:02:21Z</time>
      </trkpt>
      <trkpt lat="42.646137" lon="1.702691">
        <ele>1727.5</ele>
        <time>2018-08-11T16:02:31Z</time>
      </trkpt>
      <trkpt lat="42.646224" lon="1.702710">
        <ele>1727.6</ele>
        <time>2018-08-11T16:02:41Z</time>
      </trkpt>
      <trkpt lat="42.646298" lon="1.702774">
        <ele>1727.5</ele>
        <time>2018-08-11T16:02:51Z</time>
      </trkpt>
      <trkpt lat="42.646382" lon="1.702818">
        <ele>1727.4</ele>
        <time>2018-08-11T16:03:02Z</time>
      </trkpt>
      <trkpt lat="42.646470" lon="1.702858">
        <ele>1727.4</ele>
        <time>2018-08-11T16:03:14Z</time>
      </trkpt>
      <trkpt lat="42.646564" lon="1.702879">
        <ele>1727.3</ele>
        <time>2018-08-11T16:03:26Z</time>
      </trkpt>
      <trkpt lat="42.646655" lon="1.702890">
        <ele>1726.7</ele>
        <time>2018-08-11T16:03:39Z</time>
      </trkpt>
      <trkpt lat="42.646740" lon="1.702892">
        <ele>1725.3</ele>
        <time>2018-08-11T16:03:52Z</time>
      </trkpt>
      <trkpt lat="42.646812" lon="1.702919">
        <ele>1722.7</ele>
        <time>2018-08-11T16:04:07Z</time>
      </trkpt>
      <trkpt lat="42.646892" lon="1.702932">
        <ele>1720.1</ele>
        <time>2018-08-11T16:04:25Z</time>
      </trkpt>
      <trkpt lat="42.646976" lon="1.702947">
        <ele>1717.8</ele>
        <time>2018-08-11T16:04:46Z</time>
      </trkpt>
      <trkpt lat="42.647072" lon="1.702915">
        <ele>1716.1</ele>
        <time>2018-08-11T16:05:03Z</time>
      </trkpt>
      <trkpt lat="42.647173" lon="1.702898">
        <ele>1714.8</ele>
        <time>2018-08-11T16:05:16Z</time>
      </trkpt>
      <trkpt lat="42.647276" lon="1.702893">
        <ele>1713.8</ele>
        <time>2018-08-11T16:05:29Z</time>
      </trkpt>
      <trkpt lat="42.647365" lon="1.702896">
        <ele>1713.1</ele>
        <time>2018-08-11T16:05:46Z</time>
      </trkpt>
      <trkpt lat="42.647454" lon="1.702900">
        <ele>1712.5</ele>
        <time>2018-08-11T16:05:58Z</time>
      </trkpt>
      <trkpt lat="42.647537" lon="1.702870">
        <ele>1711.8</ele>
        <time>2018-08-11T16:06:13Z</time>
      </trkpt>
      <trkpt lat="42.647631" lon="1.702899">
        <ele>1711.1</ele>
        <time>2018-08-11T16:06:27Z</time>
      </trkpt>
      <trkpt lat="42.647695" lon="1.702951">
        <ele>1710.9</ele>
        <time>2018-08-11T16:07:03Z</time>
      </trkpt>
      <trkpt lat="42.647791" lon="1.702997">
        <ele>1710.4</ele>
        <time>2018-08-11T16:07:16Z</time>
      </trkpt>
      <trkpt lat="42.647887" lon="1.703028">
        <ele>1709.4</ele>
        <time>2018-08-11T16:07:27Z</time>
      </trkpt>
      <trkpt lat="42.647979" lon="1.703077">
        <ele>1708.7</ele>
        <time>2018-08-11T16:07:38Z</time>
      </trkpt>
      <trkpt lat="42.648074" lon="1.703100">
        <ele>1708.0</ele>
        <time>2018-08-11T16:07:50Z</time>
      </trkpt>
      <trkpt lat="42.648172" lon="1.703130">
        <ele>1707.1</ele>
        <time>2018-08-11T16:08:09Z</time>
      </trkpt>
      <trkpt lat="42.648254" lon="1.703170">
        <ele>1707.0</ele>
        <time>2018-08-11T16:08:24Z</time>
      </trkpt>
      <trkpt lat="42.648361" lon="1.703195">
        <ele>1706.4</ele>
        <time>2018-08-11T16:08:37Z</time>
      </trkpt>
      <trkpt lat="42.648451" lon="1.703220">
        <ele>1706.3</ele>
        <time>2018-08-11T16:08:48Z</time>
      </trkpt>
      <trkpt lat="42.648534" lon="1.703247">
        <ele>1706.1</ele>
        <time>2018-08-11T16:08:59Z</time>
      </trkpt>
      <trkpt lat="42.648630" lon="1.703254">
        <ele>1705.7</ele>
        <time>2018-08-11T16:09:12Z</time>
      </trkpt>
      <trkpt lat="42.648719" lon="1.703259">
        <ele>1705.5</ele>
        <time>2018-08-11T16:09:29Z</time>
      </trkpt>
      <trkpt lat="42.648819" lon="1.703269">
        <ele>1705.5</ele>
        <time>2018-08-11T16:09:41Z</time>
      </trkpt>
      <trkpt lat="42.648920" lon="1.703287">
        <ele>1705.2</ele>
        <time>2018-08-11T16:09:53Z</time>
      </trkpt>
      <trkpt lat="42.648990" lon="1.703229">
        <ele>1704.5</ele>
        <time>2018-08-11T16:10:06Z</time>
      </trkpt>
      <trkpt lat="42.649085" lon="1.703222">
        <ele>1703.7</ele>
        <time>2018-08-11T16:10:21Z</time>
      </trkpt>
      <trkpt lat="42.649156" lon="1.703322">
        <ele>1703.7</ele>
        <time>2018-08-11T16:10:35Z</time>
      </trkpt>
      <trkpt lat="42.649237" lon="1.703405">
        <ele>1704.5</ele>
        <time>2018-08-11T16:10:49Z</time>
      </trkpt>
      <trkpt lat="42.649314" lon="1.703440">
        <ele>1705.3</ele>
        <time>2018-08-11T16:11:05Z</time>
      </trkpt>
      <trkpt lat="42.649412" lon="1.703464">
        <ele>1706.0</ele>
        <time>2018-08-11T16:11:19Z</time>
      </trkpt>
      <trkpt lat="42.649520" lon="1.703473">
        <ele>1705.7</ele>
        <time>2018-08-11T16:11:32Z</time>
      </trkpt>
      <trkpt lat="42.649615" lon="1.703479">
        <ele>1705.3</ele>
        <time>2018-08-11T16:11:44Z</time>
      </trkpt>
      <trkpt lat="42.649702" lon="1.703476">
        <ele>1704.9</ele>
        <time>2018-08-11T16:11:59Z</time>
      </trkpt>
    </trkseg>
  </trk>
</gpx>

